Darstellungsparameter: Aktuell verwendete Einstellungen:
Skalierung der Graphiken ... ?
xyx+y,   Skalierungsfaktor:      Skalierung: Modus: x, Faktor: 1
Darstellungszeitraum ... ?
Vom - - bis: - -   Zeitraum: 25.04.2010 - 24.04.2020
Min/Max/Avg-Anzeige ... ?
Zeige MMA aktuell
Zeige MMA Monat
Zeige MMA alles
Zeige --A aktuell
Zeige --A Monat
Zeige --A alles
Keine MMA-Anzeige
MMA:
Keine MMA-Graphiken
MMA-Basis: 25.04.2010 - 24.04.2020
Quicknavigation für Darstellung... ?
Tage:      1T, 2T, 3T, 5T -1T -2T -3T -5T +1T +2T +3T +5T
Wochen: 1W, 2W, 3W -1W -2W -3W +1W +2W +3W
Monate: 1M, 3M, 6M -1M -3M -6M +1M +3M +6M
Jahre:    1J, 3J, 5J, 10J -1J -3J -5J -10J +1J +3J +5J +10J
Nutze für die Darstellung ... ?
Originaldaten oder Mittelwerte auf ...
Stundenbasis Tagesbasis Wochenbasis
Monatsbasis Jahresbasis      Datenbasis: Original-Daten
Darstellen als:
Statistik (Auto) Statistik J:M      Darstellung:
Zur Graphik,    zurück zur Übersicht aller Sensoren.
 
Tabellarische Datenbersicht: ?
 
Sensor: Nr:Datum:Temp:Feuchte:
Aussen-T/F 1 05-02-2012 20:56:16 0 C 20 %
2 05-02-2012 21:06:17 0 C 20 %
3 05-02-2012 21:16:17 -11.2 C 49 %
4 05-02-2012 21:26:17 -11.4 C 48 %
5 05-02-2012 21:36:17 -11.8 C 51 %
6 05-02-2012 21:46:17 -12 C 52 %
7 05-02-2012 21:56:17 -12.2 C 52 %
8 05-02-2012 22:06:17 -12.6 C 52 %
9 05-02-2012 22:16:17 -12.7 C 53 %
10 05-02-2012 22:26:17 -12.5 C 55 %
11 05-02-2012 22:36:17 -12.6 C 56 %
12 05-02-2012 22:46:17 -12.6 C 56 %
13 05-02-2012 22:56:17 -12.7 C 56 %
14 05-02-2012 23:06:17 -12.5 C 57 %
15 05-02-2012 23:16:17 -11.9 C 57 %
16 05-02-2012 23:26:17 -12.3 C 57 %
17 05-02-2012 23:36:17 -12.6 C 56 %
18 05-02-2012 23:46:17 -12.9 C 56 %
19 05-02-2012 23:56:17 -12.7 C 57 %
20 06-02-2012 00:06:17 -12.5 C 59 %
21 06-02-2012 00:16:17 -12.2 C 59 %
22 06-02-2012 00:26:17 -12.1 C 59 %
23 06-02-2012 00:36:18 -12 C 59 %
24 06-02-2012 00:46:18 -12.2 C 58 %
25 06-02-2012 00:56:18 -12.2 C 58 %
Sensor: Nr:Datum:Temp:Feuchte:
Aussen-T/F 26 06-02-2012 01:06:18 -12.1 C 59 %
27 06-02-2012 01:16:18 -12.4 C 59 %
28 06-02-2012 01:26:18 -12.3 C 59 %
29 06-02-2012 01:36:18 -12.3 C 59 %
30 06-02-2012 01:46:18 -12.3 C 59 %
31 06-02-2012 01:56:18 -12.2 C 58 %
32 06-02-2012 02:06:18 -12.7 C 58 %
33 06-02-2012 02:16:18 -12.7 C 59 %
34 06-02-2012 02:26:18 -12.6 C 59 %
35 06-02-2012 02:36:18 -12.7 C 59 %
36 06-02-2012 02:46:18 -12.9 C 60 %
37 06-02-2012 02:56:18 -13.2 C 59 %
38 06-02-2012 03:06:18 -13.6 C 59 %
39 06-02-2012 03:16:18 -13.8 C 60 %
40 06-02-2012 03:26:18 -13.8 C 60 %
41 06-02-2012 03:36:18 -13.6 C 60 %
42 06-02-2012 03:46:18 -13.8 C 61 %
43 06-02-2012 03:56:18 -13.7 C 61 %
44 06-02-2012 04:06:19 -13.7 C 61 %
45 06-02-2012 04:16:19 -14.4 C 61 %
46 06-02-2012 04:26:19 -14.6 C 61 %
47 06-02-2012 04:36:19 -14.1 C 62 %
48 06-02-2012 04:46:19 -14.5 C 62 %
49 06-02-2012 04:56:19 -14.6 C 62 %
50 06-02-2012 05:06:19 -14.6 C 62 %
Sensor: Nr:Datum:Temp:Feuchte:
Aussen-T/F 51 06-02-2012 05:16:19 -14.4 C 63 %
52 06-02-2012 05:26:19 -14.6 C 63 %
53 06-02-2012 05:36:19 -14.6 C 64 %
54 06-02-2012 05:46:19 -14.7 C 64 %
55 06-02-2012 05:56:19 -15.1 C 63 %
56 06-02-2012 06:06:19 -15.6 C 62 %
57 06-02-2012 06:16:19 -15.9 C 62 %
58 06-02-2012 06:26:19 -15.5 C 62 %
59 06-02-2012 06:36:20 -15.6 C 64 %
60 06-02-2012 06:46:20 -15.4 C 64 %
61 06-02-2012 06:56:20 -15.9 C 65 %
62 06-02-2012 07:06:20 -15.4 C 65 %
63 06-02-2012 07:16:20 -15.7 C 66 %
64 06-02-2012 07:26:20 -15.9 C 65 %
65 06-02-2012 07:36:20 -15.5 C 65 %
66 06-02-2012 07:46:20 -15.4 C 66 %
67 06-02-2012 07:56:20 -16 C 66 %
68 06-02-2012 08:06:20 -15.8 C 66 %
69 06-02-2012 08:16:20 -16.2 C 65 %
70 06-02-2012 08:26:31 -16.1 C 65 %
71 06-02-2012 08:36:30 -16 C 65 %
72 06-02-2012 08:46:31 -15.5 C 65 %
73 06-02-2012 08:56:31 -15.6 C 66 %
74 06-02-2012 09:06:31 -15.5 C 66 %
75 06-02-2012 09:16:30 -15.3 C 66 %
Sensor: Nr:Datum:Temp:Feuchte:
Aussen-T/F 76 06-02-2012 09:26:30 -15 C 66 %
77 06-02-2012 09:36:31 -14.6 C 67 %
78 06-02-2012 09:46:30 -14.5 C 67 %
79 06-02-2012 09:56:30 -14.1 C 67 %
80 06-02-2012 10:06:31 -14 C 66 %
81 06-02-2012 10:16:30 -13.5 C 66 %
82 06-02-2012 10:26:30 -13.7 C 66 %
83 06-02-2012 10:36:30 -13.7 C 66 %
84 06-02-2012 10:46:30 -13.5 C 65 %
85 06-02-2012 10:56:31 -12.9 C 65 %
86 06-02-2012 11:06:30 -12.9 C 65 %
87 06-02-2012 11:16:30 -12.6 C 65 %
88 06-02-2012 11:26:30 -11.9 C 65 %
89 06-02-2012 11:36:30 -11.4 C 64 %
90 06-02-2012 11:46:29 -10.8 C 62 %
91 06-02-2012 11:56:29 -10.3 C 61 %
92 06-02-2012 12:06:30 -9.5 C 59 %
93 06-02-2012 12:16:29 -9 C 57 %
94 06-02-2012 12:26:29 -8.1 C 54 %
95 06-02-2012 12:36:30 -8.4 C 45 %
96 06-02-2012 12:46:29 -8.5 C 42 %
97 06-02-2012 12:56:29 -8.1 C 40 %
98 06-02-2012 13:06:29 -7.9 C 37 %
99 06-02-2012 13:16:29 -7.7 C 36 %
100 06-02-2012 13:26:30 -7.7 C 35 %
Sensor: Nr:Datum:Temp:Feuchte:
Aussen-T/F 101 06-02-2012 13:36:29 -7.5 C 35 %
102 06-02-2012 13:46:29 -7.5 C 34 %
103 06-02-2012 13:56:29 -7.3 C 33 %
104 06-02-2012 14:06:29 -6.9 C 32 %
105 06-02-2012 14:16:28 -6.6 C 32 %
106 06-02-2012 14:26:28 -5.7 C 35 %
107 06-02-2012 14:36:29 -5.1 C 30 %
108 06-02-2012 14:46:28 -5.4 C 20 %
109 06-02-2012 14:56:28 -5.5 C 20 %
110 06-02-2012 15:06:29 -5 C 20 %
111 06-02-2012 15:16:29 -5.6 C 20 %
112 06-02-2012 15:26:29 -5.3 C 20 %
113 06-02-2012 15:36:28 -5.4 C 20 %
114 06-02-2012 15:46:29 -5.3 C 20 %
115 06-02-2012 15:56:29 -4.7 C 20 %
116 06-02-2012 16:06:28 -4.6 C 20 %
117 06-02-2012 16:16:28 -4.4 C 20 %
118 06-02-2012 16:26:28 -2.9 C 20 %
119 06-02-2012 16:36:28 -4.1 C 20 %
120 06-02-2012 16:46:28 -6.8 C 25 %
121 06-02-2012 16:56:28 -7.9 C 32 %
122 06-02-2012 17:06:28 -8.5 C 38 %
123 06-02-2012 17:16:28 -8.7 C 40 %
124 06-02-2012 17:26:28 -8.9 C 41 %
125 06-02-2012 17:36:27 -9.1 C 40 %
Sensor: Nr:Datum:Temp:Feuchte:
Aussen-T/F 126 06-02-2012 17:46:28 -9.5 C 39 %
127 06-02-2012 17:56:28 -9.9 C 37 %
128 06-02-2012 18:06:27 -10.2 C 38 %
129 06-02-2012 18:16:28 -10.5 C 40 %
130 06-02-2012 18:26:28 -10.7 C 40 %
131 06-02-2012 18:36:27 -11 C 42 %
132 06-02-2012 18:46:27 -11 C 43 %
133 06-02-2012 18:56:27 -11.2 C 43 %
134 06-02-2012 19:06:28 -11.3 C 45 %
135 06-02-2012 19:16:27 -11.3 C 46 %
136 06-02-2012 19:26:27 -11.7 C 46 %
137 06-02-2012 19:36:27 -11.7 C 47 %
138 06-02-2012 19:46:27 -11.5 C 48 %
139 06-02-2012 19:56:27 -11.9 C 48 %
140 06-02-2012 20:06:27 -12.1 C 48 %
141 06-02-2012 20:16:26 -12.1 C 49 %
142 06-02-2012 20:26:26 -12.3 C 49 %
143 06-02-2012 20:36:27 -12.1 C 50 %
144 06-02-2012 20:46:26 -12.4 C 50 %
145 06-02-2012 20:56:26 -12.4 C 50 %
146 06-02-2012 21:06:27 -12.4 C 50 %
147 06-02-2012 21:16:27 -12.2 C 50 %
148 06-02-2012 21:26:27 -12.1 C 50 %
149 06-02-2012 21:36:26 -12.2 C 51 %
150 06-02-2012 21:46:27 -12.1 C 51 %
Sensor: Nr:Datum:Temp:Feuchte:
Aussen-T/F 151 06-02-2012 21:56:27 -13.1 C 49 %
152 06-02-2012 22:06:27 -13.1 C 52 %
153 06-02-2012 22:16:26 -13 C 53 %
154 06-02-2012 22:26:26 -12.9 C 52 %
155 06-02-2012 22:36:26 -12.8 C 51 %
156 06-02-2012 22:46:26 -13.4 C 51 %
157 06-02-2012 22:56:26 -13.6 C 50 %
158 06-02-2012 23:06:25 -13.9 C 50 %
159 06-02-2012 23:16:26 -13.3 C 50 %
160 06-02-2012 23:26:26 -13.8 C 49 %
161 06-02-2012 23:36:25 -13.4 C 47 %
162 06-02-2012 23:46:26 -14.3 C 47 %
163 06-02-2012 23:56:26 -14.3 C 47 %
164 07-02-2012 00:06:25 -14.5 C 48 %
165 07-02-2012 00:16:25 -14.5 C 47 %
166 07-02-2012 00:26:25 -14.4 C 46 %
167 07-02-2012 00:36:25 -14.7 C 46 %
168 07-02-2012 00:46:25 -14.3 C 46 %
169 07-02-2012 00:56:26 -14.5 C 46 %
170 07-02-2012 01:06:25 -14.6 C 45 %
171 07-02-2012 01:16:25 -14.2 C 45 %
172 07-02-2012 01:26:25 -14.8 C 45 %
173 07-02-2012 01:36:25 -14.7 C 46 %
174 07-02-2012 01:46:25 -15.1 C 46 %
175 07-02-2012 01:56:25 -15 C 46 %
Sensor: Nr:Datum:Temp:Feuchte:
Aussen-T/F 176 07-02-2012 02:06:25 -14.9 C 45 %
177 07-02-2012 02:16:24 -14.8 C 45 %
178 07-02-2012 02:26:24 -14.5 C 44 %
179 07-02-2012 02:36:25 -14.9 C 41 %
180 07-02-2012 02:46:01 -15.2 C 40 %
181 07-02-2012 02:56:01 -15.3 C 41 %
182 07-02-2012 03:06:02 -15.8 C 41 %
183 07-02-2012 03:16:01 -16.2 C 41 %
184 07-02-2012 03:26:01 -16.3 C 41 %
185 07-02-2012 03:36:02 -16.4 C 41 %
186 07-02-2012 03:46:01 -15.9 C 41 %
187 07-02-2012 03:56:01 -16.3 C 41 %
188 07-02-2012 04:06:01 -16.4 C 41 %
189 07-02-2012 04:16:02 -16.8 C 41 %
190 07-02-2012 04:26:02 -16.5 C 42 %
191 07-02-2012 04:36:01 -17.2 C 42 %
192 07-02-2012 04:46:02 -17.1 C 43 %
193 07-02-2012 04:56:02 -17.3 C 42 %
194 07-02-2012 05:06:01 -17.3 C 41 %
195 07-02-2012 05:16:01 -18 C 43 %
196 07-02-2012 05:26:01 -17.3 C 44 %
197 07-02-2012 05:36:02 -17.4 C 45 %
198 07-02-2012 05:46:01 -17.5 C 45 %
199 07-02-2012 05:56:01 -18.4 C 45 %
200 07-02-2012 06:06:02 -18.8 C 45 %
Sensor: Nr:Datum:Temp:Feuchte:
Aussen-T/F 201 07-02-2012 06:16:01 -18.8 C 45 %
202 07-02-2012 06:26:01 -18.3 C 46 %
203 07-02-2012 06:36:01 -18 C 46 %
204 07-02-2012 06:46:01 -18.1 C 46 %
205 07-02-2012 06:56:02 -18.5 C 46 %
206 07-02-2012 07:06:01 -18.8 C 46 %
207 07-02-2012 07:16:02 -19.1 C 46 %
208 07-02-2012 07:26:02 -19 C 47 %
209 07-02-2012 07:36:01 -18.9 C 47 %
210 07-02-2012 07:46:01 -18.4 C 50 %
211 07-02-2012 07:56:01 -18.6 C 52 %
212 07-02-2012 08:06:01 -18.5 C 53 %
213 07-02-2012 08:16:01 -18.5 C 54 %
214 07-02-2012 08:26:01 -18.1 C 54 %
215 07-02-2012 08:36:02 -17.5 C 55 %
216 07-02-2012 08:46:01 -17.3 C 54 %
217 07-02-2012 08:56:01 -17.8 C 53 %
218 07-02-2012 09:06:02 -18 C 53 %
219 07-02-2012 09:16:01 -17.3 C 55 %
220 07-02-2012 09:26:01 -17.6 C 54 %
221 07-02-2012 09:37:01 -17.3 C 55 %
222 07-02-2012 09:46:02 -17.1 C 55 %
223 07-02-2012 09:56:02 -16.5 C 54 %
224 07-02-2012 10:07:01 -16.3 C 53 %
225 07-02-2012 10:16:43 -15.9 C 51 %
Sensor: Nr:Datum:Temp:Feuchte:
Aussen-T/F 226 07-02-2012 10:26:02 -15.4 C 49 %
227 07-02-2012 10:37:01 -15.3 C 47 %
228 07-02-2012 10:47:01 -14.6 C 47 %
229 07-02-2012 10:57:01 -14.2 C 46 %
230 07-02-2012 11:06:02 -13.6 C 45 %
231 07-02-2012 11:17:01 -12.8 C 42 %
232 07-02-2012 11:27:01 -12.3 C 39 %
233 07-02-2012 11:37:01 -11.8 C 34 %
234 07-02-2012 11:47:01 -11.5 C 33 %
235 07-02-2012 11:57:01 -11.1 C 30 %
236 07-02-2012 12:07:01 -10 C 28 %
237 07-02-2012 12:16:02 -9.9 C 26 %
238 07-02-2012 12:26:02 -9.3 C 26 %
239 07-02-2012 12:37:01 -8.6 C 21 %
240 07-02-2012 12:46:02 -8 C 20 %
241 07-02-2012 12:56:02 -7.6 C 20 %
242 07-02-2012 13:07:01 -7.4 C 20 %
243 07-02-2012 13:17:01 -7 C 20 %
244 07-02-2012 13:27:01 -6.6 C 20 %
245 07-02-2012 13:37:02 -6.7 C 21 %
246 07-02-2012 13:47:01 -6.3 C 28 %
247 07-02-2012 13:57:01 -6.2 C 21 %
248 07-02-2012 14:06:02 -6.1 C 28 %
249 07-02-2012 14:17:01 -5.6 C 30 %
250 07-02-2012 14:27:01 -5.1 C 31 %
Sensor: Nr:Datum:Temp:Feuchte:
Aussen-T/F 251 07-02-2012 14:37:01 -5.1 C 30 %
252 07-02-2012 14:47:01 -5 C 30 %
253 07-02-2012 14:57:02 -5.4 C 31 %
254 07-02-2012 15:07:01 -5.2 C 32 %
255 07-02-2012 15:17:02 -5.3 C 33 %
256 07-02-2012 15:26:02 -5.4 C 35 %
257 07-02-2012 15:37:01 -5.3 C 38 %
258 07-02-2012 15:47:01 -5.5 C 42 %
259 07-02-2012 15:57:01 -5.5 C 43 %
260 07-02-2012 16:07:02 -5.6 C 45 %
261 07-02-2012 16:17:01 -5.7 C 46 %
262 07-02-2012 16:27:01 -5.8 C 49 %
263 07-02-2012 16:37:02 -6 C 52 %
264 07-02-2012 16:47:01 -6.4 C 56 %
265 07-02-2012 16:57:01 -6.4 C 58 %
266 07-02-2012 17:07:01 -6.5 C 59 %
267 07-02-2012 17:17:01 -6.7 C 60 %
268 07-02-2012 17:27:02 -6.7 C 61 %
269 07-02-2012 17:37:01 -6.8 C 63 %
270 07-02-2012 17:47:02 -6.8 C 63 %
271 07-02-2012 17:57:02 -7 C 63 %
272 07-02-2012 18:07:01 -7.1 C 62 %
273 07-02-2012 18:17:01 -7.2 C 59 %
274 07-02-2012 18:27:01 -7.2 C 57 %
275 07-02-2012 18:37:02 -7.3 C 56 %
Sensor: Nr:Datum:Temp:Feuchte:
Aussen-T/F 276 07-02-2012 18:47:01 -7.3 C 56 %
277 07-02-2012 18:57:01 -7.4 C 57 %
278 07-02-2012 19:07:02 -7.5 C 60 %
279 07-02-2012 19:17:01 -7.7 C 63 %
280 07-02-2012 19:27:01 -7.8 C 66 %
281 07-02-2012 19:37:01 -7.9 C 67 %
282 07-02-2012 19:47:02 -7.9 C 68 %
283 07-02-2012 19:57:02 -7.9 C 68 %
284 07-02-2012 20:07:01 -7.9 C 69 %
285 07-02-2012 20:17:02 -7.9 C 70 %
286 07-02-2012 20:27:02 -7.9 C 70 %
287 07-02-2012 20:37:01 -8 C 70 %
288 07-02-2012 20:47:01 -8 C 70 %
289 07-02-2012 20:57:01 -7.9 C 71 %
290 07-02-2012 21:07:02 -8 C 71 %
291 07-02-2012 21:17:01 -7.9 C 69 %
292 07-02-2012 21:27:01 -7.9 C 65 %
293 07-02-2012 21:37:01 -7.9 C 63 %
294 07-02-2012 21:47:02 -7.9 C 60 %
295 07-02-2012 21:57:02 -7.8 C 58 %
296 07-02-2012 22:07:01 -7.7 C 55 %
297 07-02-2012 22:17:01 -7.7 C 55 %
298 07-02-2012 22:27:02 -7.7 C 54 %
299 07-02-2012 22:37:01 -7.7 C 54 %
300 07-02-2012 22:47:02 -7.6 C 53 %
Sensor: Nr:Datum:Temp:Feuchte:
Aussen-T/F 301 07-02-2012 22:57:02 -7.6 C 53 %
302 07-02-2012 23:07:01 -7.6 C 53 %
303 07-02-2012 23:17:01 -7.6 C 52 %
304 07-02-2012 23:27:01 -7.6 C 52 %
305 07-02-2012 23:37:01 -7.6 C 51 %
306 07-02-2012 23:47:01 -7.6 C 51 %
307 07-02-2012 23:57:01 -7.7 C 52 %
308 08-02-2012 00:07:02 -7.7 C 52 %
309 08-02-2012 00:17:01 -7.8 C 53 %
310 08-02-2012 00:27:01 -7.7 C 53 %
311 08-02-2012 00:37:01 -7.5 C 53 %
312 08-02-2012 00:47:01 -7.6 C 52 %
313 08-02-2012 00:57:02 -7.5 C 52 %
314 08-02-2012 01:07:01 -7.5 C 52 %
315 08-02-2012 01:17:02 -7.5 C 52 %
316 08-02-2012 01:27:02 -7.4 C 52 %
317 08-02-2012 01:37:01 -7.4 C 51 %
318 08-02-2012 01:47:02 -7.3 C 51 %
319 08-02-2012 01:57:02 -7 C 51 %
320 08-02-2012 02:07:01 -7.4 C 52 %
321 08-02-2012 02:17:01 -7.4 C 52 %
322 08-02-2012 02:27:01 -7.4 C 53 %
323 08-02-2012 02:37:01 -7.5 C 53 %
324 08-02-2012 02:47:01 -7.4 C 53 %
325 08-02-2012 02:57:01 -7.3 C 53 %
Sensor: Nr:Datum:Temp:Feuchte:
Aussen-T/F 326 08-02-2012 03:07:02 -7.4 C 53 %
327 08-02-2012 03:17:01 -7.3 C 53 %
328 08-02-2012 03:27:01 -7.4 C 54 %
329 08-02-2012 03:37:02 -7.5 C 54 %
330 08-02-2012 03:47:01 -7.6 C 54 %
331 08-02-2012 03:57:01 -7.7 C 54 %
332 08-02-2012 04:07:02 -7.8 C 55 %
333 08-02-2012 04:17:01 -7.9 C 55 %
334 08-02-2012 04:27:01 -8 C 56 %
335 08-02-2012 04:37:01 -7.9 C 57 %
336 08-02-2012 04:47:01 -8.1 C 56 %
337 08-02-2012 04:57:02 -8.5 C 57 %
338 08-02-2012 05:07:01 -9 C 58 %
339 08-02-2012 05:17:02 -9.2 C 60 %
340 08-02-2012 05:27:02 -9.5 C 61 %
341 08-02-2012 05:37:01 -9.5 C 62 %
342 08-02-2012 05:47:02 -9.3 C 63 %
343 08-02-2012 05:57:02 -9.3 C 63 %
344 08-02-2012 06:07:01 -9.1 C 62 %
345 08-02-2012 06:17:01 -9.3 C 62 %
346 08-02-2012 06:27:01 -9.7 C 62 %
347 08-02-2012 06:37:01 -9.9 C 64 %
348 08-02-2012 06:47:01 -9.2 C 66 %
349 08-02-2012 06:57:01 -9.3 C 64 %
350 08-02-2012 07:07:02 -9.2 C 64 %
Sensor: Nr:Datum:Temp:Feuchte:
Aussen-T/F 351 08-02-2012 07:17:53 -9.4 C 64 %
352 08-02-2012 07:27:01 -9.3 C 64 %
353 08-02-2012 07:37:02 -9 C 64 %
354 08-02-2012 07:47:01 -9 C 63 %
355 08-02-2012 07:57:01 -8.7 C 63 %
356 08-02-2012 08:07:01 -9 C 63 %
357 08-02-2012 08:17:02 -8.7 C 62 %
358 08-02-2012 08:27:02 -8.6 C 62 %
359 08-02-2012 08:37:01 -8.6 C 62 %
360 08-02-2012 08:47:02 -8 C 61 %
361 08-02-2012 08:57:02 -7.9 C 59 %
362 08-02-2012 09:07:01 -7.7 C 57 %
363 08-02-2012 09:17:01 -7.5 C 56 %
364 08-02-2012 09:27:01 -7.4 C 55 %
365 08-02-2012 09:37:01 -7.3 C 55 %
366 08-02-2012 09:47:01 -7.1 C 55 %
367 08-02-2012 09:57:01 -6.9 C 54 %
368 08-02-2012 10:07:02 -6.8 C 53 %
369 08-02-2012 10:17:01 -6.6 C 53 %
370 08-02-2012 10:27:01 -6.5 C 52 %
371 08-02-2012 10:37:01 -6.2 C 52 %
372 08-02-2012 10:47:01 -6.1 C 51 %
373 08-02-2012 10:57:01 -6.1 C 51 %
374 08-02-2012 11:07:01 -5.8 C 50 %
375 08-02-2012 11:17:02 -5.6 C 50 %
Sensor: Nr:Datum:Temp:Feuchte:
Aussen-T/F 376 08-02-2012 11:27:02 -5.1 C 49 %
377 08-02-2012 11:37:01 -4.8 C 48 %
378 08-02-2012 11:47:01 -4.8 C 47 %
379 08-02-2012 11:57:01 -4.5 C 47 %
380 08-02-2012 12:07:02 -4.3 C 47 %
381 08-02-2012 12:17:01 -3.9 C 46 %
382 08-02-2012 12:27:01 -3 C 45 %
383 08-02-2012 12:37:02 -3.4 C 44 %
384 08-02-2012 12:47:01 -3 C 45 %
385 08-02-2012 12:57:01 -3.4 C 44 %
386 08-02-2012 13:07:01 -3.4 C 45 %
387 08-02-2012 13:17:02 -3.1 C 45 %
388 08-02-2012 13:27:02 -3.7 C 45 %
389 08-02-2012 13:37:01 -4 C 45 %
390 08-02-2012 13:47:01 -3.9 C 45 %
391 08-02-2012 13:57:01 -3.7 C 46 %
392 08-02-2012 14:07:01 -3 C 45 %
393 08-02-2012 14:17:01 -2.9 C 45 %
394 08-02-2012 14:27:01 -2.4 C 44 %
395 08-02-2012 14:37:02 -2.2 C 43 %
396 08-02-2012 14:47:01 -1.6 C 42 %
397 08-02-2012 14:57:01 -1.9 C 42 %
398 08-02-2012 15:07:02 -1.8 C 43 %
399 08-02-2012 15:17:01 -2.1 C 42 %
400 08-02-2012 15:27:01 -1.9 C 43 %
Sensor: Nr:Datum:Temp:Feuchte:
Aussen-T/F 401 08-02-2012 15:37:01 -1.7 C 41 %
402 08-02-2012 15:47:02 -1.6 C 42 %
403 08-02-2012 15:57:02 -1.4 C 42 %
404 08-02-2012 16:07:01 -1 C 42 %
405 08-02-2012 16:17:02 0 C 40 %
406 08-02-2012 16:27:02 -0.3 C 38 %
407 08-02-2012 16:37:01 0.1 C 38 %
408 08-02-2012 16:47:01 -1.4 C 41 %
409 08-02-2012 16:57:01 -3.1 C 46 %
410 08-02-2012 17:07:02 -4.3 C 53 %
411 08-02-2012 17:17:01 -4.9 C 56 %
412 08-02-2012 17:27:01 -5.4 C 58 %
413 08-02-2012 17:37:01 -6 C 60 %
414 08-02-2012 17:47:02 -6.1 C 61 %
415 08-02-2012 17:57:02 -6.2 C 61 %
416 08-02-2012 18:07:01 -6.2 C 60 %
417 08-02-2012 18:17:02 -6.6 C 60 %
418 08-02-2012 18:27:02 -6.8 C 61 %
419 08-02-2012 18:37:01 -6.6 C 61 %
420 08-02-2012 18:47:01 -6.8 C 62 %
421 08-02-2012 18:57:01 -7.2 C 62 %
422 08-02-2012 19:07:01 -7.1 C 64 %
423 08-02-2012 19:17:01 -7.2 C 65 %
424 08-02-2012 19:27:01 -7.3 C 64 %
425 08-02-2012 19:37:02 -7.5 C 65 %
Sensor: Nr:Datum:Temp:Feuchte:
Aussen-T/F 426 08-02-2012 19:47:01 -8 C 65 %
427 08-02-2012 19:57:01 -7.8 C 66 %
428 08-02-2012 20:07:01 -7.9 C 67 %
429 08-02-2012 20:17:02 -7.4 C 66 %
430 08-02-2012 20:27:02 -7.3 C 62 %
431 08-02-2012 20:37:01 -7.3 C 60 %
432 08-02-2012 20:47:01 -7.7 C 60 %
433 08-02-2012 20:57:01 -7.8 C 62 %
434 08-02-2012 21:07:02 -8.5 C 62 %
435 08-02-2012 21:17:01 -8.7 C 65 %
436 08-02-2012 21:27:01 -8.7 C 66 %
437 08-02-2012 21:37:01 -9.1 C 66 %
438 08-02-2012 21:47:01 -9.8 C 66 %
439 08-02-2012 21:57:02 -9.6 C 68 %
440 08-02-2012 22:07:01 -9.7 C 68 %
441 08-02-2012 22:17:02 -9.9 C 69 %
442 08-02-2012 22:27:02 -10.2 C 68 %
443 08-02-2012 22:37:01 -9.9 C 69 %
444 08-02-2012 22:47:02 -10.4 C 69 %
445 08-02-2012 22:57:02 -10.4 C 69 %
446 08-02-2012 23:07:01 -10.1 C 70 %
447 08-02-2012 23:17:01 -10.2 C 71 %
448 08-02-2012 23:27:01 -9.8 C 71 %
449 08-02-2012 23:37:02 -9.2 C 72 %
450 08-02-2012 23:47:01 -9.8 C 71 %
Sensor: Nr:Datum:Temp:Feuchte:
Aussen-T/F 451 08-02-2012 23:57:01 -10.4 C 71 %
452 09-02-2012 00:07:02 -10.7 C 70 %
453 09-02-2012 00:17:01 -10.9 C 70 %
454 09-02-2012 00:27:01 -11.2 C 70 %
455 09-02-2012 00:37:01 -11.6 C 69 %
456 09-02-2012 00:47:01 -11.9 C 69 %
457 09-02-2012 00:57:02 -11.9 C 69 %
458 09-02-2012 01:07:01 -11.8 C 70 %
459 09-02-2012 01:17:02 -12 C 70 %
460 09-02-2012 01:27:02 -12.1 C 70 %
461 09-02-2012 01:37:01 -12.3 C 70 %
462 09-02-2012 01:47:02 -12.4 C 70 %
463 09-02-2012 01:57:02 -12.6 C 69 %
464 09-02-2012 02:07:01 -12.7 C 69 %
465 09-02-2012 02:17:01 -12.6 C 70 %
466 09-02-2012 02:27:01 -12.5 C 72 %
467 09-02-2012 02:37:01 -12.8 C 71 %
468 09-02-2012 02:47:01 -12.6 C 71 %
469 09-02-2012 02:57:01 -13 C 71 %
470 09-02-2012 03:07:02 -13.2 C 71 %
471 09-02-2012 03:17:01 -13.3 C 71 %
472 09-02-2012 03:27:01 -13.3 C 70 %
473 09-02-2012 03:37:02 -13.3 C 70 %
474 09-02-2012 03:47:01 -13.3 C 70 %
475 09-02-2012 03:57:01 -13.4 C 70 %
Sensor: Nr:Datum:Temp:Feuchte:
Aussen-T/F 476 09-02-2012 04:08:01 -13.4 C 70 %
477 09-02-2012 04:17:01 -13.4 C 70 %
478 09-02-2012 04:27:01 -13.6 C 70 %
479 09-02-2012 04:37:01 -13.8 C 70 %
480 09-02-2012 04:47:02 -13.6 C 70 %
481 09-02-2012 04:57:02 -13.9 C 70 %
482 09-02-2012 05:07:01 -13.8 C 70 %
483 09-02-2012 05:17:02 -13.9 C 70 %
484 09-02-2012 05:27:02 -13.8 C 70 %
485 09-02-2012 05:37:01 -13.7 C 71 %
486 09-02-2012 05:47:02 -13.7 C 71 %
487 09-02-2012 05:57:02 -14.1 C 70 %
488 09-02-2012 06:07:01 -14.3 C 69 %
489 09-02-2012 06:18:01 -14.4 C 69 %
490 09-02-2012 06:28:01 -14.1 C 69 %
491 09-02-2012 06:37:01 -14.1 C 69 %
492 09-02-2012 06:48:01 -14.3 C 69 %
493 09-02-2012 06:57:01 -14.2 C 69 %
494 09-02-2012 07:07:02 -14 C 69 %
495 09-02-2012 07:17:01 -14 C 70 %
496 09-02-2012 07:27:01 -14.1 C 70 %
497 09-02-2012 07:37:02 -14.4 C 69 %
498 09-02-2012 07:47:01 -14.5 C 68 %
499 09-02-2012 07:57:01 -14.5 C 68 %
500 09-02-2012 08:08:01 -14.1 C 68 %
Sensor: Nr:Datum:Temp:Feuchte:
Aussen-T/F 501 09-02-2012 08:17:01 -14.2 C 68 %
502 09-02-2012 08:27:02 -14.1 C 68 %
503 09-02-2012 08:38:01 -13.9 C 69 %
504 09-02-2012 08:47:02 -12.8 C 70 %
505 09-02-2012 08:57:02 -12 C 72 %
506 09-02-2012 09:07:01 -11.7 C 72 %
507 09-02-2012 09:18:01 -10.1 C 74 %
508 09-02-2012 09:28:01 -9.4 C 75 %
509 09-02-2012 09:37:01 -9.2 C 75 %
510 09-02-2012 09:48:01 -9.3 C 73 %
511 09-02-2012 09:58:01 -9.2 C 72 %
512 09-02-2012 10:07:02 -9.1 C 71 %
513 09-02-2012 10:18:01 -9.1 C 70 %
514 09-02-2012 10:27:01 -9 C 70 %
515 09-02-2012 10:38:01 -8.4 C 69 %
516 09-02-2012 10:47:01 -8.2 C 69 %
517 09-02-2012 10:57:02 -8.2 C 68 %
518 09-02-2012 11:08:01 -7.1 C 67 %
519 09-02-2012 11:17:02 -6.8 C 64 %
520 09-02-2012 11:27:02 -6.7 C 62 %
521 09-02-2012 11:38:01 -6.8 C 60 %
522 09-02-2012 11:48:01 -6.8 C 60 %
523 09-02-2012 11:58:01 -6.2 C 58 %
524 09-02-2012 12:07:01 -5.4 C 56 %
525 09-02-2012 12:18:01 -5.6 C 56 %
Sensor: Nr:Datum:Temp:Feuchte:
Aussen-T/F 526 09-02-2012 12:28:01 -5.2 C 58 %
527 09-02-2012 12:37:02 -5.3 C 57 %
528 09-02-2012 12:48:01 -5.4 C 57 %
529 09-02-2012 12:58:01 -5.2 C 58 %
530 09-02-2012 13:08:01 -5 C 59 %
531 09-02-2012 13:18:01 -4.9 C 60 %
532 09-02-2012 13:27:02 -4.6 C 61 %
533 09-02-2012 13:38:01 -4.6 C 62 %
534 09-02-2012 13:47:02 -4.6 C 63 %
535 09-02-2012 13:57:02 -4.6 C 63 %
536 09-02-2012 14:08:01 -4.6 C 65 %
537 09-02-2012 14:18:01 -4.6 C 65 %
538 09-02-2012 14:28:01 -4.6 C 67 %
539 09-02-2012 14:38:01 -4.6 C 68 %
540 09-02-2012 14:48:01 -4.4 C 69 %
541 09-02-2012 14:58:01 -4.5 C 70 %
542 09-02-2012 15:07:02 -4.4 C 71 %
543 09-02-2012 15:18:01 -4.2 C 72 %
544 09-02-2012 15:28:01 -4.1 C 72 %
545 09-02-2012 15:38:01 -4.2 C 72 %
546 09-02-2012 15:48:02 -3.9 C 72 %
547 09-02-2012 15:58:02 -4 C 72 %
548 09-02-2012 16:08:01 -3.8 C 73 %
549 09-02-2012 16:17:02 -3.8 C 73 %
550 09-02-2012 16:27:02 -3.7 C 73 %
Sensor: Nr:Datum:Temp:Feuchte:
Aussen-T/F 551 09-02-2012 16:38:01 -3.8 C 74 %
552 09-02-2012 16:48:01 -3.8 C 75 %
553 09-02-2012 16:58:01 -4 C 75 %
554 09-02-2012 17:08:02 -4.1 C 76 %
555 09-02-2012 17:18:01 -4.2 C 76 %
556 09-02-2012 17:28:01 -4.5 C 77 %
557 09-02-2012 17:38:01 -5.2 C 76 %
558 09-02-2012 17:48:02 -5.6 C 77 %
559 09-02-2012 17:58:02 -5.8 C 78 %
560 09-02-2012 18:08:01 -6.4 C 78 %
561 09-02-2012 18:18:01 -6.1 C 79 %
562 09-02-2012 18:28:01 -6.3 C 80 %
563 09-02-2012 18:38:02 -6.5 C 80 %
564 09-02-2012 18:48:01 -6.1 C 82 %
565 09-02-2012 18:58:01 -5.7 C 82 %
566 09-02-2012 19:08:01 -5.9 C 82 %
567 09-02-2012 19:18:02 -6 C 82 %
568 09-02-2012 19:28:02 -6.4 C 81 %
569 09-02-2012 19:38:01 -6.7 C 81 %
570 09-02-2012 19:48:01 -6.9 C 81 %
571 09-02-2012 19:58:01 -7.2 C 81 %
572 09-02-2012 20:08:02 -7.4 C 81 %
573 09-02-2012 20:18:01 -7.8 C 80 %
574 09-02-2012 20:28:01 -8.3 C 79 %
575 09-02-2012 20:38:01 -8.7 C 79 %
Sensor: Nr:Datum:Temp:Feuchte:
Aussen-T/F 576 09-02-2012 20:48:01 -8.9 C 78 %
577 09-02-2012 20:58:02 -8.8 C 78 %
578 09-02-2012 21:08:01 -8.5 C 78 %
579 09-02-2012 21:18:02 -8.5 C 79 %
580 09-02-2012 21:28:02 -8.5 C 79 %
581 09-02-2012 21:38:01 -8.9 C 79 %
582 09-02-2012 21:48:01 -8.6 C 79 %
583 09-02-2012 21:58:01 -7.8 C 80 %
584 09-02-2012 22:08:02 -8.1 C 80 %
585 09-02-2012 22:18:01 -8.2 C 80 %
586 09-02-2012 22:28:01 -7.8 C 81 %
587 09-02-2012 22:38:01 -8.4 C 80 %
588 09-02-2012 22:48:01 -8 C 80 %
589 09-02-2012 22:58:02 -8.6 C 80 %
590 09-02-2012 23:08:01 -8.6 C 80 %
591 09-02-2012 23:18:02 -8.8 C 80 %
592 09-02-2012 23:28:02 -9.8 C 78 %
593 09-02-2012 23:38:01 -10 C 77 %
594 09-02-2012 23:48:02 -10.4 C 77 %
595 09-02-2012 23:58:02 -10.7 C 76 %
596 10-02-2012 00:08:01 -10.7 C 75 %
597 10-02-2012 00:18:01 -10.9 C 75 %
598 10-02-2012 00:28:01 -11.1 C 75 %
599 10-02-2012 00:38:02 -11.1 C 75 %
600 10-02-2012 00:48:01 -11.2 C 75 %
Sensor: Nr:Datum:Temp:Feuchte:
Aussen-T/F 601 10-02-2012 00:58:01 -11.3 C 74 %
602 10-02-2012 01:08:02 -11.1 C 75 %
603 10-02-2012 01:18:02 -10.9 C 75 %
604 10-02-2012 01:28:02 -11.1 C 75 %
605 10-02-2012 01:38:01 -11.3 C 75 %
606 10-02-2012 01:48:02 -11.5 C 74 %
607 10-02-2012 01:58:02 -11.2 C 75 %
608 10-02-2012 02:08:01 -10.5 C 76 %
609 10-02-2012 02:18:02 -10 C 77 %
610 10-02-2012 02:28:02 -10 C 77 %
611 10-02-2012 02:38:01 -9.5 C 78 %
612 10-02-2012 02:48:01 -9.2 C 78 %
613 10-02-2012 02:58:01 -9.1 C 78 %
614 10-02-2012 03:08:02 -8.9 C 78 %
615 10-02-2012 03:18:01 -8.8 C 79 %
616 10-02-2012 03:28:01 -8.8 C 79 %
617 10-02-2012 03:38:01 -8.9 C 78 %
618 10-02-2012 03:48:01 -8.7 C 78 %
619 10-02-2012 03:58:01 -8.5 C 79 %
620 10-02-2012 04:08:01 -8.5 C 79 %
621 10-02-2012 04:18:02 -8.3 C 79 %
622 10-02-2012 04:28:02 -8.4 C 79 %
623 10-02-2012 04:38:01 -8.6 C 79 %
624 10-02-2012 04:48:02 -8.5 C 79 %
625 10-02-2012 04:58:02 -8.7 C 78 %
Sensor: Nr:Datum:Temp:Feuchte:
Aussen-T/F 626 10-02-2012 05:08:01 -8.7 C 79 %
627 10-02-2012 05:18:01 -8.7 C 79 %
628 10-02-2012 05:28:01 -8.6 C 79 %
629 10-02-2012 05:38:01 -8.6 C 79 %
630 10-02-2012 05:48:01 -8.6 C 79 %
631 10-02-2012 05:58:01 -8.6 C 79 %
632 10-02-2012 06:08:02 -8.5 C 79 %
633 10-02-2012 06:18:01 -8.2 C 79 %
634 10-02-2012 06:28:01 -7.9 C 79 %
635 10-02-2012 06:38:02 -7.7 C 80 %
636 10-02-2012 06:48:01 -7.6 C 80 %
637 10-02-2012 06:58:01 -7.4 C 80 %
638 10-02-2012 07:08:01 -7.4 C 80 %
639 10-02-2012 07:18:02 -7.3 C 80 %
640 10-02-2012 07:28:02 -8.3 C 79 %
641 10-02-2012 07:38:01 -8.9 C 78 %
642 10-02-2012 07:48:02 -9.2 C 77 %
643 10-02-2012 07:58:02 -9.1 C 77 %
644 10-02-2012 08:08:01 -9.3 C 76 %
645 10-02-2012 08:18:01 -9.4 C 76 %
646 10-02-2012 08:28:01 -9.4 C 75 %
647 10-02-2012 08:38:01 -9.2 C 76 %
648 10-02-2012 08:48:01 -9.3 C 76 %
649 10-02-2012 08:58:01 -9 C 75 %
650 10-02-2012 09:08:02 -8.8 C 75 %
Sensor: Nr:Datum:Temp:Feuchte:
Aussen-T/F 651 10-02-2012 09:18:01 -9 C 75 %
652 10-02-2012 09:28:01 -8.9 C 75 %
653 10-02-2012 09:38:01 -8.8 C 75 %
654 10-02-2012 09:48:01 -8.5 C 75 %
655 10-02-2012 09:58:02 -8 C 75 %
656 10-02-2012 10:08:01 -7.8 C 75 %
657 10-02-2012 10:18:02 -7.3 C 74 %
658 10-02-2012 10:28:02 -6.2 C 68 %
659 10-02-2012 10:38:01 -5.7 C 63 %
660 10-02-2012 10:48:01 -5.7 C 59 %
661 10-02-2012 10:58:01 -6 C 56 %
662 10-02-2012 11:08:01 -5.9 C 55 %
663 10-02-2012 11:18:01 -5.8 C 55 %
664 10-02-2012 11:28:01 -5.7 C 55 %
665 10-02-2012 11:38:02 -5.9 C 55 %
666 10-02-2012 11:48:01 -5.5 C 54 %
667 10-02-2012 11:58:01 -5.3 C 52 %
668 10-02-2012 12:08:01 -4.7 C 50 %
669 10-02-2012 12:18:02 -4.6 C 50 %
670 10-02-2012 12:28:02 -4.1 C 47 %
671 10-02-2012 12:38:01 -3.3 C 44 %
672 10-02-2012 12:48:02 -1.9 C 41 %
673 10-02-2012 12:58:02 -1.2 C 36 %
674 10-02-2012 13:08:01 -2 C 35 %
675 10-02-2012 13:18:01 -2.3 C 37 %
Sensor: Nr:Datum:Temp:Feuchte:
Aussen-T/F 676 10-02-2012 13:28:01 -2.7 C 39 %
677 10-02-2012 13:38:02 -3.5 C 40 %
678 10-02-2012 13:48:01 -3.8 C 41 %
679 10-02-2012 13:58:01 -3.7 C 41 %
680 10-02-2012 14:08:02 -3.2 C 41 %
681 10-02-2012 14:18:01 -2.3 C 40 %
682 10-02-2012 14:28:01 -2.4 C 37 %
683 10-02-2012 14:38:01 -1.3 C 34 %
684 10-02-2012 14:48:02 -1.7 C 33 %
685 10-02-2012 14:58:02 -2.1 C 36 %
686 10-02-2012 15:08:01 -2.5 C 36 %
687 10-02-2012 15:18:01 -3 C 36 %
688 10-02-2012 15:28:01 -2.7 C 36 %
689 10-02-2012 15:38:01 -2.4 C 35 %
690 10-02-2012 15:48:01 -2.3 C 35 %
691 10-02-2012 15:58:01 -1.8 C 34 %
692 10-02-2012 16:08:02 -1.2 C 32 %
693 10-02-2012 16:18:01 0.2 C 29 %
694 10-02-2012 16:28:01 0.3 C 26 %
695 10-02-2012 16:38:01 -0.6 C 25 %
696 10-02-2012 16:48:02 -0.9 C 26 %
697 10-02-2012 16:58:02 -1.9 C 28 %
698 10-02-2012 17:08:01 -3.2 C 31 %
699 10-02-2012 17:18:02 -4.9 C 39 %
700 10-02-2012 17:28:02 -5.2 C 42 %
Sensor: Nr:Datum:Temp:Feuchte:
Aussen-T/F 701 10-02-2012 17:38:01 -6 C 45 %
702 10-02-2012 17:48:01 -6.6 C 47 %
703 10-02-2012 17:58:01 -6.9 C 50 %
704 10-02-2012 18:08:02 -7.5 C 52 %
705 10-02-2012 18:18:01 -7.7 C 55 %
706 10-02-2012 18:28:01 -7.9 C 56 %
707 10-02-2012 18:38:02 -8.1 C 56 %
708 10-02-2012 18:48:02 -8.4 C 57 %
709 10-02-2012 18:58:02 -8.7 C 58 %
710 10-02-2012 19:08:01 -8.4 C 60 %
711 10-02-2012 19:18:01 -8.5 C 61 %
712 10-02-2012 19:28:01 -8.7 C 61 %
713 10-02-2012 19:38:01 -8.8 C 61 %
714 10-02-2012 19:48:01 -9.1 C 61 %
715 10-02-2012 19:58:01 -8.3 C 60 %
716 10-02-2012 20:08:02 -8.2 C 57 %
717 10-02-2012 20:18:01 -8.3 C 55 %
718 10-02-2012 20:28:01 -8.7 C 54 %
719 10-02-2012 20:38:01 -8.6 C 54 %
720 10-02-2012 20:48:02 -8.7 C 53 %
721 10-02-2012 20:58:02 -8.8 C 52 %
722 10-02-2012 21:08:01 -8.5 C 50 %
723 10-02-2012 21:18:01 -8.3 C 49 %
724 10-02-2012 21:28:01 -8.7 C 48 %
725 10-02-2012 21:38:01 -8.5 C 47 %
Sensor: Nr:Datum:Temp:Feuchte:
Aussen-T/F 726 10-02-2012 21:48:01 -8.2 C 46 %
727 10-02-2012 21:58:01 -8.5 C 45 %
728 10-02-2012 22:08:01 -9 C 45 %
729 10-02-2012 22:18:02 -9.7 C 47 %
730 10-02-2012 22:28:02 -10.4 C 50 %
731 10-02-2012 22:38:01 -10.2 C 52 %
732 10-02-2012 22:48:01 -10.2 C 50 %
733 10-02-2012 22:58:01 -10.6 C 50 %
734 10-02-2012 23:08:02 -10.1 C 50 %
735 10-02-2012 23:18:01 -10.3 C 50 %
736 10-02-2012 23:28:01 -10 C 49 %
737 10-02-2012 23:38:02 -9.9 C 47 %
738 10-02-2012 23:48:01 -10.7 C 47 %
739 10-02-2012 23:58:01 -10.8 C 50 %
740 11-02-2012 00:08:01 -11.4 C 52 %
741 11-02-2012 00:18:01 -11.8 C 54 %
742 11-02-2012 00:28:01 -11.9 C 56 %
743 11-02-2012 00:38:01 -12.1 C 56 %
744 11-02-2012 00:48:02 -11.9 C 56 %
745 11-02-2012 00:58:02 -12.1 C 56 %
746 11-02-2012 01:08:01 -12.4 C 56 %
747 11-02-2012 01:18:01 -12.3 C 58 %
748 11-02-2012 01:28:01 -12.5 C 58 %
749 11-02-2012 01:38:01 -12.2 C 59 %
750 11-02-2012 01:48:01 -12.3 C 58 %
Sensor: Nr:Datum:Temp:Feuchte:
Aussen-T/F 751 11-02-2012 01:58:01 -12.8 C 57 %
752 11-02-2012 02:08:02 -13.2 C 58 %
753 11-02-2012 02:18:01 -12.9 C 59 %
754 11-02-2012 02:28:01 -13.3 C 58 %
755 11-02-2012 02:38:01 -13.4 C 60 %
756 11-02-2012 02:48:01 -13.5 C 60 %
757 11-02-2012 02:58:02 -13.4 C 60 %
758 11-02-2012 03:08:01 -13.4 C 60 %
759 11-02-2012 03:18:02 -13.4 C 60 %
760 11-02-2012 03:28:02 -13.4 C 61 %
761 11-02-2012 03:38:01 -13.7 C 61 %
762 11-02-2012 03:48:01 -13.4 C 61 %
763 11-02-2012 03:58:01 -13.6 C 61 %
764 11-02-2012 04:08:01 -13.6 C 61 %
765 11-02-2012 04:18:01 -13.6 C 62 %
766 11-02-2012 04:28:01 -13.9 C 62 %
767 11-02-2012 04:38:02 -14 C 62 %
768 11-02-2012 04:48:01 -14.7 C 62 %
769 11-02-2012 04:58:01 -14.6 C 63 %
770 11-02-2012 05:08:02 -14.6 C 63 %
771 11-02-2012 05:18:01 -14.3 C 64 %
772 11-02-2012 05:28:01 -14.1 C 65 %
773 11-02-2012 05:38:01 -14.2 C 66 %
774 11-02-2012 05:48:02 -14.1 C 66 %
775 11-02-2012 05:58:02 -14.1 C 66 %
Sensor: Nr:Datum:Temp:Feuchte:
Aussen-T/F 776 11-02-2012 06:08:01 -14.5 C 65 %
777 11-02-2012 06:18:02 -14.1 C 65 %
778 11-02-2012 06:28:02 -14.5 C 66 %
779 11-02-2012 06:38:01 -14.3 C 66 %
780 11-02-2012 06:49:01 -14.4 C 66 %
781 11-02-2012 06:59:01 -14.1 C 67 %
782 11-02-2012 07:08:01 -14 C 67 %
783 11-02-2012 07:18:01 -14.1 C 67 %
784 11-02-2012 07:28:01 -14.3 C 66 %
785 11-02-2012 07:38:02 -14.3 C 66 %
786 11-02-2012 07:48:01 -14.9 C 66 %
787 11-02-2012 07:58:01 -14.9 C 66 %
788 11-02-2012 08:09:01 -15 C 66 %
789 11-02-2012 08:18:01 -15 C 66 %
790 11-02-2012 08:28:01 -14.9 C 66 %
791 11-02-2012 08:39:01 -14.6 C 67 %
792 11-02-2012 08:48:02 -14.5 C 67 %
793 11-02-2012 08:58:02 -14.5 C 67 %
794 11-02-2012 09:08:01 -14.2 C 67 %
795 11-02-2012 09:19:01 -13.2 C 68 %
796 11-02-2012 09:29:01 -12.3 C 69 %
797 11-02-2012 09:38:01 -12.1 C 68 %
798 11-02-2012 09:49:01 -12 C 66 %
799 11-02-2012 09:59:01 -11.7 C 65 %
800 11-02-2012 10:08:02 -11.4 C 65 %
Sensor: Nr:Datum:Temp:Feuchte:
Aussen-T/F 801 11-02-2012 10:18:01 -11 C 63 %
802 11-02-2012 10:28:01 -10.9 C 61 %
803 11-02-2012 10:39:01 -10.3 C 60 %
804 11-02-2012 10:49:01 -9.9 C 56 %
805 11-02-2012 10:59:01 -10 C 56 %
806 11-02-2012 11:08:02 -9.5 C 56 %
807 11-02-2012 11:19:01 -9 C 55 %
808 11-02-2012 11:29:01 -8.6 C 54 %
809 11-02-2012 11:38:02 -8.1 C 50 %
810 11-02-2012 11:48:01 -7.9 C 50 %
811 11-02-2012 11:58:01 -7.2 C 48 %
812 11-02-2012 12:09:01 -6.7 C 43 %
813 11-02-2012 12:18:02 -5.9 C 41 %
814 11-02-2012 12:28:02 -4.6 C 39 %
815 11-02-2012 12:38:01 -4.5 C 36 %
816 11-02-2012 12:49:01 -4 C 32 %
817 11-02-2012 12:59:01 -1.4 C 23 %
818 11-02-2012 13:08:02 -1.9 C 20 %
819 11-02-2012 13:19:01 -3.7 C 21 %
820 11-02-2012 13:29:01 -3.3 C 25 %
821 11-02-2012 13:39:01 -4.6 C 27 %
822 11-02-2012 13:48:02 -4.6 C 31 %
823 11-02-2012 13:58:02 -4.6 C 32 %
824 11-02-2012 14:09:01 -4 C 30 %
825 11-02-2012 14:18:02 -3.6 C 25 %
Sensor: Nr:Datum:Temp:Feuchte:
Aussen-T/F 826 11-02-2012 14:28:02 -3.3 C 23 %
827 11-02-2012 14:39:01 -2.3 C 20 %
828 11-02-2012 14:49:01 -1.7 C 20 %
829 11-02-2012 14:59:01 -2.3 C 20 %
830 11-02-2012 15:09:01 -2.1 C 20 %
831 11-02-2012 15:18:02 -3.2 C 20 %
832 11-02-2012 15:28:02 -2.2 C 20 %
833 11-02-2012 15:39:01 -1 C 20 %
834 11-02-2012 15:49:01 -1.1 C 20 %
835 11-02-2012 15:59:01 -1.2 C 20 %
836 11-02-2012 16:08:02 -0.2 C 20 %
837 11-02-2012 16:19:01 0.1 C 20 %
838 11-02-2012 16:29:01 1.3 C 20 %
839 11-02-2012 16:39:01 1.2 C 20 %
840 11-02-2012 16:49:01 0.8 C 20 %
841 11-02-2012 16:59:01 -1.2 C 20 %
842 11-02-2012 17:09:01 -2.1 C 23 %
843 11-02-2012 17:19:02 -3.9 C 32 %
844 11-02-2012 17:28:02 -5.7 C 38 %
845 11-02-2012 17:39:01 -6.5 C 43 %
846 11-02-2012 17:49:01 -7.4 C 46 %
847 11-02-2012 17:59:01 -7.7 C 48 %
848 11-02-2012 18:09:02 -8 C 49 %
849 11-02-2012 18:19:01 -8.1 C 51 %
850 11-02-2012 18:29:01 -8.1 C 52 %
Sensor: Nr:Datum:Temp:Feuchte:
Aussen-T/F 851 11-02-2012 18:39:01 -8.3 C 53 %
852 11-02-2012 18:49:01 -8.4 C 54 %
853 11-02-2012 18:59:01 -8.4 C 53 %
854 11-02-2012 19:09:01 -8.7 C 53 %
855 11-02-2012 19:19:01 -8.9 C 54 %
856 11-02-2012 19:29:01 -8.9 C 54 %
857 11-02-2012 19:39:02 -9.3 C 55 %
858 11-02-2012 19:49:01 -9.3 C 56 %
859 11-02-2012 19:59:01 -9.3 C 55 %
860 11-02-2012 20:09:01 -9.2 C 54 %
861 11-02-2012 20:19:01 -9.4 C 54 %
862 11-02-2012 20:29:01 -9.5 C 55 %
863 11-02-2012 20:39:02 -9.3 C 55 %
864 11-02-2012 20:49:01 -9.5 C 55 %
865 11-02-2012 20:59:01 -10 C 56 %
866 11-02-2012 21:09:01 -11 C 57 %
867 11-02-2012 21:19:02 -11.1 C 59 %
868 11-02-2012 21:29:02 -10.8 C 63 %
869 11-02-2012 21:39:01 -11.1 C 64 %
870 11-02-2012 21:49:01 -11.3 C 64 %
871 11-02-2012 21:59:01 -12.1 C 63 %
872 11-02-2012 22:09:01 -12.2 C 63 %
873 11-02-2012 22:19:02 -12.3 C 64 %
874 11-02-2012 22:29:02 -12.4 C 64 %
875 11-02-2012 22:39:01 -12.1 C 66 %
Sensor: Nr:Datum:Temp:Feuchte:
Aussen-T/F 876 11-02-2012 22:49:01 -12.2 C 67 %
877 11-02-2012 22:59:01 -12.1 C 68 %
878 11-02-2012 23:09:01 -12.7 C 68 %
879 11-02-2012 23:19:01 -13 C 67 %
880 11-02-2012 23:29:01 -13.2 C 67 %
881 11-02-2012 23:39:02 -13 C 67 %
882 11-02-2012 23:49:01 -13 C 67 %
883 11-02-2012 23:59:01 -13.4 C 67 %
884 12-02-2012 00:09:01 -13.6 C 67 %
885 12-02-2012 00:19:01 -13.7 C 67 %
886 12-02-2012 00:29:01 -13.4 C 69 %
887 12-02-2012 00:39:01 -13.7 C 68 %
888 12-02-2012 00:49:02 -13.6 C 69 %
889 12-02-2012 00:59:02 -13.8 C 69 %
890 12-02-2012 01:09:02 -14.1 C 69 %
891 12-02-2012 01:19:01 -14.1 C 70 %
892 12-02-2012 01:29:01 -14.3 C 70 %
893 12-02-2012 01:39:02 -14 C 70 %
894 12-02-2012 01:49:01 -14.3 C 70 %
895 12-02-2012 01:59:01 -14.6 C 70 %
896 12-02-2012 02:09:02 -14.6 C 70 %
897 12-02-2012 02:19:02 -14.6 C 70 %
898 12-02-2012 02:29:03 -14.6 C 71 %
899 12-02-2012 02:39:01 -14.5 C 71 %
900 12-02-2012 02:49:02 -14.9 C 70 %
Sensor: Nr:Datum:Temp:Feuchte:
Aussen-T/F 901 12-02-2012 02:59:02 -14.5 C 70 %
902 12-02-2012 03:09:01 -14.1 C 70 %
903 12-02-2012 03:19:01 -14.5 C 70 %
904 12-02-2012 03:29:01 -14.8 C 70 %
905 12-02-2012 03:39:01 -14.7 C 70 %
906 12-02-2012 03:49:01 -14.5 C 71 %
907 12-02-2012 03:59:01 -15 C 70 %
908 12-02-2012 04:09:02 -14.8 C 70 %
909 12-02-2012 04:19:01 -15.1 C 69 %
910 12-02-2012 04:29:01 -15.3 C 69 %
911 12-02-2012 04:39:02 -14.7 C 68 %
912 12-02-2012 04:49:01 -14.7 C 68 %
913 12-02-2012 04:59:01 -14.8 C 68 %
914 12-02-2012 05:09:01 -14.8 C 68 %
915 12-02-2012 05:19:02 -13.7 C 69 %
916 12-02-2012 05:29:02 -13.2 C 71 %
917 12-02-2012 05:39:01 -13.1 C 71 %
918 12-02-2012 05:49:02 -13 C 71 %
919 12-02-2012 05:59:02 -13 C 71 %
920 12-02-2012 06:09:01 -13.1 C 71 %
921 12-02-2012 06:19:01 -13.1 C 71 %
922 12-02-2012 06:29:01 -13.2 C 70 %
923 12-02-2012 06:39:02 -12.9 C 71 %
924 12-02-2012 06:49:01 -12.9 C 71 %
925 12-02-2012 06:59:01 -12.9 C 71 %
Sensor: Nr:Datum:Temp:Feuchte:
Aussen-T/F 926 12-02-2012 07:09:02 -13 C 71 %
927 12-02-2012 07:19:01 -12.9 C 70 %
928 12-02-2012 07:29:01 -13 C 70 %
929 12-02-2012 07:39:01 -12.8 C 70 %
930 12-02-2012 07:49:01 -12.6 C 71 %
931 12-02-2012 07:59:01 -12.5 C 71 %
932 12-02-2012 08:09:01 -12.1 C 71 %
933 12-02-2012 08:19:02 -12 C 71 %
934 12-02-2012 08:29:02 -11.7 C 71 %
935 12-02-2012 08:39:01 -11.6 C 71 %
936 12-02-2012 08:49:02 -11.4 C 70 %
937 12-02-2012 08:59:02 -11.2 C 69 %
938 12-02-2012 09:09:01 -10.8 C 69 %
939 12-02-2012 09:19:01 -10.7 C 67 %
940 12-02-2012 09:29:01 -10.4 C 66 %
941 12-02-2012 09:39:02 -10.1 C 65 %
942 12-02-2012 09:49:02 -9.8 C 64 %
943 12-02-2012 09:59:02 -9.6 C 64 %
944 12-02-2012 10:09:02 -9.9 C 63 %
945 12-02-2012 10:19:01 -10.3 C 63 %
946 12-02-2012 10:29:01 -10.7 C 63 %
947 12-02-2012 10:39:02 -10.8 C 65 %
948 12-02-2012 10:49:01 -10 C 66 %
949 12-02-2012 10:59:01 -9.1 C 66 %
950 12-02-2012 11:09:01 -8.6 C 65 %
Sensor: Nr:Datum:Temp:Feuchte:
Aussen-T/F 951 12-02-2012 11:19:01 -8.6 C 62 %
952 12-02-2012 11:29:02 -8.3 C 62 %
953 12-02-2012 11:39:01 -8.4 C 62 %
954 12-02-2012 11:49:02 -7.8 C 63 %
955 12-02-2012 11:59:02 -6.9 C 63 %
956 12-02-2012 12:09:02 -6.5 C 60 %
957 12-02-2012 12:19:01 -4.7 C 60 %
958 12-02-2012 12:29:01 -4.4 C 54 %
959 12-02-2012 12:39:01 -3.5 C 50 %
960 12-02-2012 12:49:02 -1 C 41 %
961 12-02-2012 12:59:02 -1.6 C 35 %
962 12-02-2012 13:09:02 -2.1 C 26 %
963 12-02-2012 13:19:01 -2.5 C 28 %
964 12-02-2012 13:29:01 -1.2 C 34 %
965 12-02-2012 13:39:01 -1.4 C 32 %
966 12-02-2012 13:49:01 -1.8 C 30 %
967 12-02-2012 13:59:01 -1.3 C 31 %
968 12-02-2012 14:09:02 -1.9 C 30 %
969 12-02-2012 14:19:01 -1.4 C 30 %
970 12-02-2012 14:29:01 -1.3 C 28 %
971 12-02-2012 14:39:01 -1.1 C 25 %
972 12-02-2012 14:49:02 -0.9 C 23 %
973 12-02-2012 14:59:02 -1.4 C 28 %
974 12-02-2012 15:09:01 -1.2 C 28 %
975 12-02-2012 15:19:01 -0.9 C 28 %
Sensor: Nr:Datum:Temp:Feuchte:
Aussen-T/F 976 12-02-2012 15:29:01 -0.4 C 26 %
977 12-02-2012 15:39:02 -1.3 C 26 %
978 12-02-2012 15:49:01 -1.2 C 30 %
979 12-02-2012 15:59:01 -1.2 C 29 %
980 12-02-2012 16:09:01 -1.5 C 30 %
981 12-02-2012 16:19:02 -1.6 C 31 %
982 12-02-2012 16:29:02 -1.7 C 29 %
983 12-02-2012 16:39:01 -1.8 C 28 %
984 12-02-2012 16:49:01 -1.9 C 32 %
985 12-02-2012 16:59:01 -2 C 33 %
986 12-02-2012 17:09:02 -2.1 C 34 %
987 12-02-2012 17:19:02 -2.2 C 35 %
988 12-02-2012 17:29:02 -2.4 C 39 %
989 12-02-2012 17:39:01 -2.6 C 43 %
990 12-02-2012 17:49:02 -3.1 C 48 %
991 12-02-2012 17:59:02 -3.1 C 47 %
992 12-02-2012 18:09:01 -3 C 47 %
993 12-02-2012 18:19:01 -2.9 C 45 %
994 12-02-2012 18:29:01 -2.7 C 38 %
995 12-02-2012 18:39:02 -2.8 C 40 %
996 12-02-2012 18:49:01 -2.8 C 41 %
997 12-02-2012 18:59:01 -2.8 C 41 %
998 12-02-2012 19:09:01 -2.8 C 42 %
999 12-02-2012 19:19:02 -3 C 45 %
1000 12-02-2012 19:29:02 -3 C 45 %
Sensor: Nr:Datum:Temp:Feuchte:
Aussen-T/F 1001 12-02-2012 19:39:01 -3.1 C 50 %
1002 12-02-2012 19:49:01 -3.2 C 49 %
1003 12-02-2012 19:59:01 -3.2 C 49 %
1004 12-02-2012 20:09:02 -3.2 C 51 %
1005 12-02-2012 20:19:01 -3.1 C 48 %
1006 12-02-2012 20:29:01 -3 C 46 %
1007 12-02-2012 20:39:02 -3.1 C 46 %
1008 12-02-2012 20:49:01 -3 C 45 %
1009 12-02-2012 20:59:01 -3 C 45 %
1010 12-02-2012 21:09:01 -3 C 45 %
1011 12-02-2012 21:19:02 -3.1 C 46 %
1012 12-02-2012 21:29:02 -3.1 C 46 %
1013 12-02-2012 21:39:01 -3.1 C 45 %
1014 12-02-2012 21:49:01 -3.1 C 46 %
1015 12-02-2012 21:59:01 -3.2 C 46 %
1016 12-02-2012 22:09:02 -3.2 C 48 %
1017 12-02-2012 22:19:01 -3.2 C 48 %
1018 12-02-2012 22:29:01 -3.2 C 47 %
1019 12-02-2012 22:39:01 -3.1 C 47 %
1020 12-02-2012 22:49:02 -3.1 C 46 %
1021 12-02-2012 22:59:02 -3.2 C 47 %
1022 12-02-2012 23:09:01 -3.2 C 48 %
1023 12-02-2012 23:19:01 -3.2 C 49 %
1024 12-02-2012 23:29:01 -3.2 C 48 %
1025 12-02-2012 23:39:01 -3.2 C 46 %
Sensor: Nr:Datum:Temp:Feuchte:
Aussen-T/F 1026 12-02-2012 23:49:01 -3.2 C 46 %
1027 12-02-2012 23:59:01 -3.2 C 47 %
1028 13-02-2012 00:09:02 -3.2 C 47 %
1029 13-02-2012 00:19:01 -3.2 C 47 %
1030 13-02-2012 00:29:01 -3.2 C 48 %
1031 13-02-2012 00:39:01 -3.2 C 49 %
1032 13-02-2012 00:49:02 -3.2 C 49 %
1033 13-02-2012 00:59:02 -3.2 C 50 %
1034 13-02-2012 01:09:01 -3.3 C 50 %
1035 13-02-2012 01:19:01 -3.3 C 50 %
1036 13-02-2012 01:29:01 -3.2 C 50 %
1037 13-02-2012 01:39:01 -3.3 C 50 %
1038 13-02-2012 01:49:01 -3.3 C 51 %
1039 13-02-2012 01:59:01 -3.3 C 50 %
1040 13-02-2012 02:09:02 -3.3 C 51 %
1041 13-02-2012 02:19:01 -3.3 C 51 %
1042 13-02-2012 02:29:01 -3.3 C 54 %
1043 13-02-2012 02:39:01 -3.3 C 54 %
1044 13-02-2012 02:49:01 -3.3 C 55 %
1045 13-02-2012 02:59:01 -3.3 C 56 %
1046 13-02-2012 03:09:01 -3.3 C 56 %
1047 13-02-2012 03:19:02 -3.3 C 57 %
1048 13-02-2012 03:29:02 -3.3 C 57 %
1049 13-02-2012 03:39:01 -3.3 C 56 %
1050 13-02-2012 03:49:02 -3.4 C 55 %
Sensor: Nr:Datum:Temp:Feuchte:
Aussen-T/F 1051 13-02-2012 03:59:02 -3.3 C 55 %
1052 13-02-2012 04:09:01 -3.4 C 56 %
1053 13-02-2012 04:29:01 -3.3 C 55 %
1054 13-02-2012 04:29:01 -3.3 C 56 %
1055 13-02-2012 04:39:01 -3.4 C 57 %
1056 13-02-2012 04:49:01 -3.3 C 57 %
1057 13-02-2012 04:59:01 -3.3 C 55 %
1058 13-02-2012 05:09:02 -3.2 C 53 %
1059 13-02-2012 05:19:01 -3.2 C 54 %
1060 13-02-2012 05:29:01 -3.3 C 55 %
1061 13-02-2012 05:39:02 -3.3 C 56 %
1062 13-02-2012 05:49:01 -3.3 C 57 %
1063 13-02-2012 05:59:01 -3.2 C 55 %
1064 13-02-2012 06:09:01 -3.2 C 55 %
1065 13-02-2012 06:19:02 -3.1 C 53 %
1066 13-02-2012 06:29:02 -3.1 C 53 %
1067 13-02-2012 06:39:01 -3.1 C 55 %
1068 13-02-2012 06:49:02 -3.1 C 55 %
1069 13-02-2012 06:59:02 -3.1 C 56 %
1070 13-02-2012 07:09:01 -3 C 56 %
1071 13-02-2012 07:20:01 -3 C 56 %
1072 13-02-2012 07:29:01 -3 C 55 %
1073 13-02-2012 07:39:02 -2.9 C 56 %
1074 13-02-2012 07:59:01 -2.8 C 55 %
1075 13-02-2012 07:59:01 -2.8 C 55 %
Sensor: Nr:Datum:Temp:Feuchte:
Aussen-T/F 1076 13-02-2012 08:09:01 -2.7 C 56 %
1077 13-02-2012 08:29:01 -2.7 C 56 %
1078 13-02-2012 08:29:02 -2.3 C 54 %
1079 13-02-2012 08:39:02 -2.3 C 53 %
1080 13-02-2012 08:49:01 -2.1 C 53 %
1081 13-02-2012 08:59:01 -2.1 C 53 %
1082 13-02-2012 09:09:01 -2 C 53 %
1083 13-02-2012 09:19:02 -1.9 C 53 %
1084 13-02-2012 09:29:02 -1.6 C 52 %
1085 13-02-2012 09:39:01 -1.4 C 52 %
1086 13-02-2012 09:50:01 -1.2 C 52 %
1087 13-02-2012 09:59:02 -1.1 C 52 %
1088 13-02-2012 10:09:02 -0.8 C 54 %
1089 13-02-2012 10:19:01 -0.9 C 54 %
1090 13-02-2012 10:29:01 -1.1 C 58 %
1091 13-02-2012 10:40:01 -1.2 C 64 %
1092 13-02-2012 10:49:02 -0.9 C 66 %
1093 13-02-2012 10:59:02 -1.3 C 70 %
1094 13-02-2012 11:09:01 -1.4 C 72 %
1095 13-02-2012 11:20:01 -1.3 C 74 %
1096 13-02-2012 11:29:01 -1.1 C 75 %
1097 13-02-2012 11:39:01 -1 C 75 %
1098 13-02-2012 11:50:01 -1 C 75 %
1099 13-02-2012 11:59:02 -1 C 76 %
1100 13-02-2012 12:09:02 -0.6 C 76 %
Sensor: Nr:Datum:Temp:Feuchte:
Aussen-T/F 1101 13-02-2012 12:29:01 -0.6 C 76 %
1102 13-02-2012 12:30:01 -0.4 C 77 %
1103 13-02-2012 12:40:01 -0.5 C 77 %
1104 13-02-2012 12:49:01 -0.5 C 78 %
1105 13-02-2012 12:59:02 -0.3 C 79 %
1106 13-02-2012 13:10:01 0.4 C 78 %
1107 13-02-2012 13:19:02 0.1 C 76 %
1108 13-02-2012 13:29:02 0.1 C 76 %
1109 13-02-2012 13:40:01 0.2 C 77 %
1110 13-02-2012 13:50:01 0.2 C 78 %
1111 13-02-2012 13:59:02 0.5 C 78 %
1112 13-02-2012 14:09:02 0.6 C 78 %
1113 13-02-2012 14:20:01 0.9 C 77 %
1114 13-02-2012 14:30:01 0.5 C 76 %
1115 13-02-2012 14:40:01 0.4 C 78 %
1116 13-02-2012 14:59:01 0.5 C 78 %
1117 13-02-2012 15:00:01 0.7 C 78 %
1118 13-02-2012 15:10:01 1 C 77 %
1119 13-02-2012 15:19:02 1.2 C 75 %
1120 13-02-2012 15:29:02 0.8 C 76 %
1121 13-02-2012 15:40:01 0.6 C 77 %
1122 13-02-2012 15:50:01 0.5 C 78 %
1123 13-02-2012 15:59:01 0.5 C 79 %
1124 13-02-2012 16:09:02 0.5 C 80 %
1125 13-02-2012 16:20:01 0.4 C 80 %
Sensor: Nr:Datum:Temp:Feuchte:
Aussen-T/F 1126 13-02-2012 16:29:02 0.4 C 81 %
1127 13-02-2012 16:39:02 0.4 C 81 %
1128 13-02-2012 16:50:01 0.4 C 82 %
1129 13-02-2012 17:00:01 0.4 C 83 %
1130 13-02-2012 17:10:01 0.4 C 84 %
1131 13-02-2012 17:29:02 0.4 C 84 %
1132 13-02-2012 17:30:01 0.2 C 85 %
1133 13-02-2012 17:40:01 0 C 86 %
1134 13-02-2012 17:50:01 0.4 C 87 %
1135 13-02-2012 18:00:01 0.2 C 87 %
1136 13-02-2012 18:10:02 0 C 87 %
1137 13-02-2012 18:20:01 -0.1 C 87 %
1138 13-02-2012 18:30:01 -0.3 C 87 %
1139 13-02-2012 18:40:01 -0.3 C 87 %
1140 13-02-2012 18:50:02 -0.2 C 87 %
1141 13-02-2012 19:00:01 -0.2 C 88 %
1142 13-02-2012 19:10:01 -0.2 C 88 %
1143 13-02-2012 19:20:01 -0.3 C 88 %
1144 13-02-2012 19:30:02 -0.2 C 88 %
1145 13-02-2012 19:40:02 -0.3 C 88 %
1146 13-02-2012 19:50:01 -0.3 C 88 %
1147 13-02-2012 20:00:01 -0.3 C 89 %
1148 13-02-2012 20:10:01 -0.3 C 89 %
1149 13-02-2012 20:20:02 -0.3 C 89 %
1150 13-02-2012 20:30:01 -0.1 C 89 %
Sensor: Nr:Datum:Temp:Feuchte:
Aussen-T/F 1151 13-02-2012 20:40:01 0.2 C 89 %
1152 13-02-2012 20:50:01 0.2 C 89 %
1153 13-02-2012 21:00:02 0.4 C 89 %
1154 13-02-2012 21:10:02 0.1 C 89 %
1155 13-02-2012 21:20:01 0.4 C 89 %
1156 13-02-2012 21:30:01 0.2 C 89 %
1157 13-02-2012 21:40:01 0.1 C 89 %
1158 13-02-2012 21:50:01 0.2 C 89 %
1159 13-02-2012 22:00:01 0.2 C 89 %
1160 13-02-2012 22:10:01 0.4 C 90 %
1161 13-02-2012 22:20:01 0.3 C 90 %
1162 13-02-2012 22:30:02 0.3 C 90 %
1163 13-02-2012 22:40:02 0.3 C 91 %
1164 13-02-2012 22:50:01 0.2 C 91 %
1165 13-02-2012 23:00:01 0.2 C 91 %
1166 13-02-2012 23:10:01 0.1 C 91 %
1167 13-02-2012 23:20:01 0.1 C 91 %
1168 13-02-2012 23:30:01 0.2 C 92 %
1169 13-02-2012 23:40:01 0.3 C 92 %
1170 13-02-2012 23:50:02 0.3 C 92 %
1171 14-02-2012 00:00:01 0.3 C 92 %
1172 14-02-2012 00:10:01 0.1 C 92 %
1173 14-02-2012 00:20:01 0.1 C 92 %
1174 14-02-2012 00:30:01 0 C 92 %
1175 14-02-2012 00:40:01 -0.1 C 92 %
Sensor: Nr:Datum:Temp:Feuchte:
Aussen-T/F 1176 14-02-2012 00:50:02 -0.2 C 92 %
1177 14-02-2012 01:00:01 -0.2 C 92 %
1178 14-02-2012 01:10:01 0.1 C 93 %
1179 14-02-2012 01:20:02 0.2 C 93 %
1180 14-02-2012 01:30:01 0 C 93 %
1181 14-02-2012 01:40:01 0.2 C 93 %
1182 14-02-2012 01:50:01 0.3 C 93 %
1183 14-02-2012 02:00:01 0.3 C 93 %
1184 14-02-2012 02:10:01 0.3 C 93 %
1185 14-02-2012 02:20:01 0 C 93 %
1186 14-02-2012 02:30:02 -0.2 C 92 %
1187 14-02-2012 02:40:02 -0.2 C 92 %
1188 14-02-2012 02:50:01 -0.2 C 92 %
1189 14-02-2012 03:00:01 -0.1 C 92 %
1190 14-02-2012 03:10:01 0 C 93 %
1191 14-02-2012 03:20:01 -0.1 C 93 %
1192 14-02-2012 03:30:01 -0.2 C 93 %
1193 14-02-2012 03:40:01 -0.2 C 93 %
1194 14-02-2012 03:50:02 -0.2 C 93 %
1195 14-02-2012 04:00:01 -0.3 C 93 %
1196 14-02-2012 04:10:01 -0.3 C 93 %
1197 14-02-2012 04:20:02 -0.3 C 93 %
1198 14-02-2012 04:30:01 -0.2 C 93 %
1199 14-02-2012 04:40:01 -0.3 C 93 %
1200 14-02-2012 04:50:01 -0.2 C 93 %
Sensor: Nr:Datum:Temp:Feuchte:
Aussen-T/F 1201 14-02-2012 05:00:01 0 C 93 %
1202 14-02-2012 05:10:02 -0.2 C 93 %
1203 14-02-2012 05:20:01 0 C 93 %
1204 14-02-2012 05:30:02 0 C 93 %
1205 14-02-2012 05:40:02 0.3 C 93 %
1206 14-02-2012 05:50:01 0.3 C 93 %
1207 14-02-2012 06:00:01 0.3 C 93 %
1208 14-02-2012 06:10:01 0.4 C 92 %
1209 14-02-2012 06:20:01 0.3 C 92 %
1210 14-02-2012 06:30:01 0.3 C 91 %
1211 14-02-2012 06:40:01 0.5 C 91 %
1212 14-02-2012 06:50:02 0.6 C 90 %
1213 14-02-2012 07:00:01 0.6 C 89 %
1214 14-02-2012 07:10:01 0.6 C 89 %
1215 14-02-2012 07:20:02 0.4 C 88 %
1216 14-02-2012 07:30:01 0.4 C 88 %
1217 14-02-2012 07:40:01 0.4 C 88 %
1218 14-02-2012 07:50:01 0.5 C 88 %
1219 14-02-2012 08:00:02 0.5 C 88 %
1220 14-02-2012 08:10:02 0.6 C 88 %
1221 14-02-2012 08:20:01 0.7 C 88 %
1222 14-02-2012 08:30:02 0.6 C 87 %
1223 14-02-2012 08:40:02 0.6 C 87 %
1224 14-02-2012 08:50:01 0.5 C 87 %
1225 14-02-2012 09:00:01 0.4 C 87 %
Sensor: Nr:Datum:Temp:Feuchte:
Aussen-T/F 1226 14-02-2012 09:10:01 0.5 C 88 %
1227 14-02-2012 09:20:02 0.7 C 89 %
1228 14-02-2012 09:30:01 0.8 C 89 %
1229 14-02-2012 09:40:01 0.8 C 89 %
1230 14-02-2012 09:50:01 1 C 88 %
1231 14-02-2012 10:00:02 1.1 C 88 %
1232 14-02-2012 10:10:02 1.1 C 88 %
1233 14-02-2012 10:20:01 1 C 88 %
1234 14-02-2012 10:30:01 1.2 C 88 %
1235 14-02-2012 10:40:01 1.2 C 88 %
1236 14-02-2012 10:50:02 1.2 C 87 %
1237 14-02-2012 11:00:01 1 C 87 %
1238 14-02-2012 11:10:01 1.1 C 88 %
1239 14-02-2012 11:20:01 1.2 C 88 %
1240 14-02-2012 11:30:01 0.7 C 88 %
1241 14-02-2012 11:40:01 0.6 C 88 %
1242 14-02-2012 11:50:01 1 C 88 %
1243 14-02-2012 12:00:02 1.4 C 89 %
1244 14-02-2012 12:10:02 1.6 C 89 %
1245 14-02-2012 12:20:01 1.8 C 89 %
1246 14-02-2012 12:30:01 1.7 C 89 %
1247 14-02-2012 12:40:01 1.6 C 88 %
1248 14-02-2012 12:50:01 1.6 C 88 %
1249 14-02-2012 13:00:01 1.8 C 89 %
1250 14-02-2012 13:10:01 2.1 C 88 %
Sensor: Nr:Datum:Temp:Feuchte:
Aussen-T/F 1251 14-02-2012 13:20:02 2.3 C 88 %
1252 14-02-2012 13:30:01 2.4 C 87 %
1253 14-02-2012 13:40:02 2.4 C 87 %
1254 14-02-2012 13:50:01 2.4 C 87 %
1255 14-02-2012 14:00:01 2.5 C 87 %
1256 14-02-2012 14:10:01 2.5 C 87 %
1257 14-02-2012 14:20:01 2.4 C 87 %
1258 14-02-2012 14:30:02 2.3 C 87 %
1259 14-02-2012 14:40:02 2.3 C 87 %
1260 14-02-2012 14:50:01 2.2 C 88 %
1261 14-02-2012 15:00:01 2.4 C 88 %
1262 14-02-2012 15:10:01 2.5 C 88 %
1263 14-02-2012 15:20:02 2.3 C 88 %
1264 14-02-2012 15:30:01 2.2 C 88 %
1265 14-02-2012 15:40:01 2.2 C 88 %
1266 14-02-2012 15:50:01 2.1 C 88 %
1267 14-02-2012 16:00:02 2.1 C 88 %
1268 14-02-2012 16:10:02 2.1 C 88 %
1269 14-02-2012 16:20:01 2 C 88 %
1270 14-02-2012 16:30:01 1.7 C 89 %
1271 14-02-2012 16:40:01 1.8 C 89 %
1272 14-02-2012 16:50:02 1.7 C 89 %
1273 14-02-2012 17:00:01 1.8 C 89 %
1274 14-02-2012 17:10:01 1.9 C 89 %
1275 14-02-2012 17:20:01 1.8 C 89 %
Sensor: Nr:Datum:Temp:Feuchte:
Aussen-T/F 1276 14-02-2012 17:30:02 1.8 C 89 %
1277 14-02-2012 17:40:02 1.7 C 89 %
1278 14-02-2012 17:50:01 1.6 C 89 %
1279 14-02-2012 18:00:01 2 C 89 %
1280 14-02-2012 18:10:01 2.1 C 88 %
1281 14-02-2012 18:20:02 2.2 C 86 %
1282 14-02-2012 18:30:01 2.3 C 85 %
1283 14-02-2012 18:40:01 2.3 C 84 %
1284 14-02-2012 18:50:01 2 C 84 %
1285 14-02-2012 19:00:02 1.8 C 85 %
1286 14-02-2012 19:10:02 2.2 C 85 %
1287 14-02-2012 19:20:01 2.1 C 84 %
1288 14-02-2012 19:30:01 2.3 C 84 %
1289 14-02-2012 19:40:01 2.4 C 83 %
1290 14-02-2012 19:50:01 2.3 C 82 %
1291 14-02-2012 20:00:02 2.3 C 83 %
1292 14-02-2012 20:10:02 2 C 83 %
1293 14-02-2012 20:20:01 2.1 C 83 %
1294 14-02-2012 20:30:02 2.1 C 83 %
1295 14-02-2012 20:40:02 2 C 83 %
1296 14-02-2012 20:50:01 2.1 C 82 %
1297 14-02-2012 21:00:01 2 C 83 %
1298 14-02-2012 21:10:01 1.9 C 84 %
1299 14-02-2012 21:20:02 1.9 C 84 %
1300 14-02-2012 21:30:01 1.9 C 85 %
Sensor: Nr:Datum:Temp:Feuchte:
Aussen-T/F 1301 14-02-2012 21:40:01 2 C 84 %
1302 14-02-2012 21:50:01 1.9 C 85 %
1303 14-02-2012 22:00:02 1.7 C 86 %
1304 14-02-2012 22:10:02 1.7 C 86 %
1305 14-02-2012 22:20:01 1.6 C 87 %
1306 15-02-2012 13:01:02 4.2 C 72 %
1307 15-02-2012 13:11:02 4.4 C 71 %
1308 15-02-2012 13:21:01 4.7 C 68 %
1309 15-02-2012 13:30:02 4.6 C 67 %
1310 15-02-2012 13:40:02 4.5 C 68 %
1311 15-02-2012 13:51:01 4.3 C 69 %
1312 15-02-2012 14:01:01 4.7 C 69 %
1313 15-02-2012 14:11:01 4.4 C 68 %
1314 15-02-2012 14:21:02 4.3 C 69 %
1315 15-02-2012 14:31:01 4.1 C 70 %
1316 15-02-2012 14:41:01 3.9 C 73 %
1317 15-02-2012 14:51:01 3.8 C 73 %
1318 15-02-2012 15:01:02 4 C 72 %
1319 15-02-2012 15:11:02 4 C 72 %
1320 15-02-2012 15:21:01 4.5 C 70 %
1321 15-02-2012 15:31:01 4.5 C 68 %
1322 15-02-2012 15:41:01 4.5 C 67 %
1323 15-02-2012 15:51:02 4.1 C 69 %
1324 15-02-2012 16:01:01 4 C 70 %
1325 15-02-2012 16:11:01 3.9 C 72 %
Sensor: Nr:Datum:Temp:Feuchte:
Aussen-T/F 1326 15-02-2012 16:21:01 4.2 C 70 %
1327 15-02-2012 16:31:02 4.4 C 68 %
1328 15-02-2012 16:41:02 4.4 C 67 %
1329 15-02-2012 16:51:01 4.3 C 68 %
1330 15-02-2012 17:01:01 4.3 C 68 %
1331 15-02-2012 17:11:01 4 C 70 %
1332 15-02-2012 17:21:01 4 C 70 %
1333 15-02-2012 17:31:01 3.8 C 72 %
1334 15-02-2012 17:41:01 3.7 C 72 %
1335 15-02-2012 17:51:02 3.7 C 73 %
1336 15-02-2012 18:01:01 3.6 C 73 %
1337 15-02-2012 18:11:01 3.7 C 73 %
1338 15-02-2012 18:21:01 3.6 C 72 %
1339 15-02-2012 18:31:02 3.7 C 71 %
1340 15-02-2012 18:41:02 3.6 C 70 %
1341 15-02-2012 18:51:01 3.5 C 71 %
1342 15-02-2012 19:01:01 3.5 C 71 %
1343 15-02-2012 19:11:01 3.5 C 72 %
1344 15-02-2012 19:21:02 3.3 C 72 %
1345 15-02-2012 19:31:01 3.2 C 72 %
1346 15-02-2012 19:41:01 3.1 C 72 %
1347 15-02-2012 19:51:01 3.2 C 72 %
1348 15-02-2012 20:01:02 3 C 72 %
1349 15-02-2012 20:11:02 3 C 72 %
1350 15-02-2012 20:21:01 2.4 C 73 %
Sensor: Nr:Datum:Temp:Feuchte:
Aussen-T/F 1351 15-02-2012 20:31:01 2 C 76 %
1352 15-02-2012 20:41:01 2.5 C 76 %
1353 15-02-2012 20:51:01 2.6 C 75 %
1354 15-02-2012 21:01:01 2.7 C 75 %
1355 15-02-2012 21:11:01 2.8 C 74 %
1356 15-02-2012 21:21:02 2.7 C 73 %
1357 15-02-2012 21:31:01 2.4 C 73 %
1358 15-02-2012 21:41:01 2.2 C 78 %
1359 15-02-2012 21:51:01 2.4 C 76 %
1360 15-02-2012 22:01:01 1.9 C 77 %
1361 15-02-2012 22:11:01 1.6 C 78 %
1362 15-02-2012 22:21:02 1.8 C 80 %
1363 15-02-2012 22:31:01 1.4 C 80 %
1364 15-02-2012 22:41:01 1.7 C 82 %
1365 15-02-2012 22:51:01 1.2 C 81 %
1366 15-02-2012 23:01:02 0.9 C 83 %
1367 15-02-2012 23:11:02 1.2 C 84 %
1368 15-02-2012 23:21:01 1.1 C 84 %
1369 15-02-2012 23:31:02 1.5 C 85 %
1370 15-02-2012 23:41:02 2 C 83 %
1371 15-02-2012 23:51:01 2 C 79 %
1372 16-02-2012 00:01:01 2.1 C 77 %
1373 16-02-2012 00:11:01 2.1 C 77 %
1374 16-02-2012 00:21:02 2 C 77 %
1375 16-02-2012 00:31:02 1.7 C 79 %
Sensor: Nr:Datum:Temp:Feuchte:
Aussen-T/F 1376 16-02-2012 00:41:02 1.8 C 81 %
1377 16-02-2012 00:51:01 1.9 C 81 %
1378 16-02-2012 01:01:02 1.7 C 82 %
1379 16-02-2012 01:11:02 1.6 C 83 %
1380 16-02-2012 01:21:01 1.3 C 84 %
1381 16-02-2012 01:31:01 1.3 C 86 %
1382 16-02-2012 01:41:01 1.3 C 87 %
1383 16-02-2012 01:51:01 1.5 C 87 %
1384 16-02-2012 02:01:01 1.8 C 88 %
1385 16-02-2012 02:11:01 1.6 C 87 %
1386 16-02-2012 02:21:02 1.6 C 87 %
1387 16-02-2012 02:31:01 1.2 C 87 %
1388 16-02-2012 02:41:01 1.3 C 87 %
1389 16-02-2012 02:51:01 1.4 C 87 %
1390 16-02-2012 03:01:01 1.4 C 87 %
1391 16-02-2012 03:11:01 1.6 C 88 %
1392 16-02-2012 03:21:01 1.5 C 87 %
1393 16-02-2012 03:31:02 1.6 C 87 %
1394 16-02-2012 03:41:02 1.9 C 87 %
1395 16-02-2012 03:51:01 1.9 C 85 %
1396 16-02-2012 04:01:02 2 C 84 %
1397 16-02-2012 04:11:02 2 C 83 %
1398 16-02-2012 04:21:01 1.9 C 83 %
1399 16-02-2012 04:31:01 2.1 C 82 %
1400 16-02-2012 04:41:01 1.8 C 82 %
Sensor: Nr:Datum:Temp:Feuchte:
Aussen-T/F 1401 16-02-2012 04:51:02 1.6 C 83 %
1402 16-02-2012 05:01:01 1.6 C 83 %
1403 16-02-2012 05:11:01 1.8 C 84 %
1404 16-02-2012 05:21:02 1.8 C 84 %
1405 16-02-2012 05:31:01 1.3 C 83 %
1406 16-02-2012 05:41:01 0.6 C 84 %
1407 16-02-2012 05:51:01 0.2 C 85 %
1408 16-02-2012 06:01:02 1.1 C 86 %
1409 16-02-2012 06:11:02 1.1 C 87 %
1410 16-02-2012 06:21:01 1.3 C 87 %
1411 16-02-2012 06:31:02 1.3 C 86 %
1412 16-02-2012 06:41:02 1.1 C 86 %
1413 16-02-2012 06:51:01 1.2 C 86 %
1414 16-02-2012 07:01:01 1.3 C 86 %
1415 16-02-2012 07:11:01 1.3 C 86 %
1416 16-02-2012 07:21:02 1.4 C 86 %
1417 16-02-2012 07:31:01 1.5 C 85 %
1418 16-02-2012 07:41:01 1.9 C 84 %
1419 16-02-2012 07:51:02 1.9 C 82 %
1420 16-02-2012 08:01:01 1.8 C 82 %
1421 16-02-2012 08:11:01 1.7 C 82 %
1422 16-02-2012 08:21:01 1.7 C 82 %
1423 16-02-2012 08:31:02 1.6 C 83 %
1424 16-02-2012 08:41:02 1.7 C 84 %
1425 16-02-2012 08:51:01 1.8 C 84 %
Sensor: Nr:Datum:Temp:Feuchte:
Aussen-T/F 1426 16-02-2012 09:01:02 1.9 C 84 %
1427 16-02-2012 09:11:02 2.1 C 84 %
1428 16-02-2012 09:21:01 2.6 C 83 %
1429 16-02-2012 09:31:01 2.8 C 80 %
1430 16-02-2012 09:41:01 3.3 C 76 %
1431 16-02-2012 09:51:02 3.8 C 74 %
1432 16-02-2012 10:01:01 3.6 C 72 %
1433 16-02-2012 10:11:01 3.6 C 72 %
1434 16-02-2012 10:21:02 3.3 C 73 %
1435 16-02-2012 10:31:01 3.2 C 75 %
1436 16-02-2012 10:41:01 3.2 C 76 %
1437 16-02-2012 10:51:01 3.1 C 77 %
1438 16-02-2012 11:01:02 3 C 80 %
1439 16-02-2012 11:11:02 2.8 C 82 %
1440 16-02-2012 11:21:01 2.9 C 82 %
1441 16-02-2012 11:31:01 3 C 82 %
1442 16-02-2012 11:41:01 3 C 83 %
1443 16-02-2012 11:51:02 3.3 C 83 %
1444 16-02-2012 12:01:01 3.4 C 83 %
1445 16-02-2012 12:11:01 3.4 C 83 %
1446 16-02-2012 12:21:01 3.6 C 83 %
1447 16-02-2012 12:31:02 3.6 C 83 %
1448 16-02-2012 12:41:02 3.6 C 83 %
1449 16-02-2012 12:51:01 3.8 C 83 %
1450 16-02-2012 13:01:01 4.3 C 82 %
Sensor: Nr:Datum:Temp:Feuchte:
Aussen-T/F 1451 16-02-2012 13:11:01 4.5 C 81 %
1452 16-02-2012 13:21:02 4.7 C 79 %
1453 16-02-2012 13:31:01 4.8 C 78 %
1454 16-02-2012 13:41:01 5 C 76 %
1455 16-02-2012 13:51:01 5.1 C 74 %
1456 16-02-2012 14:01:02 5.3 C 74 %
1457 16-02-2012 14:11:02 5.4 C 73 %
1458 16-02-2012 14:21:02 5.9 C 72 %
1459 16-02-2012 14:31:01 6.4 C 68 %
1460 16-02-2012 14:41:01 6.2 C 69 %
1461 16-02-2012 14:51:01 6 C 69 %
1462 16-02-2012 15:01:01 6.7 C 67 %
1463 16-02-2012 15:11:01 6.1 C 68 %
1464 16-02-2012 15:21:02 5.9 C 72 %
1465 16-02-2012 15:31:01 5.9 C 74 %
1466 16-02-2012 15:41:01 5.6 C 76 %
1467 16-02-2012 15:51:02 5.4 C 78 %
1468 16-02-2012 16:01:01 5.2 C 80 %
1469 16-02-2012 16:11:01 5.1 C 83 %
1470 16-02-2012 16:21:01 5 C 84 %
1471 16-02-2012 16:31:02 5 C 85 %
1472 16-02-2012 16:41:02 5 C 85 %
1473 16-02-2012 16:51:01 5 C 86 %
1474 16-02-2012 17:01:01 4.8 C 87 %
1475 16-02-2012 17:11:01 4.8 C 87 %
Sensor: Nr:Datum:Temp:Feuchte:
Aussen-T/F 1476 16-02-2012 17:21:02 4.8 C 88 %
1477 16-02-2012 17:31:01 4.6 C 88 %
1478 16-02-2012 17:41:01 4.4 C 88 %
1479 16-02-2012 17:51:01 4.4 C 88 %
1480 16-02-2012 18:01:02 4.4 C 88 %
1481 16-02-2012 18:11:02 4.2 C 88 %
1482 16-02-2012 18:21:01 4 C 89 %
1483 16-02-2012 18:31:01 3.8 C 89 %
1484 16-02-2012 18:41:01 3.8 C 89 %
1485 16-02-2012 18:51:02 3.7 C 90 %
1486 16-02-2012 19:01:01 3.8 C 90 %
1487 16-02-2012 19:11:01 3.8 C 90 %
1488 16-02-2012 19:21:01 4 C 90 %
1489 16-02-2012 19:31:02 4 C 90 %
1490 16-02-2012 19:41:02 4 C 90 %
1491 16-02-2012 19:51:01 4.1 C 90 %
1492 16-02-2012 20:01:01 3.9 C 90 %
1493 16-02-2012 20:11:01 3.7 C 90 %
1494 16-02-2012 20:21:02 3.7 C 89 %
1495 16-02-2012 20:31:01 3.6 C 89 %
1496 16-02-2012 20:41:01 3.6 C 90 %
1497 16-02-2012 20:51:01 3.7 C 90 %
1498 16-02-2012 21:01:02 3.8 C 90 %
1499 16-02-2012 21:11:02 3.7 C 90 %
1500 16-02-2012 21:21:01 3.7 C 90 %
Sensor: Nr:Datum:Temp:Feuchte:
Aussen-T/F 1501 16-02-2012 21:31:01 3.7 C 90 %
1502 16-02-2012 21:41:01 3.6 C 90 %
1503 16-02-2012 21:51:01 3.7 C 90 %
1504 16-02-2012 22:01:01 3.6 C 90 %
1505 16-02-2012 22:11:02 3.7 C 90 %
1506 16-02-2012 22:21:01 4 C 89 %
1507 16-02-2012 22:31:02 3.9 C 89 %
1508 16-02-2012 22:41:02 4.1 C 88 %
1509 16-02-2012 22:51:01 4.1 C 87 %
1510 16-02-2012 23:01:01 4 C 86 %
1511 16-02-2012 23:11:01 3.7 C 86 %
1512 16-02-2012 23:21:02 3.6 C 86 %
1513 16-02-2012 23:31:01 3.6 C 87 %
1514 16-02-2012 23:41:01 3.8 C 87 %
1515 16-02-2012 23:51:01 4.1 C 85 %
1516 17-02-2012 00:01:02 4.3 C 84 %
1517 17-02-2012 00:11:02 4.3 C 82 %
1518 17-02-2012 00:21:01 4.3 C 81 %
1519 17-02-2012 00:31:02 4.5 C 80 %
1520 17-02-2012 00:41:02 4.4 C 80 %
1521 17-02-2012 00:51:01 4.5 C 79 %
1522 17-02-2012 01:01:01 4.5 C 78 %
1523 17-02-2012 01:11:01 4.3 C 78 %
1524 17-02-2012 01:21:02 4.3 C 79 %
1525 17-02-2012 01:31:01 4.2 C 79 %
Sensor: Nr:Datum:Temp:Feuchte:
Aussen-T/F 1526 17-02-2012 01:41:01 4.2 C 79 %
1527 17-02-2012 01:51:02 4.2 C 79 %
1528 17-02-2012 02:01:01 4.4 C 79 %
1529 17-02-2012 02:11:01 4.4 C 78 %
1530 17-02-2012 02:21:01 4.2 C 79 %
1531 17-02-2012 02:31:02 4.3 C 79 %
1532 17-02-2012 02:41:02 4.3 C 78 %
1533 17-02-2012 02:51:01 4.1 C 79 %
1534 17-02-2012 03:01:02 4 C 79 %
1535 17-02-2012 03:11:02 3.8 C 81 %
1536 17-02-2012 03:21:01 3.7 C 82 %
1537 17-02-2012 03:32:01 3.6 C 83 %
1538 17-02-2012 03:42:01 3.8 C 83 %
1539 17-02-2012 03:51:02 4.4 C 80 %
1540 17-02-2012 04:01:01 4.6 C 78 %
1541 17-02-2012 04:11:01 4.3 C 76 %
1542 17-02-2012 04:21:02 4.4 C 76 %
1543 17-02-2012 04:31:01 4.6 C 75 %
1544 17-02-2012 04:41:01 4.8 C 75 %
1545 17-02-2012 04:52:01 4.6 C 74 %
1546 17-02-2012 05:01:02 4.5 C 74 %
1547 17-02-2012 05:11:02 4.2 C 75 %
1548 17-02-2012 05:21:01 4.2 C 77 %
1549 17-02-2012 05:31:02 4.2 C 79 %
1550 17-02-2012 05:41:02 4.1 C 80 %
Sensor: Nr:Datum:Temp:Feuchte:
Aussen-T/F 1551 17-02-2012 05:51:01 4.2 C 80 %
1552 17-02-2012 06:02:01 4 C 81 %
1553 17-02-2012 06:12:01 4 C 82 %
1554 17-02-2012 06:21:01 4.3 C 82 %
1555 17-02-2012 06:32:01 4.4 C 80 %
1556 17-02-2012 06:42:01 4.5 C 79 %
1557 17-02-2012 06:51:02 4.6 C 79 %
1558 17-02-2012 07:01:01 4.7 C 78 %
1559 17-02-2012 07:11:01 4.7 C 77 %
1560 17-02-2012 07:22:01 4.8 C 77 %
1561 17-02-2012 07:31:01 4.6 C 77 %
1562 17-02-2012 07:41:01 4.6 C 77 %
1563 17-02-2012 07:52:01 4.5 C 78 %
1564 17-02-2012 08:01:02 4.5 C 79 %
1565 17-02-2012 08:11:02 4.4 C 79 %
1566 17-02-2012 08:21:01 4.5 C 79 %
1567 17-02-2012 08:32:01 4.7 C 78 %
1568 17-02-2012 08:42:01 5 C 76 %
1569 17-02-2012 08:51:02 4.9 C 77 %
1570 17-02-2012 09:01:02 5.2 C 75 %
1571 17-02-2012 09:11:02 5.4 C 73 %
1572 17-02-2012 09:21:01 5.5 C 73 %
1573 17-02-2012 09:32:01 5.4 C 72 %
1574 17-02-2012 09:42:01 5.7 C 72 %
1575 17-02-2012 09:51:02 5.7 C 72 %
Sensor: Nr:Datum:Temp:Feuchte:
Aussen-T/F 1576 17-02-2012 10:01:01 5.6 C 73 %
1577 17-02-2012 10:11:01 5.8 C 74 %
1578 17-02-2012 10:22:01 5.8 C 73 %
1579 17-02-2012 10:31:02 5.9 C 73 %
1580 17-02-2012 10:41:02 6.3 C 72 %
1581 17-02-2012 10:51:01 6.5 C 70 %
1582 17-02-2012 11:02:01 6.7 C 69 %
1583 17-02-2012 11:12:01 7.2 C 66 %
1584 17-02-2012 11:21:02 6.9 C 67 %
1585 17-02-2012 11:32:01 7 C 65 %
1586 17-02-2012 11:42:01 6.9 C 69 %
1587 17-02-2012 11:52:01 6.9 C 67 %
1588 17-02-2012 12:01:02 6.4 C 70 %
1589 17-02-2012 12:11:02 6.5 C 71 %
1590 17-02-2012 12:22:01 6.7 C 70 %
1591 17-02-2012 12:32:01 6.7 C 69 %
1592 17-02-2012 12:42:01 6.5 C 69 %
1593 17-02-2012 12:51:02 6.3 C 71 %
1594 17-02-2012 13:02:01 6.4 C 71 %
1595 17-02-2012 13:12:01 6.6 C 69 %
1596 17-02-2012 13:22:01 6.6 C 69 %
1597 17-02-2012 13:32:02 6.5 C 70 %
1598 17-02-2012 13:42:02 6.6 C 70 %
1599 17-02-2012 13:52:01 6.5 C 70 %
1600 17-02-2012 14:01:02 6.5 C 71 %
Sensor: Nr:Datum:Temp:Feuchte:
Aussen-T/F 1601 17-02-2012 14:11:02 6.7 C 71 %
1602 17-02-2012 14:22:01 6.7 C 71 %
1603 17-02-2012 14:32:01 6.7 C 71 %
1604 17-02-2012 14:42:01 6.6 C 71 %
1605 17-02-2012 14:52:02 6.5 C 71 %
1606 17-02-2012 15:02:01 6.5 C 71 %
1607 17-02-2012 15:12:01 6.5 C 71 %
1608 17-02-2012 15:22:01 6.4 C 72 %
1609 17-02-2012 15:32:01 6.5 C 72 %
1610 17-02-2012 15:42:02 6.5 C 72 %
1611 17-02-2012 15:52:01 6.3 C 73 %
1612 17-02-2012 16:01:02 6 C 74 %
1613 17-02-2012 16:11:02 5.7 C 78 %
1614 17-02-2012 16:22:01 5.6 C 81 %
1615 17-02-2012 16:32:01 5.7 C 82 %
1616 17-02-2012 16:42:01 5.6 C 83 %
1617 17-02-2012 16:52:02 5.6 C 84 %
1618 17-02-2012 17:02:01 5.6 C 84 %
1619 17-02-2012 17:12:01 5.6 C 84 %
1620 17-02-2012 17:22:01 5.7 C 84 %
1621 17-02-2012 17:32:02 5.7 C 84 %
1622 17-02-2012 17:42:02 5.7 C 84 %
1623 17-02-2012 17:52:01 5.4 C 83 %
1624 17-02-2012 18:02:02 5.7 C 83 %
1625 17-02-2012 18:12:02 5.7 C 83 %
Sensor: Nr:Datum:Temp:Feuchte:
Aussen-T/F 1626 17-02-2012 18:22:02 5.7 C 82 %
1627 17-02-2012 18:32:01 5.7 C 81 %
1628 17-02-2012 18:42:01 5.4 C 81 %
1629 17-02-2012 18:52:02 5.4 C 81 %
1630 17-02-2012 19:02:01 5.4 C 82 %
1631 17-02-2012 19:12:02 4.8 C 83 %
1632 17-02-2012 19:22:01 4.9 C 84 %
1633 17-02-2012 19:32:02 4.8 C 84 %
1634 17-02-2012 19:42:02 5 C 83 %
1635 17-02-2012 19:52:01 5.2 C 83 %
1636 17-02-2012 20:02:01 5.3 C 82 %
1637 17-02-2012 20:12:01 5.2 C 81 %
1638 17-02-2012 20:22:02 5.3 C 81 %
1639 17-02-2012 20:32:01 5.2 C 80 %
1640 17-02-2012 20:42:01 5.1 C 80 %
1641 17-02-2012 20:52:01 5.1 C 80 %
1642 17-02-2012 21:02:02 5.3 C 80 %
1643 17-02-2012 21:12:02 5.4 C 79 %
1644 17-02-2012 21:22:01 5.3 C 79 %
1645 17-02-2012 21:32:01 5.3 C 78 %
1646 17-02-2012 21:42:01 5 C 79 %
1647 17-02-2012 21:52:02 5 C 79 %
1648 17-02-2012 22:02:01 5.3 C 79 %
1649 17-02-2012 22:12:01 5.2 C 78 %
1650 17-02-2012 22:22:01 5.1 C 78 %
Sensor: Nr:Datum:Temp:Feuchte:
Aussen-T/F 1651 17-02-2012 22:32:02 4.7 C 80 %
1652 17-02-2012 22:42:02 4.8 C 81 %
1653 17-02-2012 22:52:01 5.2 C 79 %
1654 17-02-2012 23:02:01 5 C 78 %
1655 17-02-2012 23:12:01 5.1 C 78 %
1656 17-02-2012 23:22:02 5.2 C 79 %
1657 17-02-2012 23:32:01 5.2 C 79 %
1658 17-02-2012 23:42:01 4.8 C 80 %
1659 17-02-2012 23:52:01 5.1 C 79 %
1660 18-02-2012 00:02:01 5.1 C 79 %
1661 18-02-2012 00:12:02 5.2 C 79 %
1662 18-02-2012 00:22:01 4.9 C 80 %
1663 18-02-2012 00:32:02 4.6 C 80 %
1664 18-02-2012 00:42:02 4.6 C 82 %
1665 18-02-2012 00:52:01 4.6 C 82 %
1666 18-02-2012 01:02:01 4.2 C 83 %
1667 18-02-2012 01:12:01 4 C 84 %
1668 18-02-2012 01:22:02 4.1 C 84 %
1669 18-02-2012 01:32:01 4.4 C 84 %
1670 18-02-2012 01:42:01 4.6 C 84 %
1671 18-02-2012 01:52:01 5.1 C 82 %
1672 18-02-2012 02:02:02 4.8 C 81 %
1673 18-02-2012 02:12:02 4.7 C 81 %
1674 18-02-2012 02:22:01 5 C 80 %
1675 18-02-2012 02:32:02 4.8 C 81 %
Sensor: Nr:Datum:Temp:Feuchte:
Aussen-T/F 1676 18-02-2012 02:42:02 4.8 C 81 %
1677 18-02-2012 02:52:01 5.1 C 80 %
1678 18-02-2012 03:02:01 5.1 C 80 %
1679 18-02-2012 03:12:01 5 C 80 %
1680 18-02-2012 03:22:02 5.2 C 80 %
1681 18-02-2012 03:32:01 4.9 C 81 %
1682 18-02-2012 03:42:01 5.3 C 80 %
1683 18-02-2012 03:52:02 5.1 C 80 %
1684 18-02-2012 04:02:01 4.9 C 81 %
1685 18-02-2012 04:12:01 4.9 C 82 %
1686 18-02-2012 04:22:01 4.8 C 82 %
1687 18-02-2012 04:32:01 4.8 C 83 %
1688 18-02-2012 04:42:02 5 C 83 %
1689 18-02-2012 04:52:01 5.2 C 83 %
1690 18-02-2012 05:02:02 5.3 C 83 %
1691 18-02-2012 05:12:02 5.3 C 83 %
1692 18-02-2012 05:22:01 5.2 C 82 %
1693 18-02-2012 05:32:01 5.1 C 82 %
1694 18-02-2012 05:42:01 4.8 C 84 %
1695 18-02-2012 05:52:01 4.5 C 84 %
1696 18-02-2012 06:02:01 4.5 C 85 %
1697 18-02-2012 06:12:01 4.5 C 85 %
1698 18-02-2012 06:22:02 4.3 C 86 %
1699 18-02-2012 06:32:01 4.5 C 87 %
1700 18-02-2012 06:42:01 4.6 C 87 %
Sensor: Nr:Datum:Temp:Feuchte:
Aussen-T/F 1701 18-02-2012 06:52:02 4.8 C 87 %
1702 18-02-2012 07:02:01 5.3 C 85 %
1703 18-02-2012 07:12:01 5.6 C 84 %
1704 18-02-2012 07:22:01 5.6 C 83 %
1705 18-02-2012 07:32:02 5.4 C 82 %
1706 18-02-2012 07:42:02 5.4 C 82 %
1707 18-02-2012 07:52:01 5.1 C 82 %
1708 18-02-2012 08:02:02 5.2 C 83 %
1709 18-02-2012 08:12:02 5.2 C 83 %
1710 18-02-2012 08:22:01 5.5 C 83 %
1711 18-02-2012 08:32:01 5.6 C 83 %
1712 18-02-2012 08:42:01 5.7 C 82 %
1713 18-02-2012 08:52:02 6 C 80 %
1714 18-02-2012 09:02:02 6 C 79 %
1715 18-02-2012 09:12:02 6 C 79 %
1716 18-02-2012 09:22:01 6.2 C 78 %
1717 18-02-2012 09:32:01 6.7 C 76 %
1718 18-02-2012 09:42:01 6.6 C 74 %
1719 18-02-2012 09:52:01 6.6 C 74 %
1720 18-02-2012 10:02:01 6.7 C 74 %
1721 18-02-2012 10:12:01 6.7 C 74 %
1722 18-02-2012 10:22:02 6.6 C 73 %
1723 18-02-2012 10:32:01 6.6 C 73 %
1724 18-02-2012 10:42:01 6.6 C 73 %
1725 18-02-2012 10:52:01 7.1 C 71 %
Sensor: Nr:Datum:Temp:Feuchte:
Aussen-T/F 1726 18-02-2012 11:02:02 7.3 C 69 %
1727 18-02-2012 11:12:02 7.6 C 68 %
1728 18-02-2012 11:22:01 7.8 C 67 %
1729 18-02-2012 11:32:01 7.8 C 66 %
1730 18-02-2012 11:42:01 7.7 C 67 %
1731 18-02-2012 11:52:01 7.8 C 67 %
1732 18-02-2012 12:02:02 7.4 C 68 %
1733 18-02-2012 12:12:02 7.4 C 69 %
1734 18-02-2012 12:22:01 7.4 C 69 %
1735 18-02-2012 12:32:01 7.3 C 69 %
1736 18-02-2012 12:42:01 7.3 C 69 %
1737 18-02-2012 12:52:01 7.4 C 68 %
1738 18-02-2012 13:02:02 7.5 C 68 %
1739 18-02-2012 13:12:02 7.4 C 69 %
1740 18-02-2012 13:22:01 7.4 C 69 %
1741 18-02-2012 13:32:01 7.4 C 69 %
1742 18-02-2012 13:42:01 7.3 C 69 %
1743 18-02-2012 13:52:02 7.4 C 70 %
1744 18-02-2012 14:02:01 7.4 C 69 %
1745 18-02-2012 14:12:01 7.4 C 70 %
1746 18-02-2012 14:22:01 7.4 C 70 %
1747 18-02-2012 14:32:01 7.5 C 69 %
1748 18-02-2012 14:42:02 7.4 C 69 %
1749 18-02-2012 14:52:01 7.5 C 69 %
1750 18-02-2012 15:02:01 7.6 C 69 %
Sensor: Nr:Datum:Temp:Feuchte:
Aussen-T/F 1751 18-02-2012 15:12:01 7.5 C 69 %
1752 18-02-2012 15:22:02 7.5 C 69 %
1753 18-02-2012 15:32:01 7.6 C 69 %
1754 18-02-2012 15:42:01 7.8 C 69 %
1755 18-02-2012 15:52:02 7.7 C 68 %
1756 18-02-2012 16:02:01 7.6 C 69 %
1757 18-02-2012 16:12:01 7.6 C 69 %
1758 18-02-2012 16:22:01 7.4 C 70 %
1759 18-02-2012 16:32:02 7.4 C 70 %
1760 18-02-2012 16:42:02 7.4 C 70 %
1761 18-02-2012 16:52:01 7.3 C 70 %
1762 18-02-2012 17:02:01 7.1 C 71 %
1763 18-02-2012 17:12:01 7 C 71 %
1764 18-02-2012 17:22:02 7 C 71 %
1765 18-02-2012 17:32:01 7 C 71 %
1766 18-02-2012 17:42:01 6.7 C 73 %
1767 18-02-2012 17:52:02 6.4 C 74 %
1768 18-02-2012 18:02:01 6.4 C 75 %
1769 18-02-2012 18:12:01 6.6 C 76 %
1770 18-02-2012 18:22:01 6.4 C 75 %
1771 18-02-2012 18:32:02 6.4 C 76 %
1772 18-02-2012 18:42:02 6.4 C 76 %
1773 18-02-2012 18:52:01 6.2 C 76 %
1774 18-02-2012 19:02:02 6.1 C 77 %
1775 18-02-2012 19:12:02 6.2 C 77 %
Sensor: Nr:Datum:Temp:Feuchte:
Aussen-T/F 1776 18-02-2012 19:22:01 6.4 C 77 %
1777 18-02-2012 19:32:01 6.4 C 77 %
1778 18-02-2012 19:42:01 6.7 C 76 %
1779 18-02-2012 19:52:02 6.9 C 76 %
1780 18-02-2012 20:02:01 6.9 C 75 %
1781 18-02-2012 20:12:01 7 C 73 %
1782 18-02-2012 20:22:01 7 C 73 %
1783 18-02-2012 20:32:01 7.1 C 73 %
1784 18-02-2012 20:42:01 7.2 C 72 %
1785 18-02-2012 20:52:01 7.2 C 72 %
1786 18-02-2012 21:02:01 7.1 C 72 %
1787 18-02-2012 21:12:01 7.3 C 72 %
1788 18-02-2012 21:22:02 7.4 C 72 %
1789 18-02-2012 21:32:01 7.2 C 72 %
1790 18-02-2012 21:42:01 7.2 C 73 %
1791 18-02-2012 21:52:01 7.4 C 72 %
1792 18-02-2012 22:02:01 7.3 C 72 %
1793 18-02-2012 22:12:02 7.3 C 72 %
1794 18-02-2012 22:22:01 7.2 C 72 %
1795 18-02-2012 22:32:02 7.2 C 72 %
1796 18-02-2012 22:42:02 7.2 C 72 %
1797 18-02-2012 22:52:01 7.2 C 72 %
1798 18-02-2012 23:02:01 7.3 C 71 %
1799 18-02-2012 23:12:01 7.2 C 71 %
1800 18-02-2012 23:22:02 7.2 C 71 %
Sensor: Nr:Datum:Temp:Feuchte:
Aussen-T/F 1801 18-02-2012 23:32:01 7.1 C 71 %
1802 18-02-2012 23:42:01 7 C 72 %
1803 18-02-2012 23:52:01 7 C 72 %
1804 19-02-2012 00:02:01 6.5 C 76 %
1805 19-02-2012 00:12:02 6.5 C 77 %
1806 19-02-2012 00:22:01 6.3 C 78 %
1807 19-02-2012 00:32:02 6.3 C 78 %
1808 19-02-2012 00:42:02 6.5 C 78 %
1809 19-02-2012 00:52:01 6.5 C 78 %
1810 19-02-2012 01:02:01 6.5 C 78 %
1811 19-02-2012 01:12:01 6.8 C 77 %
1812 19-02-2012 01:22:02 6.8 C 77 %
1813 19-02-2012 01:32:01 6.9 C 76 %
1814 19-02-2012 01:42:01 6.9 C 75 %
1815 19-02-2012 01:52:02 7 C 74 %
1816 19-02-2012 02:02:01 6.7 C 75 %
1817 19-02-2012 02:12:01 7.1 C 73 %
1818 19-02-2012 02:22:01 7.1 C 73 %
1819 19-02-2012 02:32:02 7.2 C 72 %
1820 19-02-2012 02:42:02 7 C 74 %
1821 19-02-2012 02:52:01 6.6 C 77 %
1822 19-02-2012 03:02:02 6.6 C 79 %
1823 19-02-2012 03:12:02 3.9 C 78 %
1824 19-02-2012 03:22:01 2.8 C 80 %
1825 19-02-2012 03:32:01 2.7 C 82 %
Sensor: Nr:Datum:Temp:Feuchte:
Aussen-T/F 1826 19-02-2012 03:42:01 2.6 C 82 %
1827 19-02-2012 03:52:02 2.6 C 82 %
1828 19-02-2012 04:02:01 2.5 C 84 %
1829 19-02-2012 04:12:01 2.4 C 84 %
1830 19-02-2012 04:22:02 2.5 C 85 %
1831 19-02-2012 04:32:01 2.4 C 85 %
1832 19-02-2012 04:42:01 2.4 C 86 %
1833 19-02-2012 04:52:01 2.1 C 86 %
1834 19-02-2012 05:02:02 1.9 C 87 %
1835 19-02-2012 05:12:02 2 C 87 %
1836 19-02-2012 05:22:01 2.2 C 87 %
1837 19-02-2012 05:32:02 2 C 87 %
1838 19-02-2012 05:42:02 1.7 C 88 %
1839 19-02-2012 05:52:01 1.7 C 88 %
1840 19-02-2012 06:03:01 1.4 C 89 %
1841 19-02-2012 06:13:01 1.1 C 89 %
1842 19-02-2012 06:22:02 0.8 C 89 %
1843 19-02-2012 06:32:01 0.9 C 90 %
1844 19-02-2012 06:42:01 0.9 C 90 %
1845 19-02-2012 06:52:02 1.3 C 90 %
1846 19-02-2012 07:02:01 1.5 C 90 %
1847 19-02-2012 07:12:01 1.5 C 89 %
1848 19-02-2012 07:23:01 2.3 C 85 %
1849 19-02-2012 07:32:02 2 C 82 %
1850 19-02-2012 07:42:02 2 C 76 %
Sensor: Nr:Datum:Temp:Feuchte:
Aussen-T/F 1851 19-02-2012 07:52:01 2.1 C 73 %
1852 19-02-2012 08:02:02 2.2 C 73 %
1853 19-02-2012 08:12:02 2.3 C 70 %
1854 19-02-2012 08:22:01 2.4 C 69 %
1855 19-02-2012 08:33:01 2.2 C 72 %
1856 19-02-2012 08:43:01 2.2 C 72 %
1857 19-02-2012 08:52:02 2.3 C 73 %
1858 19-02-2012 09:02:01 2.4 C 73 %
1859 19-02-2012 09:12:01 2.4 C 74 %
1860 19-02-2012 09:23:01 2.8 C 73 %
1861 19-02-2012 09:32:01 3.4 C 66 %
1862 19-02-2012 09:42:02 3.4 C 65 %
1863 19-02-2012 09:53:01 3.9 C 63 %
1864 19-02-2012 10:02:02 4 C 63 %
1865 19-02-2012 10:12:02 4.4 C 62 %
1866 19-02-2012 10:22:01 4.6 C 61 %
1867 19-02-2012 10:33:01 4.5 C 61 %
1868 19-02-2012 10:43:01 4.3 C 61 %
1869 19-02-2012 10:52:02 4.5 C 60 %
1870 19-02-2012 11:03:01 4.9 C 59 %
1871 19-02-2012 11:13:01 4.7 C 58 %
1872 19-02-2012 11:22:02 5 C 55 %
1873 19-02-2012 11:32:01 4.9 C 56 %
1874 19-02-2012 11:42:02 3.1 C 65 %
1875 19-02-2012 11:53:01 1.4 C 76 %
Sensor: Nr:Datum:Temp:Feuchte:
Aussen-T/F 1876 19-02-2012 12:02:02 1.7 C 80 %
1877 19-02-2012 12:12:02 2.4 C 81 %
1878 19-02-2012 12:23:01 2.1 C 80 %
1879 19-02-2012 12:33:01 2.4 C 81 %
1880 19-02-2012 12:43:01 2.6 C 80 %
1881 19-02-2012 12:52:02 5.1 C 74 %
1882 19-02-2012 13:03:01 5.1 C 70 %
1883 19-02-2012 13:13:01 3.3 C 70 %
1884 19-02-2012 13:23:01 2.6 C 75 %
1885 19-02-2012 13:32:01 3.3 C 76 %
1886 19-02-2012 13:42:02 3.7 C 74 %
1887 19-02-2012 13:53:01 1 C 78 %
1888 19-02-2012 14:02:02 0.6 C 82 %
1889 19-02-2012 14:12:02 0.4 C 85 %
1890 19-02-2012 14:23:01 0.5 C 86 %
1891 19-02-2012 14:33:01 0.8 C 87 %
1892 19-02-2012 14:43:01 1.2 C 86 %
1893 19-02-2012 14:52:02 1.5 C 85 %
1894 19-02-2012 15:03:01 1.9 C 81 %
1895 19-02-2012 15:13:01 2.3 C 78 %
1896 19-02-2012 15:23:01 2.2 C 76 %
1897 19-02-2012 15:33:01 2.4 C 76 %
1898 19-02-2012 15:43:02 2.4 C 76 %
1899 19-02-2012 15:53:01 2.7 C 77 %
1900 19-02-2012 16:02:02 3 C 76 %
Sensor: Nr:Datum:Temp:Feuchte:
Aussen-T/F 1901 19-02-2012 16:12:02 3.8 C 74 %
1902 19-02-2012 16:23:01 3.4 C 65 %
1903 19-02-2012 16:33:01 2.2 C 73 %
1904 19-02-2012 16:43:01 4.7 C 70 %
1905 19-02-2012 16:53:02 4.6 C 63 %
1906 19-02-2012 17:03:01 2 C 70 %
1907 19-02-2012 17:13:01 3.6 C 70 %
1908 19-02-2012 17:23:01 3 C 68 %
1909 19-02-2012 17:33:02 1.2 C 74 %
1910 19-02-2012 17:43:02 1.3 C 77 %
1911 19-02-2012 17:53:01 1.4 C 76 %
1912 19-02-2012 18:03:01 1.4 C 75 %
1913 19-02-2012 18:13:01 1.8 C 73 %
1914 19-02-2012 18:23:02 2 C 71 %
1915 19-02-2012 18:33:02 1.7 C 71 %
1916 19-02-2012 18:43:02 0.8 C 74 %
1917 19-02-2012 18:53:01 0.1 C 77 %
1918 19-02-2012 19:03:01 -0.3 C 81 %
1919 19-02-2012 19:13:01 0.1 C 83 %
1920 19-02-2012 19:23:01 -0.2 C 84 %
1921 19-02-2012 19:33:01 0 C 86 %
1922 19-02-2012 19:43:01 0.3 C 87 %
1923 19-02-2012 19:53:01 0.5 C 87 %
1924 19-02-2012 20:03:02 0.5 C 87 %
1925 19-02-2012 20:13:02 0.6 C 87 %
Sensor: Nr:Datum:Temp:Feuchte:
Aussen-T/F 1926 19-02-2012 20:23:01 0.6 C 87 %
1927 19-02-2012 20:33:02 0.8 C 85 %
1928 19-02-2012 20:43:02 1 C 83 %
1929 19-02-2012 20:53:01 1 C 82 %
1930 19-02-2012 21:03:01 0.8 C 83 %
1931 19-02-2012 21:13:01 0.7 C 83 %
1932 19-02-2012 21:23:02 0.7 C 83 %
1933 19-02-2012 21:33:01 0.8 C 83 %
1934 19-02-2012 21:43:01 0.8 C 83 %
1935 19-02-2012 21:53:01 0.8 C 83 %
1936 19-02-2012 22:03:02 1 C 82 %
1937 19-02-2012 22:13:02 1 C 81 %
1938 19-02-2012 22:23:01 1.1 C 80 %
1939 19-02-2012 22:33:02 1.3 C 78 %
1940 19-02-2012 22:43:02 0.6 C 77 %
1941 19-02-2012 22:53:01 0.8 C 78 %
1942 19-02-2012 23:03:01 0.7 C 79 %
1943 19-02-2012 23:13:01 0.8 C 77 %
1944 19-02-2012 23:23:02 0.6 C 78 %
1945 19-02-2012 23:33:01 0.5 C 79 %
1946 19-02-2012 23:43:01 0.5 C 80 %
1947 19-02-2012 23:53:01 0.6 C 80 %
1948 20-02-2012 00:03:02 0.5 C 81 %
1949 20-02-2012 00:13:02 0.5 C 82 %
1950 20-02-2012 00:23:01 0.7 C 82 %
Sensor: Nr:Datum:Temp:Feuchte:
Aussen-T/F 1951 20-02-2012 00:33:02 1 C 80 %
1952 20-02-2012 00:43:02 1 C 80 %
1953 20-02-2012 00:53:01 1.1 C 79 %
1954 20-02-2012 01:03:01 1.1 C 78 %
1955 20-02-2012 01:13:01 1.2 C 78 %
1956 20-02-2012 01:23:02 1.2 C 76 %
1957 20-02-2012 01:33:01 0.2 C 78 %
1958 20-02-2012 01:43:01 0.4 C 81 %
1959 20-02-2012 01:53:02 0.3 C 81 %
1960 20-02-2012 02:03:02 0 C 82 %
1961 20-02-2012 02:13:02 0.1 C 83 %
1962 20-02-2012 02:23:01 0 C 83 %
1963 20-02-2012 02:33:02 -0.5 C 83 %
1964 20-02-2012 02:43:02 -0.3 C 84 %
1965 20-02-2012 02:53:01 -0.2 C 85 %
1966 20-02-2012 03:03:02 0.1 C 86 %
1967 20-02-2012 03:13:02 0.3 C 86 %
1968 20-02-2012 03:23:01 0.5 C 84 %
1969 20-02-2012 03:33:01 0.4 C 83 %
1970 20-02-2012 03:43:01 0.4 C 82 %
1971 20-02-2012 03:53:01 0.5 C 82 %
1972 20-02-2012 04:03:01 0.6 C 79 %
1973 20-02-2012 04:13:01 0.1 C 77 %
1974 20-02-2012 04:23:02 -1.2 C 76 %
1975 20-02-2012 04:33:01 -1.9 C 79 %
Sensor: Nr:Datum:Temp:Feuchte:
Aussen-T/F 1976 20-02-2012 04:43:01 -1.7 C 81 %
1977 20-02-2012 04:53:02 -1.8 C 83 %
1978 20-02-2012 05:03:01 -2.1 C 84 %
1979 20-02-2012 05:13:01 -1.1 C 85 %
1980 20-02-2012 05:23:01 -1 C 87 %
1981 20-02-2012 05:33:02 -0.9 C 87 %
1982 20-02-2012 05:43:02 -0.9 C 87 %
1983 20-02-2012 05:53:01 -0.7 C 88 %
1984 20-02-2012 06:03:02 -0.7 C 88 %
1985 20-02-2012 06:13:02 -0.6 C 88 %
1986 20-02-2012 06:23:01 -0.8 C 88 %
1987 20-02-2012 06:33:01 -1.1 C 88 %
1988 20-02-2012 06:43:01 -0.4 C 89 %
1989 20-02-2012 06:53:01 -0.5 C 89 %
1990 20-02-2012 07:03:01 -0.4 C 89 %
1991 20-02-2012 07:13:01 -0.2 C 89 %
1992 20-02-2012 07:23:02 -0.3 C 89 %
1993 20-02-2012 07:33:01 -0.4 C 89 %
1994 20-02-2012 07:43:01 -0.5 C 88 %
1995 20-02-2012 07:53:01 -0.3 C 88 %
1996 20-02-2012 08:03:02 -0.1 C 89 %
1997 20-02-2012 08:13:02 0.1 C 89 %
1998 20-02-2012 08:23:01 0.2 C 89 %
1999 20-02-2012 08:33:02 0.3 C 88 %
2000 20-02-2012 08:43:02 0.4 C 87 %
Sensor: Nr:Datum:Temp:Feuchte:
Aussen-T/F 2001 20-02-2012 08:53:01 0.7 C 86 %
2002 20-02-2012 09:03:01 0.9 C 85 %
2003 20-02-2012 09:13:01 1.2 C 83 %
2004 20-02-2012 09:23:02 1 C 80 %
2005 20-02-2012 09:33:01 1.1 C 78 %
2006 20-02-2012 09:43:01 1.4 C 75 %
2007 20-02-2012 09:53:01 1.8 C 74 %
2008 20-02-2012 10:03:02 1.9 C 72 %
2009 20-02-2012 10:13:02 2.1 C 70 %
2010 20-02-2012 10:23:01 2.1 C 69 %
2011 20-02-2012 10:33:01 2.3 C 67 %
2012 20-02-2012 10:43:01 2.3 C 67 %
2013 20-02-2012 10:53:02 2.8 C 64 %
2014 20-02-2012 11:03:01 2.4 C 64 %
2015 20-02-2012 11:13:01 2.6 C 66 %
2016 20-02-2012 11:23:02 2.8 C 65 %
2017 20-02-2012 11:33:01 2.7 C 64 %
2018 20-02-2012 11:43:01 3.3 C 63 %
2019 20-02-2012 11:53:01 3.8 C 55 %
2020 20-02-2012 12:03:02 4.1 C 55 %
2021 20-02-2012 12:13:02 4.1 C 51 %
2022 20-02-2012 12:23:01 3.6 C 51 %
2023 20-02-2012 12:33:01 3.9 C 50 %
2024 20-02-2012 12:43:01 4.3 C 46 %
2025 20-02-2012 12:53:02 4.6 C 45 %
Sensor: Nr:Datum:Temp:Feuchte:
Aussen-T/F 2026 20-02-2012 13:03:01 6 C 42 %
2027 20-02-2012 13:13:01 4.8 C 44 %
2028 20-02-2012 13:23:01 4 C 44 %
2029 20-02-2012 13:33:02 4.1 C 45 %
2030 20-02-2012 13:43:02 4.1 C 46 %
2031 20-02-2012 13:53:01 4.6 C 44 %
2032 20-02-2012 14:03:01 4.8 C 43 %
2033 20-02-2012 14:13:01 4.8 C 43 %
2034 20-02-2012 14:23:01 4.8 C 42 %
2035 20-02-2012 14:33:01 4.9 C 45 %
2036 20-02-2012 14:43:01 5.5 C 42 %
2037 20-02-2012 14:53:02 4.7 C 44 %
2038 20-02-2012 15:03:01 4.7 C 44 %
2039 20-02-2012 15:13:01 4.7 C 44 %
2040 20-02-2012 15:23:01 4.7 C 44 %
2041 20-02-2012 15:33:02 5.8 C 40 %
2042 20-02-2012 15:43:02 5.8 C 40 %
2043 20-02-2012 15:53:01 5.4 C 42 %
2044 20-02-2012 16:03:01 4.6 C 44 %
2045 20-02-2012 16:13:01 4.4 C 44 %
2046 20-02-2012 16:23:02 3.8 C 46 %
2047 20-02-2012 16:33:01 7.2 C 44 %
2048 20-02-2012 16:43:01 8.2 C 35 %
2049 20-02-2012 16:53:01 7.5 C 39 %
2050 20-02-2012 17:03:01 7.4 C 41 %
Sensor: Nr:Datum:Temp:Feuchte:
Aussen-T/F 2051 20-02-2012 17:13:01 5.6 C 44 %
2052 20-02-2012 17:23:01 2.5 C 57 %
2053 20-02-2012 17:33:02 1.1 C 63 %
2054 20-02-2012 17:43:02 0.4 C 68 %
2055 20-02-2012 17:53:01 -0.2 C 71 %
2056 20-02-2012 18:03:01 -0.8 C 73 %
2057 20-02-2012 18:13:01 -0.8 C 73 %
2058 20-02-2012 18:23:02 -0.8 C 73 %
2059 20-02-2012 18:33:01 -0.8 C 73 %
2060 20-02-2012 18:43:01 -0.8 C 73 %
2061 20-02-2012 18:53:01 -0.8 C 73 %
2062 20-02-2012 19:03:02 -0.8 C 73 %
2063 20-02-2012 19:13:02 -1.5 C 82 %
2064 20-02-2012 19:23:01 -1.4 C 82 %
2065 20-02-2012 19:33:01 -1.9 C 82 %
2066 20-02-2012 19:43:01 -1.7 C 83 %
2067 20-02-2012 19:53:02 -2.3 C 83 %
2068 20-02-2012 20:03:01 -2.5 C 83 %
2069 20-02-2012 20:13:01 -2.6 C 83 %
2070 20-02-2012 20:23:01 -2.6 C 84 %
2071 20-02-2012 20:33:02 -2.4 C 84 %
2072 20-02-2012 20:43:02 -2.4 C 85 %
2073 20-02-2012 20:53:01 -2.6 C 85 %
2074 20-02-2012 21:03:01 -2.8 C 85 %
2075 20-02-2012 21:13:01 -3.1 C 85 %
Sensor: Nr:Datum:Temp:Feuchte:
Aussen-T/F 2076 20-02-2012 21:23:01 -3 C 86 %
2077 20-02-2012 21:33:01 -2.9 C 86 %
2078 20-02-2012 21:43:01 -3.2 C 86 %
2079 20-02-2012 21:53:02 -3.4 C 86 %
2080 20-02-2012 22:03:01 -3.6 C 86 %
2081 20-02-2012 22:13:01 -3.7 C 86 %
2082 20-02-2012 22:23:01 -3.7 C 86 %
2083 20-02-2012 22:33:01 -3.7 C 86 %
2084 20-02-2012 22:43:02 -3.7 C 86 %
2085 20-02-2012 22:53:01 -4 C 86 %
2086 20-02-2012 23:03:02 -4.2 C 86 %
2087 20-02-2012 23:13:02 -4.1 C 86 %
2088 20-02-2012 23:23:01 -4.2 C 87 %
2089 20-02-2012 23:33:01 -4.3 C 86 %
2090 20-02-2012 23:43:01 -4.1 C 87 %
2091 20-02-2012 23:53:02 -4 C 87 %
2092 21-02-2012 00:03:01 -4.3 C 86 %
2093 21-02-2012 00:13:01 -4.3 C 86 %
2094 21-02-2012 00:23:02 -4.2 C 86 %
2095 21-02-2012 00:33:01 -4.3 C 86 %
2096 21-02-2012 00:43:01 -4.6 C 86 %
2097 21-02-2012 00:53:01 -4.3 C 86 %
2098 21-02-2012 01:03:02 -4.5 C 86 %
2099 21-02-2012 01:13:02 -3.7 C 87 %
2100 21-02-2012 01:23:01 -3.7 C 87 %
Sensor: Nr:Datum:Temp:Feuchte:
Aussen-T/F 2101 21-02-2012 01:33:02 -4.1 C 87 %
2102 21-02-2012 01:43:02 -3.7 C 87 %
2103 21-02-2012 01:53:01 -4.5 C 87 %
2104 21-02-2012 02:03:01 -4.7 C 87 %
2105 21-02-2012 02:13:01 -4.9 C 86 %
2106 21-02-2012 02:23:01 -4.8 C 87 %
2107 21-02-2012 02:33:01 -4.1 C 87 %
2108 21-02-2012 02:43:01 -4.4 C 87 %
2109 21-02-2012 02:53:02 -4.8 C 87 %
2110 21-02-2012 03:03:01 -4.7 C 87 %
2111 21-02-2012 03:13:01 -4.5 C 87 %
2112 21-02-2012 03:23:01 -3.7 C 88 %
2113 21-02-2012 03:33:01 -3.4 C 88 %
2114 21-02-2012 03:43:01 -3.8 C 88 %
2115 21-02-2012 03:53:01 -3.3 C 88 %
2116 21-02-2012 04:03:02 -3.2 C 88 %
2117 21-02-2012 04:13:02 -3.8 C 87 %
2118 21-02-2012 04:23:01 -4 C 87 %
2119 21-02-2012 04:33:02 -4 C 87 %
2120 21-02-2012 04:43:02 -3.6 C 87 %
2121 21-02-2012 04:53:01 -3.5 C 87 %
2122 21-02-2012 05:03:01 -3.6 C 87 %
2123 21-02-2012 05:13:01 -3.3 C 87 %
2124 21-02-2012 05:23:02 -3.6 C 86 %
2125 21-02-2012 05:33:01 -3.8 C 86 %
Sensor: Nr:Datum:Temp:Feuchte:
Aussen-T/F 2126 21-02-2012 05:43:01 -4.2 C 85 %
2127 21-02-2012 05:53:02 -4.3 C 85 %
2128 21-02-2012 06:03:01 -4.6 C 85 %
2129 21-02-2012 06:13:01 -4.4 C 86 %
2130 21-02-2012 06:24:01 -4.7 C 86 %
2131 21-02-2012 06:33:01 -4.6 C 86 %
2132 21-02-2012 06:43:01 -4.6 C 86 %
2133 21-02-2012 06:53:01 -4 C 86 %
2134 21-02-2012 07:03:02 -4.1 C 86 %
2135 21-02-2012 07:13:02 -3.9 C 86 %
2136 21-02-2012 07:23:01 -3.8 C 86 %
2137 21-02-2012 07:33:02 -3.8 C 86 %
2138 21-02-2012 07:43:02 -3.8 C 86 %
2139 21-02-2012 07:53:01 -3.7 C 86 %
2140 21-02-2012 08:04:01 -3.4 C 86 %
2141 21-02-2012 08:13:01 -2.9 C 86 %
2142 21-02-2012 08:23:02 -1.5 C 85 %
2143 21-02-2012 08:33:01 -1.1 C 80 %
2144 21-02-2012 08:43:01 -1.1 C 78 %
2145 21-02-2012 08:53:02 -0.6 C 75 %
2146 21-02-2012 09:03:01 -0.1 C 71 %
2147 21-02-2012 09:13:02 0.2 C 67 %
2148 21-02-2012 09:24:01 0.2 C 67 %
2149 21-02-2012 09:33:02 0.5 C 65 %
2150 21-02-2012 09:43:02 0.7 C 63 %
Sensor: Nr:Datum:Temp:Feuchte:
Aussen-T/F 2151 21-02-2012 09:53:01 1.1 C 60 %
2152 21-02-2012 10:04:01 1.4 C 57 %
2153 21-02-2012 10:14:01 1.5 C 56 %
2154 21-02-2012 10:23:01 1.6 C 57 %
2155 21-02-2012 10:34:01 1.7 C 56 %
2156 21-02-2012 10:44:01 2 C 55 %
2157 21-02-2012 10:53:02 2.5 C 52 %
2158 21-02-2012 11:03:01 2.9 C 51 %
2159 21-02-2012 11:13:01 3.1 C 49 %
2160 21-02-2012 11:24:01 3.3 C 49 %
2161 21-02-2012 11:33:02 3.5 C 48 %
2162 21-02-2012 11:43:02 3.6 C 48 %
2163 21-02-2012 11:53:01 3.9 C 49 %
2164 21-02-2012 12:04:01 4.5 C 46 %
2165 21-02-2012 12:14:01 5.6 C 46 %
2166 21-02-2012 12:23:01 5.2 C 44 %
2167 21-02-2012 12:34:01 5.2 C 45 %
2168 21-02-2012 12:44:01 6.1 C 43 %
2169 21-02-2012 12:53:02 7.2 C 40 %
2170 21-02-2012 13:03:01 7.4 C 39 %
2171 21-02-2012 13:13:01 7.6 C 39 %
2172 21-02-2012 13:24:01 7 C 40 %
2173 21-02-2012 13:33:02 6.4 C 43 %
2174 21-02-2012 13:43:02 5.8 C 47 %
2175 21-02-2012 13:54:01 6.2 C 46 %
Sensor: Nr:Datum:Temp:Feuchte:
Aussen-T/F 2176 21-02-2012 14:04:01 6.7 C 45 %
2177 21-02-2012 14:14:01 7.3 C 45 %
2178 21-02-2012 14:23:02 7.3 C 42 %
2179 21-02-2012 14:34:01 7.7 C 42 %
2180 21-02-2012 14:44:01 8.1 C 40 %
2181 21-02-2012 14:53:02 8 C 41 %
2182 21-02-2012 15:03:01 7.6 C 43 %
2183 21-02-2012 15:13:01 7.3 C 43 %
2184 21-02-2012 15:24:01 7.1 C 45 %
2185 21-02-2012 15:33:02 7.1 C 45 %
2186 21-02-2012 15:43:02 7.2 C 45 %
2187 21-02-2012 15:54:01 7 C 45 %
2188 21-02-2012 16:04:01 6.9 C 46 %
2189 21-02-2012 16:14:01 6.7 C 46 %
2190 21-02-2012 16:23:02 6.6 C 46 %
2191 21-02-2012 16:34:01 6.4 C 48 %
2192 21-02-2012 16:44:01 6.3 C 48 %
2193 21-02-2012 16:54:01 5.9 C 51 %
2194 21-02-2012 17:04:02 6 C 49 %
2195 21-02-2012 17:13:02 5.7 C 51 %
2196 21-02-2012 17:24:01 5.6 C 52 %
2197 21-02-2012 17:33:02 5.1 C 55 %
2198 21-02-2012 17:43:02 5.1 C 53 %
2199 21-02-2012 17:54:02 5 C 54 %
2200 21-02-2012 18:04:01 4.5 C 57 %
Sensor: Nr:Datum:Temp:Feuchte:
Aussen-T/F 2201 21-02-2012 18:14:01 4.2 C 58 %
2202 21-02-2012 18:23:02 4.1 C 59 %
2203 21-02-2012 18:34:01 4.2 C 58 %
2204 21-02-2012 18:44:01 4 C 60 %
2205 21-02-2012 18:54:01 3.8 C 59 %
2206 21-02-2012 19:04:02 3.5 C 60 %
2207 21-02-2012 19:13:02 3.4 C 61 %
2208 21-02-2012 19:24:01 3.9 C 59 %
2209 21-02-2012 19:34:01 3.6 C 59 %
2210 21-02-2012 19:44:01 3.8 C 59 %
2211 21-02-2012 19:54:01 3.6 C 58 %
2212 21-02-2012 20:04:01 3.8 C 58 %
2213 21-02-2012 20:14:01 3.8 C 57 %
2214 21-02-2012 20:24:02 3.4 C 60 %
2215 21-02-2012 20:34:01 4.1 C 56 %
2216 21-02-2012 20:44:01 3.7 C 59 %
2217 21-02-2012 20:54:01 3.2 C 62 %
2218 21-02-2012 21:04:02 3.5 C 60 %
2219 21-02-2012 21:14:02 3.4 C 59 %
2220 21-02-2012 21:24:01 3.3 C 60 %
2221 21-02-2012 21:34:02 3.3 C 59 %
2222 21-02-2012 21:43:02 3 C 62 %
2223 21-02-2012 21:54:01 3.3 C 60 %
2224 21-02-2012 22:04:01 2.8 C 62 %
2225 21-02-2012 22:14:01 2.7 C 62 %
Sensor: Nr:Datum:Temp:Feuchte:
Aussen-T/F 2226 21-02-2012 22:24:02 2.4 C 63 %
2227 21-02-2012 22:34:01 1.8 C 67 %
2228 21-02-2012 22:44:01 1.6 C 69 %
2229 21-02-2012 22:54:02 1.2 C 70 %
2230 21-02-2012 23:04:01 0.5 C 72 %
2231 21-02-2012 23:14:01 0.4 C 74 %
2232 21-02-2012 23:24:01 0 C 76 %
2233 21-02-2012 23:34:02 -0.3 C 77 %
2234 21-02-2012 23:44:02 -0.4 C 79 %
2235 21-02-2012 23:54:01 -0.6 C 80 %
2236 22-02-2012 00:04:02 -0.6 C 81 %
2237 22-02-2012 00:14:02 -0.5 C 82 %
2238 22-02-2012 00:24:01 -0.1 C 83 %
2239 22-02-2012 00:34:01 -0.3 C 83 %
2240 22-02-2012 00:44:01 -0.7 C 83 %
2241 22-02-2012 00:54:02 -0.7 C 83 %
2242 22-02-2012 01:04:01 -0.7 C 83 %
2243 22-02-2012 01:14:01 -0.8 C 84 %
2244 22-02-2012 01:24:01 -1.1 C 84 %
2245 22-02-2012 01:34:01 -0.8 C 84 %
2246 22-02-2012 01:44:01 -0.9 C 84 %
2247 22-02-2012 01:54:01 -1 C 84 %
2248 22-02-2012 02:04:02 -0.8 C 85 %
2249 22-02-2012 02:14:02 -1.2 C 85 %
2250 22-02-2012 02:24:02 -1.1 C 85 %
Sensor: Nr:Datum:Temp:Feuchte:
Aussen-T/F 2251 22-02-2012 02:34:01 -1.1 C 85 %
2252 22-02-2012 02:44:01 -1 C 85 %
2253 22-02-2012 02:54:01 -1 C 85 %
2254 22-02-2012 03:04:01 -1 C 85 %
2255 22-02-2012 03:14:01 -1.3 C 85 %
2256 22-02-2012 03:24:02 -1.2 C 85 %
2257 22-02-2012 03:34:01 -0.8 C 86 %
2258 22-02-2012 03:44:01 -0.8 C 86 %
2259 22-02-2012 03:54:02 -1.3 C 85 %
2260 22-02-2012 04:04:01 -1.7 C 85 %
2261 22-02-2012 04:14:01 -1.4 C 85 %
2262 22-02-2012 04:24:01 -1.2 C 86 %
2263 22-02-2012 04:34:02 -1.7 C 86 %
2264 22-02-2012 04:44:02 -1.7 C 86 %
2265 22-02-2012 04:54:01 -2.3 C 86 %
2266 22-02-2012 05:04:02 -2.1 C 86 %
2267 22-02-2012 05:14:02 -2.5 C 86 %
2268 22-02-2012 05:24:01 -2.4 C 86 %
2269 22-02-2012 05:34:01 -2.3 C 86 %
2270 22-02-2012 05:44:01 -2.7 C 86 %
2271 22-02-2012 05:54:02 -2 C 87 %
2272 22-02-2012 06:04:01 -2.3 C 87 %
2273 22-02-2012 06:14:01 -2.7 C 87 %
2274 22-02-2012 06:24:02 -2.9 C 87 %
2275 22-02-2012 06:34:01 -2.8 C 87 %
Sensor: Nr:Datum:Temp:Feuchte:
Aussen-T/F 2276 22-02-2012 06:44:01 -2.7 C 87 %
2277 22-02-2012 06:54:01 -3 C 87 %
2278 22-02-2012 07:04:01 -3 C 87 %
2279 22-02-2012 07:14:02 -3.1 C 87 %
2280 22-02-2012 07:24:01 -3.3 C 88 %
2281 22-02-2012 07:34:02 -3.3 C 88 %
2282 22-02-2012 07:44:02 -2.8 C 88 %
2283 22-02-2012 07:54:01 -3.1 C 88 %
2284 22-02-2012 08:04:01 -3.2 C 88 %
2285 22-02-2012 08:14:01 -3.1 C 88 %
2286 22-02-2012 08:24:01 -3 C 89 %
2287 22-02-2012 08:34:01 -2.4 C 89 %
2288 22-02-2012 08:44:01 -2.5 C 89 %
2289 22-02-2012 08:54:02 -1.9 C 89 %
2290 22-02-2012 09:04:01 -1.9 C 89 %
2291 22-02-2012 09:14:01 -1.9 C 89 %
2292 22-02-2012 09:24:01 -1.5 C 89 %
2293 22-02-2012 09:34:01 -1.7 C 89 %
2294 22-02-2012 09:44:01 -1.1 C 89 %
2295 22-02-2012 09:54:02 -0.9 C 89 %
2296 22-02-2012 10:04:01 -0.6 C 89 %
2297 22-02-2012 10:14:01 -0.5 C 89 %
2298 22-02-2012 10:24:01 -0.6 C 89 %
2299 22-02-2012 10:34:01 -0.3 C 89 %
2300 22-02-2012 10:44:02 0.5 C 89 %
Sensor: Nr:Datum:Temp:Feuchte:
Aussen-T/F 2301 22-02-2012 10:54:02 0.9 C 88 %
2302 22-02-2012 11:04:01 1.5 C 86 %
2303 22-02-2012 11:14:01 2 C 82 %
2304 22-02-2012 11:24:02 2.2 C 80 %
2305 22-02-2012 11:34:01 3 C 76 %
2306 22-02-2012 11:44:01 3.5 C 73 %
2307 22-02-2012 11:54:01 4.5 C 70 %
2308 22-02-2012 12:04:02 5.8 C 60 %
2309 22-02-2012 12:14:02 5.9 C 60 %
2310 22-02-2012 12:24:01 7.3 C 52 %
2311 22-02-2012 12:34:02 8.7 C 48 %
2312 22-02-2012 12:44:02 9.9 C 43 %
2313 22-02-2012 12:54:01 11 C 37 %
2314 22-02-2012 13:04:01 10.5 C 37 %
2315 22-02-2012 13:14:01 10 C 38 %
2316 22-02-2012 13:24:02 9 C 40 %
2317 22-02-2012 13:34:01 8.9 C 43 %
2318 22-02-2012 13:44:01 7.7 C 48 %
2319 22-02-2012 13:54:01 8.3 C 46 %
2320 22-02-2012 14:04:01 8.5 C 46 %
2321 22-02-2012 14:14:01 8.6 C 45 %
2322 22-02-2012 14:24:01 8.9 C 44 %
2323 22-02-2012 14:34:02 9.7 C 45 %
2324 22-02-2012 14:44:02 10.4 C 39 %
2325 22-02-2012 14:54:01 9.5 C 43 %
Sensor: Nr:Datum:Temp:Feuchte:
Aussen-T/F 2326 22-02-2012 15:04:01 10.2 C 41 %
2327 22-02-2012 15:14:01 9.8 C 42 %
2328 22-02-2012 15:24:02 10.3 C 40 %
2329 22-02-2012 15:34:01 10.2 C 40 %
2330 22-02-2012 15:44:01 10 C 40 %
2331 22-02-2012 15:54:02 10.6 C 40 %
2332 22-02-2012 16:04:01 10.4 C 39 %
2333 22-02-2012 16:14:01 11.1 C 38 %
2334 22-02-2012 16:24:01 10.1 C 41 %
2335 22-02-2012 16:34:02 8 C 48 %
2336 22-02-2012 16:44:02 7 C 54 %
2337 22-02-2012 16:54:01 6.8 C 56 %
2338 22-02-2012 17:04:01 6.6 C 57 %
2339 22-02-2012 17:14:01 6.2 C 59 %
2340 22-02-2012 17:24:02 6.1 C 57 %
2341 22-02-2012 17:34:02 5.5 C 61 %
2342 22-02-2012 17:44:02 5 C 63 %
2343 22-02-2012 17:54:01 4.5 C 66 %
2344 22-02-2012 18:04:02 4.3 C 67 %
2345 22-02-2012 18:14:02 4.1 C 69 %
2346 22-02-2012 18:24:01 3.7 C 71 %
2347 22-02-2012 18:34:03 3.7 C 71 %
2348 22-02-2012 18:44:03 3.5 C 71 %
2349 22-02-2012 18:54:01 3.5 C 72 %
2350 22-02-2012 19:04:02 3.6 C 72 %
Sensor: Nr:Datum:Temp:Feuchte:
Aussen-T/F 2351 22-02-2012 19:14:02 3.3 C 72 %
2352 22-02-2012 19:24:01 2.8 C 74 %
2353 22-02-2012 19:34:01 3.4 C 73 %
2354 22-02-2012 19:44:01 4 C 68 %
2355 22-02-2012 19:54:02 4.1 C 65 %
2356 22-02-2012 20:04:01 3.4 C 67 %
2357 22-02-2012 20:14:01 4.2 C 65 %
2358 22-02-2012 20:24:01 4.7 C 62 %
2359 22-02-2012 20:34:02 4.8 C 60 %
2360 22-02-2012 20:44:02 4.6 C 62 %
2361 22-02-2012 20:54:01 4.8 C 62 %
2362 22-02-2012 21:04:01 4.5 C 62 %
2363 22-02-2012 21:14:01 4.6 C 61 %
2364 22-02-2012 21:24:02 4.5 C 62 %
2365 22-02-2012 21:34:01 4.5 C 62 %
2366 22-02-2012 21:44:01 4.9 C 60 %
2367 22-02-2012 21:54:01 5.8 C 55 %
2368 22-02-2012 22:04:02 5.7 C 55 %
2369 22-02-2012 22:14:02 5.4 C 56 %
2370 22-02-2012 22:24:01 5.7 C 55 %
2371 22-02-2012 22:34:01 5.8 C 55 %
2372 22-02-2012 22:44:01 5.3 C 55 %
2373 22-02-2012 22:54:02 5.1 C 56 %
2374 22-02-2012 23:04:01 5.5 C 55 %
2375 22-02-2012 23:14:01 5.7 C 54 %
Sensor: Nr:Datum:Temp:Feuchte:
Aussen-T/F 2376 22-02-2012 23:24:02 5.9 C 53 %
2377 22-02-2012 23:34:01 5.8 C 52 %
2378 22-02-2012 23:44:01 5.7 C 53 %
2379 22-02-2012 23:54:01 5.3 C 54 %
2380 23-02-2012 00:04:02 5.7 C 55 %
2381 23-02-2012 00:14:02 5.8 C 52 %
2382 23-02-2012 00:24:01 5.7 C 51 %
2383 23-02-2012 00:34:01 5.8 C 51 %
2384 23-02-2012 00:44:01 5.6 C 52 %
2385 23-02-2012 00:54:02 5.3 C 54 %
2386 23-02-2012 01:04:01 5.3 C 53 %
2387 23-02-2012 01:14:01 5.4 C 53 %
2388 23-02-2012 01:24:02 5 C 56 %
2389 23-02-2012 01:34:01 5 C 56 %
2390 23-02-2012 01:44:01 4.8 C 61 %
2391 23-02-2012 01:54:01 4.8 C 61 %
2392 23-02-2012 02:04:02 4.8 C 61 %
2393 23-02-2012 02:14:02 4.9 C 60 %
2394 23-02-2012 02:24:01 5.2 C 56 %
2395 23-02-2012 02:34:02 5.3 C 54 %
2396 23-02-2012 02:44:02 5.2 C 55 %
2397 23-02-2012 02:54:01 5.4 C 54 %
2398 23-02-2012 03:04:01 5.3 C 54 %
2399 23-02-2012 03:14:01 5.5 C 53 %
2400 23-02-2012 03:24:02 5.6 C 53 %
Sensor: Nr:Datum:Temp:Feuchte:
Aussen-T/F 2401 23-02-2012 03:34:01 5.6 C 53 %
2402 23-02-2012 03:44:01 5.6 C 53 %
2403 23-02-2012 03:54:02 5.5 C 53 %
2404 23-02-2012 04:04:01 5.4 C 54 %
2405 23-02-2012 04:14:01 5.2 C 55 %
2406 23-02-2012 04:24:01 5.3 C 55 %
2407 23-02-2012 04:34:02 5.3 C 55 %
2408 23-02-2012 04:44:02 5.3 C 56 %
2409 23-02-2012 04:54:01 5.2 C 57 %
2410 23-02-2012 05:04:02 4.3 C 66 %
2411 23-02-2012 05:14:02 4.6 C 68 %
2412 23-02-2012 05:24:01 4.9 C 66 %
2413 23-02-2012 05:34:01 5 C 64 %
2414 23-02-2012 05:44:01 4.9 C 66 %
2415 23-02-2012 05:54:01 4.9 C 66 %
2416 23-02-2012 06:04:01 4.8 C 67 %
2417 23-02-2012 06:14:01 4.5 C 70 %
2418 23-02-2012 06:24:02 4.4 C 72 %
2419 23-02-2012 06:34:01 4.5 C 72 %
2420 23-02-2012 06:44:01 4.3 C 73 %
2421 23-02-2012 06:54:01 4.3 C 74 %
2422 23-02-2012 07:04:02 4.4 C 73 %
2423 23-02-2012 07:14:02 4.3 C 75 %
2424 23-02-2012 07:24:01 4.3 C 75 %
2425 23-02-2012 07:34:02 4.4 C 73 %
Sensor: Nr:Datum:Temp:Feuchte:
Aussen-T/F 2426 23-02-2012 07:44:02 4.5 C 73 %
2427 23-02-2012 07:54:01 4.4 C 73 %
2428 23-02-2012 08:14:01 4.6 C 73 %
2429 23-02-2012 08:14:02 4.6 C 72 %
2430 23-02-2012 08:24:02 4.7 C 72 %
2431 23-02-2012 08:34:01 4.7 C 72 %
2432 23-02-2012 08:44:01 4.7 C 72 %
2433 23-02-2012 08:54:02 4.8 C 72 %
2434 23-02-2012 09:04:01 4.8 C 72 %
2435 23-02-2012 09:14:02 4.8 C 72 %
2436 23-02-2012 09:24:01 4.9 C 72 %
2437 23-02-2012 09:34:02 4.9 C 72 %
2438 23-02-2012 09:44:02 4.8 C 74 %
2439 23-02-2012 09:54:01 4.7 C 76 %
2440 23-02-2012 10:04:01 4.8 C 76 %
2441 23-02-2012 10:14:01 5 C 74 %
2442 23-02-2012 10:24:02 5.4 C 72 %
2443 23-02-2012 10:34:01 5.5 C 70 %
2444 23-02-2012 10:44:01 5.6 C 70 %
2445 23-02-2012 10:55:01 5.8 C 69 %
2446 23-02-2012 11:04:02 6.2 C 67 %
2447 23-02-2012 11:14:02 6.1 C 66 %
2448 23-02-2012 11:24:01 6.3 C 66 %
2449 23-02-2012 11:35:01 6.8 C 65 %
2450 23-02-2012 11:44:02 6.8 C 64 %
Sensor: Nr:Datum:Temp:Feuchte:
Aussen-T/F 2451 23-02-2012 11:54:02 7 C 63 %
2452 23-02-2012 12:05:01 7.1 C 62 %
2453 23-02-2012 12:14:02 7 C 63 %
2454 23-02-2012 12:24:02 7.1 C 62 %
2455 23-02-2012 12:34:01 7.4 C 62 %
2456 23-02-2012 12:44:01 7.2 C 63 %
2457 23-02-2012 12:55:01 7.3 C 63 %
2458 23-02-2012 13:04:02 7.4 C 63 %
2459 23-02-2012 13:14:02 7.4 C 63 %
2460 23-02-2012 13:24:01 7.7 C 63 %
2461 23-02-2012 13:35:01 7.8 C 63 %
2462 23-02-2012 13:44:02 7.8 C 63 %
2463 23-02-2012 13:54:02 7.8 C 63 %
2464 23-02-2012 14:14:01 7.7 C 63 %
2465 23-02-2012 14:14:55 7.9 C 62 %
2466 23-02-2012 14:24:56 8 C 62 %
2467 23-02-2012 14:34:02 7.4 C 64 %
2468 23-02-2012 14:44:02 7.7 C 64 %
2469 23-02-2012 14:55:01 8 C 62 %
2470 23-02-2012 15:04:01 7.8 C 63 %
2471 23-02-2012 15:14:02 7.9 C 63 %
2472 23-02-2012 15:25:01 8 C 63 %
2473 23-02-2012 15:34:02 7.8 C 64 %
2474 23-02-2012 15:44:02 7.8 C 65 %
2475 23-02-2012 15:55:01 7.7 C 64 %
Sensor: Nr:Datum:Temp:Feuchte:
Aussen-T/F 2476 23-02-2012 16:05:01 7.7 C 65 %
2477 23-02-2012 16:14:02 7.7 C 65 %
2478 23-02-2012 16:24:02 7.7 C 65 %
2479 23-02-2012 16:35:01 7.7 C 65 %
2480 23-02-2012 16:45:01 7.7 C 65 %
2481 23-02-2012 16:55:01 7.1 C 68 %
2482 23-02-2012 17:14:01 7 C 69 %
2483 23-02-2012 17:15:01 7 C 69 %
2484 23-02-2012 17:25:01 7 C 69 %
2485 23-02-2012 17:34:02 6.7 C 72 %
2486 23-02-2012 17:44:02 6.6 C 72 %
2487 23-02-2012 17:55:01 6.5 C 73 %
2488 23-02-2012 18:05:01 6.4 C 73 %
2489 23-02-2012 18:14:02 6.4 C 74 %
2490 23-02-2012 18:24:02 6.5 C 74 %
2491 23-02-2012 18:35:01 6.4 C 74 %
2492 23-02-2012 18:45:01 6.4 C 74 %
2493 23-02-2012 18:55:01 6.4 C 74 %
2494 23-02-2012 19:04:02 6.4 C 74 %
2495 23-02-2012 19:14:02 6.3 C 75 %
2496 23-02-2012 19:25:01 6.3 C 76 %
2497 23-02-2012 19:35:01 6.3 C 76 %
2498 23-02-2012 19:44:02 6.3 C 76 %
2499 23-02-2012 19:54:02 6.2 C 77 %
2500 23-02-2012 20:05:01 6.2 C 77 %
Sensor: Nr:Datum:Temp:Feuchte:
Aussen-T/F 2501 23-02-2012 20:15:01 6.2 C 78 %
2502 23-02-2012 20:25:01 6.2 C 78 %
2503 23-02-2012 20:35:02 6.2 C 78 %
2504 23-02-2012 20:45:01 6.2 C 78 %
2505 23-02-2012 20:55:01 6.3 C 79 %
2506 23-02-2012 21:05:01 6.3 C 79 %
2507 23-02-2012 21:15:02 6.3 C 79 %
2508 23-02-2012 21:25:02 6.3 C 79 %
2509 23-02-2012 21:35:01 6.4 C 79 %
2510 23-02-2012 21:44:02 6.4 C 79 %
2511 23-02-2012 21:54:02 6.4 C 79 %
2512 23-02-2012 22:05:02 6.4 C 79 %
2513 23-02-2012 22:15:01 6.6 C 78 %
2514 23-02-2012 22:25:01 6.6 C 78 %
2515 23-02-2012 22:35:01 6.7 C 78 %
2516 23-02-2012 22:45:01 6.6 C 78 %
2517 23-02-2012 22:55:01 6.7 C 78 %
2518 23-02-2012 23:05:01 6.7 C 78 %
2519 23-02-2012 23:15:02 6.7 C 78 %
2520 23-02-2012 23:25:02 6.7 C 78 %
2521 23-02-2012 23:35:01 6.8 C 78 %
2522 23-02-2012 23:45:01 6.8 C 78 %
2523 23-02-2012 23:55:01 6.9 C 78 %
2524 24-02-2012 00:05:02 6.9 C 78 %
2525 24-02-2012 00:15:01 6.9 C 78 %
Sensor: Nr:Datum:Temp:Feuchte:
Aussen-T/F 2526 24-02-2012 00:25:01 6.9 C 78 %
2527 24-02-2012 00:35:02 7 C 77 %
2528 24-02-2012 00:45:01 7 C 77 %
2529 24-02-2012 00:55:01 7.1 C 77 %
2530 24-02-2012 01:05:01 7.2 C 77 %
2531 24-02-2012 01:15:02 7.2 C 77 %
2532 24-02-2012 01:25:03 7.2 C 76 %
2533 24-02-2012 01:35:01 7.2 C 77 %
2534 24-02-2012 01:45:02 7.3 C 77 %
2535 24-02-2012 01:55:02 7.3 C 77 %
2536 24-02-2012 02:05:01 7.3 C 77 %
2537 24-02-2012 02:15:01 7.3 C 77 %
2538 24-02-2012 02:25:01 7.3 C 77 %
2539 24-02-2012 02:35:01 7.2 C 77 %
2540 24-02-2012 02:45:01 7.1 C 77 %
2541 24-02-2012 02:55:01 7.3 C 77 %
2542 24-02-2012 03:05:02 7.3 C 77 %
2543 24-02-2012 03:15:01 7.3 C 77 %
2544 24-02-2012 03:25:01 7.3 C 77 %
2545 24-02-2012 03:35:02 7.3 C 77 %
2546 24-02-2012 03:45:01 7.3 C 77 %
2547 24-02-2012 03:55:01 7.3 C 77 %
2548 24-02-2012 04:05:01 7.3 C 77 %
2549 24-02-2012 04:15:02 7.3 C 77 %
2550 24-02-2012 04:25:02 7.3 C 77 %
Sensor: Nr:Datum:Temp:Feuchte:
Aussen-T/F 2551 24-02-2012 04:35:01 7.3 C 78 %
2552 24-02-2012 04:45:02 7.3 C 78 %
2553 24-02-2012 04:55:02 7.4 C 78 %
2554 24-02-2012 05:05:01 7.4 C 78 %
2555 24-02-2012 05:15:01 7.4 C 78 %
2556 24-02-2012 05:25:01 7.5 C 78 %
2557 24-02-2012 05:35:01 7.5 C 78 %
2558 24-02-2012 05:45:01 7.4 C 78 %
2559 24-02-2012 05:55:01 7.3 C 78 %
2560 24-02-2012 06:05:02 7.3 C 78 %
2561 24-02-2012 06:15:01 7.4 C 79 %
2562 24-02-2012 06:25:01 7.4 C 79 %
2563 24-02-2012 06:35:01 7.4 C 79 %
2564 24-02-2012 06:45:01 7.4 C 79 %
2565 24-02-2012 06:55:01 7.4 C 79 %
2566 24-02-2012 07:05:01 7.6 C 79 %
2567 24-02-2012 07:15:02 7.5 C 79 %
2568 24-02-2012 07:25:02 7.5 C 79 %
2569 24-02-2012 07:35:01 7.6 C 79 %
2570 24-02-2012 07:45:02 7.8 C 79 %
2571 24-02-2012 07:55:02 7.8 C 78 %
2572 24-02-2012 08:05:01 7.9 C 78 %
2573 24-02-2012 08:15:01 8 C 77 %
2574 24-02-2012 08:25:01 8.1 C 76 %
2575 24-02-2012 08:35:02 8.2 C 76 %
Sensor: Nr:Datum:Temp:Feuchte:
Aussen-T/F 2576 24-02-2012 08:45:01 8.2 C 75 %
2577 24-02-2012 08:55:01 8.2 C 75 %
2578 24-02-2012 09:05:01 8.2 C 75 %
2579 24-02-2012 09:15:02 8.4 C 75 %
2580 24-02-2012 09:25:02 8.5 C 74 %
2581 24-02-2012 09:35:01 8.7 C 74 %
2582 24-02-2012 09:45:01 8.9 C 73 %
2583 24-02-2012 09:55:01 9.1 C 72 %
2584 24-02-2012 10:05:02 9.3 C 71 %
2585 24-02-2012 10:15:01 9.3 C 71 %
2586 24-02-2012 10:25:01 9.6 C 70 %
2587 24-02-2012 10:35:01 9.8 C 69 %
2588 24-02-2012 10:45:02 9.7 C 69 %
2589 24-02-2012 10:55:02 9.9 C 69 %
2590 24-02-2012 11:05:01 10.4 C 67 %
2591 24-02-2012 11:15:02 10.3 C 66 %
2592 24-02-2012 11:25:02 10.6 C 66 %
2593 24-02-2012 11:35:01 11.2 C 64 %
2594 24-02-2012 11:45:01 11.2 C 64 %
2595 24-02-2012 11:55:01 11.6 C 64 %
2596 24-02-2012 12:05:02 11.5 C 63 %
2597 24-02-2012 12:15:01 11.7 C 63 %
2598 24-02-2012 12:25:01 11.4 C 63 %
2599 24-02-2012 12:35:02 11.7 C 63 %
2600 24-02-2012 12:45:01 11.4 C 64 %
Sensor: Nr:Datum:Temp:Feuchte:
Aussen-T/F 2601 24-02-2012 12:55:01 11.4 C 64 %
2602 24-02-2012 13:05:01 11.5 C 63 %
2603 24-02-2012 13:15:02 11.3 C 64 %
2604 24-02-2012 13:25:02 11.4 C 64 %
2605 24-02-2012 13:35:01 11.8 C 63 %
2606 24-02-2012 13:45:02 11.6 C 64 %
2607 24-02-2012 13:55:02 11.4 C 64 %
2608 24-02-2012 14:05:01 11.2 C 65 %
2609 24-02-2012 14:15:01 11.5 C 65 %
2610 24-02-2012 14:25:01 11.4 C 64 %
2611 24-02-2012 14:35:02 11.2 C 65 %
2612 24-02-2012 14:45:01 10.7 C 67 %
2613 24-02-2012 14:55:01 11.1 C 67 %
2614 24-02-2012 15:05:01 11.5 C 65 %
2615 24-02-2012 15:15:02 12.5 C 61 %
2616 24-02-2012 15:25:02 12.1 C 61 %
2617 24-02-2012 15:35:01 11.8 C 63 %
2618 24-02-2012 15:45:02 11.4 C 65 %
2619 24-02-2012 15:55:02 11.3 C 66 %
2620 24-02-2012 16:05:01 11.1 C 66 %
2621 24-02-2012 16:15:01 11.1 C 67 %
2622 24-02-2012 16:25:01 11 C 68 %
2623 24-02-2012 16:35:02 11 C 68 %
2624 24-02-2012 16:45:01 10.9 C 69 %
2625 24-02-2012 16:55:01 10.8 C 70 %
Sensor: Nr:Datum:Temp:Feuchte:
Aussen-T/F 2626 24-02-2012 17:05:01 10.8 C 70 %
2627 24-02-2012 17:15:02 10.7 C 70 %
2628 24-02-2012 17:25:02 10.6 C 71 %
2629 24-02-2012 17:35:01 10.7 C 72 %
2630 24-02-2012 17:45:01 10.5 C 72 %
2631 24-02-2012 17:55:01 10.4 C 73 %
2632 24-02-2012 18:05:02 10.3 C 73 %
2633 24-02-2012 18:15:01 10.2 C 74 %
2634 24-02-2012 18:25:01 10.2 C 74 %
2635 24-02-2012 18:35:01 10.2 C 74 %
2636 24-02-2012 18:45:01 10.1 C 74 %
2637 24-02-2012 18:55:02 10 C 75 %
2638 24-02-2012 19:05:01 10.1 C 75 %
2639 24-02-2012 19:15:02 10 C 75 %
2640 24-02-2012 19:25:02 10.1 C 75 %
2641 24-02-2012 19:35:01 10.1 C 75 %
2642 24-02-2012 19:45:01 10 C 75 %
2643 24-02-2012 19:55:01 10 C 75 %
2644 24-02-2012 20:05:02 10 C 75 %
2645 24-02-2012 20:15:01 9.9 C 76 %
2646 24-02-2012 20:25:01 10 C 75 %
2647 24-02-2012 20:35:01 9.8 C 75 %
2648 24-02-2012 20:45:02 10 C 75 %
2649 24-02-2012 20:55:02 9.7 C 75 %
2650 24-02-2012 21:05:01 10.3 C 73 %
Sensor: Nr:Datum:Temp:Feuchte:
Aussen-T/F 2651 24-02-2012 21:15:01 10 C 71 %
2652 24-02-2012 21:25:01 10 C 72 %
2653 24-02-2012 21:35:02 9.7 C 73 %
2654 24-02-2012 21:45:02 9.7 C 74 %
2655 24-02-2012 21:55:02 9.7 C 74 %
2656 24-02-2012 22:05:02 9.6 C 74 %
2657 24-02-2012 22:15:01 9.5 C 74 %
2658 24-02-2012 22:25:01 9.9 C 74 %
2659 24-02-2012 22:35:01 10.4 C 72 %
2660 24-02-2012 22:45:01 10.4 C 70 %
2661 24-02-2012 22:55:01 10.5 C 70 %
2662 24-02-2012 23:05:01 10.3 C 70 %
2663 24-02-2012 23:15:02 10.2 C 70 %
2664 24-02-2012 23:25:02 10.5 C 70 %
2665 24-02-2012 23:35:01 10.4 C 70 %
2666 24-02-2012 23:45:01 10.1 C 71 %
2667 24-02-2012 23:55:01 9.8 C 75 %
2668 25-02-2012 00:05:01 9.6 C 77 %
2669 25-02-2012 00:15:02 9.2 C 78 %
2670 25-02-2012 00:25:02 9.1 C 80 %
2671 25-02-2012 00:35:01 9 C 82 %
2672 25-02-2012 00:45:01 8.9 C 84 %
2673 25-02-2012 00:55:01 8.9 C 85 %
2674 25-02-2012 01:05:02 8.8 C 86 %
2675 25-02-2012 01:15:01 8.8 C 86 %
Sensor: Nr:Datum:Temp:Feuchte:
Aussen-T/F 2676 25-02-2012 01:25:01 8.7 C 86 %
2677 25-02-2012 01:35:01 8.6 C 86 %
2678 25-02-2012 01:45:01 8.5 C 87 %
2679 25-02-2012 01:55:02 8.3 C 87 %
2680 25-02-2012 02:05:01 8.2 C 87 %
2681 25-02-2012 02:15:02 8.6 C 87 %
2682 25-02-2012 02:25:02 8.7 C 88 %
2683 25-02-2012 02:35:01 8.6 C 88 %
2684 25-02-2012 02:46:01 8.7 C 87 %
2685 25-02-2012 02:56:01 8.4 C 87 %
2686 25-02-2012 03:05:02 8.4 C 87 %
2687 25-02-2012 03:15:01 8.3 C 87 %
2688 25-02-2012 03:25:01 8.2 C 87 %
2689 25-02-2012 03:35:02 8.3 C 87 %
2690 25-02-2012 03:45:01 8.2 C 86 %
2691 25-02-2012 03:55:01 8.2 C 86 %
2692 25-02-2012 04:06:01 8.2 C 86 %
2693 25-02-2012 04:15:01 8 C 85 %
2694 25-02-2012 04:25:02 7.9 C 86 %
2695 25-02-2012 04:36:01 7.7 C 86 %
2696 25-02-2012 04:45:02 7.5 C 86 %
2697 25-02-2012 04:55:02 7.6 C 86 %
2698 25-02-2012 05:05:01 7.5 C 86 %
2699 25-02-2012 05:15:02 7.6 C 85 %
2700 25-02-2012 05:25:02 7.6 C 85 %
Sensor: Nr:Datum:Temp:Feuchte:
Aussen-T/F 2701 25-02-2012 05:35:01 7.4 C 85 %
2702 25-02-2012 05:46:01 7.2 C 85 %
2703 25-02-2012 05:56:01 7.2 C 85 %
2704 25-02-2012 06:05:02 7.3 C 85 %
2705 25-02-2012 06:16:01 7.3 C 84 %
2706 25-02-2012 06:25:01 7.1 C 84 %
2707 25-02-2012 06:35:02 7 C 83 %
2708 25-02-2012 06:45:01 6.8 C 84 %
2709 25-02-2012 06:55:01 6.6 C 84 %
2710 25-02-2012 07:06:01 6.4 C 85 %
2711 25-02-2012 07:15:01 6 C 85 %
2712 25-02-2012 07:25:02 6.2 C 87 %
2713 25-02-2012 07:36:01 6.4 C 87 %
2714 25-02-2012 07:45:02 6.4 C 87 %
2715 25-02-2012 07:55:02 6.5 C 87 %
2716 25-02-2012 08:06:01 6.4 C 87 %
2717 25-02-2012 08:15:02 6.5 C 87 %
2718 25-02-2012 08:25:02 6.7 C 87 %
2719 25-02-2012 08:35:01 6.8 C 87 %
2720 25-02-2012 08:46:01 7.1 C 87 %
2721 25-02-2012 08:56:01 7.1 C 86 %
2722 25-02-2012 09:05:02 6.8 C 86 %
2723 25-02-2012 09:16:01 7 C 85 %
2724 25-02-2012 09:26:01 6.9 C 86 %
2725 25-02-2012 09:35:02 7 C 85 %
Sensor: Nr:Datum:Temp:Feuchte:
Aussen-T/F 2726 25-02-2012 09:46:01 8.1 C 85 %
2727 25-02-2012 09:55:01 8.5 C 83 %
2728 25-02-2012 10:06:01 8.6 C 80 %
2729 25-02-2012 10:15:02 9 C 78 %
2730 25-02-2012 10:25:02 9.4 C 76 %
2731 25-02-2012 10:36:01 9.8 C 75 %
2732 25-02-2012 10:46:01 9.9 C 73 %
2733 25-02-2012 10:56:01 10.3 C 70 %
2734 25-02-2012 11:06:01 10.2 C 69 %
2735 25-02-2012 11:16:01 10.6 C 68 %
2736 25-02-2012 11:26:01 11.5 C 64 %
2737 25-02-2012 11:36:01 11 C 65 %
2738 25-02-2012 11:45:02 11.4 C 58 %
2739 25-02-2012 11:55:02 11.8 C 52 %
2740 25-02-2012 12:06:01 12 C 47 %
2741 25-02-2012 12:15:02 11.9 C 49 %
2742 25-02-2012 12:25:02 11.8 C 47 %
2743 25-02-2012 12:36:01 11.6 C 48 %
2744 25-02-2012 12:46:01 12.1 C 47 %
2745 25-02-2012 12:56:01 14.7 C 41 %
2746 25-02-2012 13:05:02 15.9 C 38 %
2747 25-02-2012 13:16:02 14.4 C 41 %
2748 25-02-2012 13:26:02 13.4 C 46 %
2749 25-02-2012 13:36:01 11.9 C 49 %
2750 25-02-2012 13:46:01 12 C 50 %
Sensor: Nr:Datum:Temp:Feuchte:
Aussen-T/F 2751 25-02-2012 13:56:01 12.3 C 46 %
2752 25-02-2012 14:06:02 12.4 C 46 %
2753 25-02-2012 14:16:01 12.9 C 45 %
2754 25-02-2012 14:26:01 12.4 C 47 %
2755 25-02-2012 14:36:01 11.7 C 48 %
2756 25-02-2012 14:46:02 12.4 C 46 %
2757 25-02-2012 14:55:02 11.8 C 47 %
2758 25-02-2012 15:06:02 11.7 C 46 %
2759 25-02-2012 15:16:01 11.7 C 47 %
2760 25-02-2012 15:26:01 12 C 45 %
2761 25-02-2012 15:36:01 11.5 C 46 %
2762 25-02-2012 15:46:01 11.2 C 46 %
2763 25-02-2012 15:56:01 11.1 C 46 %
2764 25-02-2012 16:06:01 11.6 C 46 %
2765 25-02-2012 16:16:01 11.1 C 48 %
2766 25-02-2012 16:26:01 11.7 C 46 %
2767 25-02-2012 16:36:02 11.6 C 46 %
2768 25-02-2012 16:46:01 11.5 C 47 %
2769 25-02-2012 16:56:01 11.4 C 48 %
2770 25-02-2012 17:06:01 10.7 C 50 %
2771 25-02-2012 17:16:02 10.6 C 51 %
2772 25-02-2012 17:26:02 9.6 C 52 %
2773 25-02-2012 17:36:02 8.9 C 55 %
2774 25-02-2012 17:46:01 8.1 C 57 %
2775 25-02-2012 17:56:01 8 C 57 %
Sensor: Nr:Datum:Temp:Feuchte:
Aussen-T/F 2776 25-02-2012 18:06:02 7.7 C 57 %
2777 25-02-2012 18:16:02 7.3 C 56 %
2778 25-02-2012 18:26:02 6.9 C 57 %
2779 25-02-2012 18:36:01 6.7 C 59 %
2780 25-02-2012 18:46:01 6.7 C 58 %
2781 25-02-2012 18:56:01 6.2 C 61 %
2782 25-02-2012 19:06:01 5.8 C 62 %
2783 25-02-2012 19:16:01 5.6 C 64 %
2784 25-02-2012 19:26:01 6.2 C 60 %
2785 25-02-2012 19:36:01 6.1 C 59 %
2786 25-02-2012 19:46:01 6.2 C 59 %
2787 25-02-2012 19:56:01 5.9 C 61 %
2788 25-02-2012 20:06:01 6.1 C 60 %
2789 25-02-2012 20:16:01 5.9 C 62 %
2790 25-02-2012 20:26:01 6 C 61 %
2791 25-02-2012 20:36:02 6.4 C 60 %
2792 25-02-2012 20:46:02 6.7 C 57 %
2793 25-02-2012 20:56:02 6.6 C 56 %
2794 25-02-2012 21:06:01 6.2 C 58 %
2795 25-02-2012 21:16:01 5.8 C 59 %
2796 25-02-2012 21:26:01 5.8 C 61 %
2797 25-02-2012 21:36:02 6 C 61 %
2798 25-02-2012 21:46:02 6.6 C 59 %
2799 25-02-2012 21:56:02 6.4 C 59 %
2800 25-02-2012 22:06:01 6.4 C 59 %
Sensor: Nr:Datum:Temp:Feuchte:
Aussen-T/F 2801 25-02-2012 22:16:02 6.3 C 59 %
2802 25-02-2012 22:26:02 6.3 C 60 %
2803 25-02-2012 22:36:01 6.3 C 59 %
2804 25-02-2012 22:46:01 6.2 C 59 %
2805 25-02-2012 22:56:01 6.1 C 60 %
2806 25-02-2012 23:06:02 6 C 60 %
2807 25-02-2012 23:16:01 6.2 C 60 %
2808 25-02-2012 23:26:01 6 C 60 %
2809 25-02-2012 23:36:01 6 C 61 %
2810 25-02-2012 23:46:02 5.9 C 63 %
2811 25-02-2012 23:56:02 5.9 C 63 %
2812 26-02-2012 00:06:01 5.8 C 63 %
2813 26-02-2012 00:16:01 5.7 C 64 %
2814 26-02-2012 00:26:01 5.6 C 64 %
2815 26-02-2012 00:36:01 5.6 C 64 %
2816 26-02-2012 00:46:02 5.7 C 64 %
2817 26-02-2012 00:56:02 5.6 C 64 %
2818 26-02-2012 01:06:01 5.4 C 64 %
2819 26-02-2012 01:16:02 5.3 C 64 %
2820 26-02-2012 01:26:02 5.4 C 64 %
2821 26-02-2012 01:36:02 5.3 C 65 %
2822 26-02-2012 01:46:01 5.2 C 66 %
2823 26-02-2012 01:56:01 5.2 C 66 %
2824 26-02-2012 02:06:02 5.1 C 66 %
2825 26-02-2012 02:16:01 5.1 C 66 %
Sensor: Nr:Datum:Temp:Feuchte:
Aussen-T/F 2826 26-02-2012 02:26:01 5 C 67 %
2827 26-02-2012 02:36:01 5 C 67 %
2828 26-02-2012 02:46:02 4.8 C 69 %
2829 26-02-2012 02:56:02 4.8 C 69 %
2830 26-02-2012 03:06:01 4.7 C 70 %
2831 26-02-2012 03:16:02 4.6 C 71 %
2832 26-02-2012 03:26:02 4.5 C 72 %
2833 26-02-2012 03:36:01 4.4 C 73 %
2834 26-02-2012 03:46:01 4.5 C 73 %
2835 26-02-2012 03:56:01 4.5 C 72 %
2836 26-02-2012 04:06:02 4.4 C 73 %
2837 26-02-2012 04:16:01 3.9 C 76 %
2838 26-02-2012 04:26:01 4 C 76 %
2839 26-02-2012 04:36:01 4.1 C 77 %
2840 26-02-2012 04:46:01 4.3 C 76 %
2841 26-02-2012 04:56:01 4.3 C 76 %
2842 26-02-2012 05:06:01 3.9 C 77 %
2843 26-02-2012 05:16:02 4.1 C 78 %
2844 26-02-2012 05:26:02 4.2 C 77 %
2845 26-02-2012 05:36:01 4.3 C 76 %
2846 26-02-2012 05:46:01 4 C 76 %
2847 26-02-2012 05:56:01 4 C 78 %
2848 26-02-2012 06:06:01 3.6 C 81 %
2849 26-02-2012 06:16:01 3.8 C 82 %
2850 26-02-2012 06:26:01 3.9 C 82 %
Sensor: Nr:Datum:Temp:Feuchte:
Aussen-T/F 2851 26-02-2012 06:36:02 4 C 81 %
2852 26-02-2012 06:46:01 4 C 81 %
2853 26-02-2012 06:56:01 4.4 C 79 %
2854 26-02-2012 07:06:02 4.4 C 78 %
2855 26-02-2012 07:16:01 4.2 C 78 %
2856 26-02-2012 07:26:01 4.2 C 78 %
2857 26-02-2012 07:36:01 4 C 80 %
2858 26-02-2012 07:46:02 4 C 82 %
2859 26-02-2012 07:56:02 4.2 C 82 %
2860 26-02-2012 08:06:01 4.3 C 81 %
2861 26-02-2012 08:16:02 4.4 C 81 %
2862 26-02-2012 08:26:02 4.5 C 81 %
2863 26-02-2012 08:36:01 4.6 C 81 %
2864 26-02-2012 08:46:01 4.6 C 80 %
2865 26-02-2012 08:56:01 4.6 C 79 %
2866 26-02-2012 09:06:02 4.6 C 79 %
2867 26-02-2012 09:16:01 4.6 C 79 %
2868 26-02-2012 09:26:01 4.7 C 79 %
2869 26-02-2012 09:36:02 4.6 C 80 %
2870 26-02-2012 09:46:01 4.6 C 81 %
2871 26-02-2012 09:56:01 4.6 C 83 %
2872 26-02-2012 10:06:01 4.6 C 83 %
2873 26-02-2012 10:16:02 4.6 C 83 %
2874 26-02-2012 10:26:02 4.7 C 83 %
2875 26-02-2012 10:36:01 4.7 C 83 %
Sensor: Nr:Datum:Temp:Feuchte:
Aussen-T/F 2876 26-02-2012 10:46:02 4.8 C 83 %
2877 26-02-2012 10:56:02 4.8 C 83 %
2878 26-02-2012 11:06:01 5 C 83 %
2879 26-02-2012 11:16:01 4.8 C 84 %
2880 26-02-2012 11:26:01 4.9 C 85 %
2881 26-02-2012 11:36:02 5 C 84 %
2882 26-02-2012 11:46:02 5 C 85 %
2883 26-02-2012 11:56:02 5.1 C 86 %
2884 26-02-2012 12:06:01 5.2 C 86 %
2885 26-02-2012 12:16:01 5.4 C 85 %
2886 26-02-2012 12:26:01 5.5 C 85 %
2887 26-02-2012 12:36:02 5.3 C 85 %
2888 26-02-2012 12:46:01 5.9 C 84 %
2889 26-02-2012 12:56:01 5.9 C 84 %
2890 26-02-2012 13:06:01 5.9 C 84 %
2891 26-02-2012 13:16:01 5.8 C 82 %
2892 26-02-2012 13:26:01 5.8 C 82 %
2893 26-02-2012 13:36:02 5.9 C 82 %
2894 26-02-2012 13:46:01 6.4 C 81 %
2895 26-02-2012 13:56:01 6.3 C 77 %
2896 26-02-2012 14:06:01 6.3 C 77 %
2897 26-02-2012 14:16:02 6.4 C 77 %
2898 26-02-2012 14:26:02 6.7 C 76 %
2899 26-02-2012 14:36:01 6.7 C 74 %
2900 26-02-2012 14:46:01 6.7 C 75 %
Sensor: Nr:Datum:Temp:Feuchte:
Aussen-T/F 2901 26-02-2012 14:56:01 6.7 C 75 %
2902 26-02-2012 15:06:02 6.7 C 75 %
2903 26-02-2012 15:16:01 6.7 C 75 %
2904 26-02-2012 15:26:01 6.7 C 75 %
2905 26-02-2012 15:36:01 6.7 C 75 %
2906 26-02-2012 15:46:02 6.7 C 75 %
2907 26-02-2012 15:56:02 6.7 C 75 %
2908 26-02-2012 16:06:01 6.7 C 75 %
2909 26-02-2012 16:16:01 6.7 C 75 %
2910 26-02-2012 16:26:01 6.7 C 75 %
2911 26-02-2012 16:36:01 6.7 C 75 %
2912 26-02-2012 16:46:02 6.7 C 75 %
2913 26-02-2012 16:56:02 6.7 C 75 %
2914 26-02-2012 17:06:01 6.7 C 75 %
2915 26-02-2012 17:16:01 6.7 C 75 %
2916 26-02-2012 17:26:01 5.5 C 82 %
2917 26-02-2012 17:36:02 5.8 C 81 %
2918 26-02-2012 17:46:01 5.8 C 81 %
2919 26-02-2012 17:56:02 5.8 C 79 %
2920 26-02-2012 18:06:01 5.6 C 79 %
2921 26-02-2012 18:16:01 5.6 C 80 %
2922 26-02-2012 18:26:01 5.2 C 81 %
2923 26-02-2012 18:36:02 5 C 82 %
2924 26-02-2012 18:46:01 5.1 C 83 %
2925 26-02-2012 18:56:01 5.1 C 83 %
Sensor: Nr:Datum:Temp:Feuchte:
Aussen-T/F 2926 26-02-2012 19:06:02 4.8 C 84 %
2927 26-02-2012 19:16:01 4.6 C 85 %
2928 26-02-2012 19:26:01 4.6 C 86 %
2929 26-02-2012 19:36:01 4.7 C 86 %
2930 26-02-2012 19:46:01 4.6 C 87 %
2931 26-02-2012 19:56:01 4.5 C 87 %
2932 26-02-2012 20:06:01 4.6 C 87 %
2933 26-02-2012 20:16:01 4.6 C 87 %
2934 26-02-2012 20:26:01 4.5 C 87 %
2935 26-02-2012 20:36:02 4.8 C 88 %
2936 26-02-2012 20:46:01 4.7 C 87 %
2937 26-02-2012 20:56:01 3.8 C 87 %
2938 26-02-2012 21:06:01 3.6 C 87 %
2939 26-02-2012 21:16:02 3.5 C 88 %
2940 26-02-2012 21:26:02 3.3 C 88 %
2941 26-02-2012 21:36:01 3.5 C 89 %
2942 26-02-2012 21:46:01 4 C 89 %
2943 26-02-2012 21:56:01 4.1 C 89 %
2944 26-02-2012 22:06:01 4.2 C 89 %
2945 26-02-2012 22:16:01 4.2 C 90 %
2946 26-02-2012 22:26:01 4.3 C 90 %
2947 26-02-2012 22:36:02 4.2 C 90 %
2948 26-02-2012 22:46:01 4.1 C 90 %
2949 26-02-2012 22:56:01 4.1 C 90 %
2950 26-02-2012 23:06:01 4.1 C 90 %
Sensor: Nr:Datum:Temp:Feuchte:
Aussen-T/F 2951 26-02-2012 23:16:01 4.1 C 90 %
2952 26-02-2012 23:26:01 3.7 C 90 %
2953 26-02-2012 23:36:01 3.7 C 90 %
2954 26-02-2012 23:46:01 3.7 C 90 %
2955 26-02-2012 23:56:01 3.7 C 90 %
2956 27-02-2012 00:06:02 3.7 C 90 %
2957 27-02-2012 00:16:02 2.9 C 91 %
2958 27-02-2012 00:26:02 2.9 C 91 %
2959 27-02-2012 00:36:01 2.9 C 91 %
2960 27-02-2012 00:46:01 3.6 C 91 %
2961 27-02-2012 00:56:01 3.7 C 91 %
2962 27-02-2012 01:06:02 3.7 C 91 %
2963 27-02-2012 01:16:01 3.7 C 91 %
2964 27-02-2012 01:26:01 3.7 C 91 %
2965 27-02-2012 01:36:01 3.6 C 91 %
2966 27-02-2012 01:46:02 3.5 C 90 %
2967 27-02-2012 01:56:02 3.6 C 90 %
2968 27-02-2012 02:06:01 3.7 C 90 %
2969 27-02-2012 02:16:02 3.8 C 90 %
2970 27-02-2012 02:26:02 3.8 C 90 %
2971 27-02-2012 02:36:02 3.8 C 90 %
2972 27-02-2012 02:46:01 3.8 C 90 %
2973 27-02-2012 02:56:01 3.8 C 89 %
2974 27-02-2012 03:06:02 3.9 C 89 %
2975 27-02-2012 03:16:01 3.9 C 89 %
Sensor: Nr:Datum:Temp:Feuchte:
Aussen-T/F 2976 27-02-2012 03:26:01 3.9 C 89 %
2977 27-02-2012 03:36:01 3.7 C 88 %
2978 27-02-2012 03:46:02 3.7 C 88 %
2979 27-02-2012 03:56:02 3.8 C 88 %
2980 27-02-2012 04:06:01 3.7 C 88 %
2981 27-02-2012 04:16:02 3.7 C 88 %
2982 27-02-2012 04:26:02 3.7 C 88 %
2983 27-02-2012 04:36:01 3.7 C 88 %
2984 27-02-2012 04:47:01 3.7 C 88 %
2985 27-02-2012 04:56:01 3.7 C 88 %
2986 27-02-2012 05:06:02 3.7 C 88 %
2987 27-02-2012 05:16:01 2.8 C 89 %
2988 27-02-2012 05:26:01 2.5 C 89 %
2989 27-02-2012 05:37:01 2.7 C 89 %
2990 27-02-2012 05:46:01 2.5 C 90 %
2991 27-02-2012 05:56:02 1.8 C 90 %
2992 27-02-2012 06:06:01 1.8 C 90 %
2993 27-02-2012 06:16:02 1.8 C 90 %
2994 27-02-2012 06:26:02 1.8 C 90 %
2995 27-02-2012 06:36:01 1.8 C 90 %
2996 27-02-2012 06:47:01 1.8 C 90 %
2997 27-02-2012 06:57:01 2.4 C 91 %
2998 27-02-2012 07:06:01 2.3 C 91 %
2999 27-02-2012 07:17:01 2.4 C 91 %
3000 27-02-2012 07:26:01 2.4 C 91 %
Sensor: Nr:Datum:Temp:Feuchte:
Aussen-T/F 3001 27-02-2012 07:36:02 2.5 C 91 %
3002 27-02-2012 07:46:01 2.7 C 91 %
3003 27-02-2012 07:56:01 2.8 C 90 %
3004 27-02-2012 08:07:01 3 C 89 %
3005 27-02-2012 08:16:02 3.3 C 88 %
3006 27-02-2012 08:26:02 3.2 C 86 %
3007 27-02-2012 08:47:01 3.2 C 84 %
3008 27-02-2012 08:56:02 3.4 C 83 %
3009 27-02-2012 09:07:01 3.5 C 83 %
3010 27-02-2012 09:16:02 3.7 C 82 %
3011 27-02-2012 09:26:02 3.8 C 81 %
3012 27-02-2012 09:36:01 4 C 79 %
3013 27-02-2012 09:46:01 4.1 C 78 %
3014 27-02-2012 09:56:01 4.2 C 78 %
3015 27-02-2012 10:07:01 4.2 C 78 %
3016 27-02-2012 10:16:02 4.6 C 77 %
3017 27-02-2012 10:26:02 4.9 C 76 %
3018 27-02-2012 10:37:01 5.4 C 73 %
3019 27-02-2012 10:46:02 5.9 C 70 %
3020 27-02-2012 10:56:02 6.1 C 66 %
3021 27-02-2012 11:06:01 6.4 C 65 %
3022 27-02-2012 11:17:01 6.5 C 66 %
3023 27-02-2012 11:27:01 6.7 C 64 %
3024 27-02-2012 11:36:02 6.8 C 65 %
3025 27-02-2012 11:47:01 7.1 C 63 %
Sensor: Nr:Datum:Temp:Feuchte:
Aussen-T/F 3026 27-02-2012 11:56:01 7.2 C 57 %
3027 27-02-2012 12:07:01 7.3 C 57 %
3028 27-02-2012 12:16:02 8 C 52 %
3029 27-02-2012 12:26:02 7.7 C 51 %
3030 27-02-2012 12:37:01 8 C 51 %
3031 27-02-2012 12:46:02 8.4 C 50 %
3032 27-02-2012 12:56:02 8.4 C 48 %
3033 27-02-2012 13:07:01 8.8 C 47 %
3034 27-02-2012 13:17:01 11.2 C 42 %
3035 27-02-2012 13:27:01 9.7 C 45 %
3036 27-02-2012 13:36:02 9.5 C 46 %
3037 27-02-2012 13:47:01 9.3 C 44 %
3038 27-02-2012 13:57:01 9.4 C 45 %
3039 27-02-2012 14:07:01 9.1 C 45 %
3040 27-02-2012 14:17:02 9 C 44 %
3041 27-02-2012 14:26:02 8.9 C 45 %
3042 27-02-2012 14:37:01 9.6 C 44 %
3043 27-02-2012 14:47:01 9.7 C 44 %
3044 27-02-2012 14:57:01 9.4 C 43 %
3045 27-02-2012 15:07:01 9.6 C 43 %
3046 27-02-2012 15:17:01 9.3 C 44 %
3047 27-02-2012 15:27:01 9.4 C 45 %
3048 27-02-2012 15:36:02 9.3 C 44 %
3049 27-02-2012 15:47:01 9.8 C 43 %
3050 27-02-2012 15:57:01 9.8 C 43 %
Sensor: Nr:Datum:Temp:Feuchte:
Aussen-T/F 3051 27-02-2012 16:07:01 9.8 C 43 %
3052 27-02-2012 16:17:02 9.7 C 43 %
3053 27-02-2012 16:26:02 9.6 C 44 %
3054 27-02-2012 16:37:01 9.3 C 44 %
3055 27-02-2012 16:47:01 9.3 C 45 %
3056 27-02-2012 16:57:01 9.2 C 46 %
3057 27-02-2012 17:06:02 9 C 47 %
3058 27-02-2012 17:17:01 8.7 C 53 %
3059 27-02-2012 17:27:01 8.6 C 53 %
3060 27-02-2012 17:37:01 8.4 C 55 %
3061 27-02-2012 17:47:02 8.1 C 57 %
3062 27-02-2012 17:56:02 7.6 C 57 %
3063 27-02-2012 18:07:01 7.3 C 58 %
3064 27-02-2012 18:17:01 7.2 C 60 %
3065 27-02-2012 18:27:01 7.1 C 61 %
3066 27-02-2012 18:37:02 7 C 62 %
3067 27-02-2012 18:47:01 6.5 C 64 %
3068 27-02-2012 18:57:01 6.6 C 64 %
3069 27-02-2012 19:07:01 6.6 C 65 %
3070 27-02-2012 19:17:02 6.6 C 65 %
3071 27-02-2012 19:27:02 6.7 C 65 %
3072 27-02-2012 19:37:01 6.8 C 65 %
3073 27-02-2012 19:47:01 6.8 C 63 %
3074 27-02-2012 19:57:01 7 C 61 %
3075 27-02-2012 20:07:01 7.5 C 57 %
Sensor: Nr:Datum:Temp:Feuchte:
Aussen-T/F 3076 27-02-2012 20:17:02 7 C 62 %
3077 27-02-2012 20:27:02 6.9 C 63 %
3078 27-02-2012 20:37:01 6.7 C 66 %
3079 27-02-2012 20:47:01 6.7 C 66 %
3080 27-02-2012 20:57:01 6.8 C 66 %
3081 27-02-2012 21:07:02 6.7 C 67 %
3082 27-02-2012 21:17:01 6.7 C 67 %
3083 27-02-2012 21:27:02 6.7 C 68 %
3084 27-02-2012 21:37:01 6.7 C 68 %
3085 27-02-2012 21:47:02 6.6 C 69 %
3086 27-02-2012 21:57:02 6.7 C 69 %
3087 27-02-2012 22:07:01 6.7 C 69 %
3088 27-02-2012 22:17:02 6.7 C 69 %
3089 27-02-2012 22:27:02 6.7 C 70 %
3090 27-02-2012 22:37:02 6.7 C 70 %
3091 27-02-2012 22:47:01 6.8 C 69 %
3092 27-02-2012 22:57:01 6.8 C 69 %
3093 27-02-2012 23:07:01 7.1 C 66 %
3094 27-02-2012 23:17:02 7.3 C 64 %
3095 27-02-2012 23:27:02 7.1 C 66 %
3096 27-02-2012 23:37:01 7.1 C 66 %
3097 27-02-2012 23:47:02 7.1 C 67 %
3098 27-02-2012 23:57:02 7.2 C 67 %
3099 28-02-2012 00:07:01 7.2 C 68 %
3100 28-02-2012 00:17:01 7.2 C 68 %
Sensor: Nr:Datum:Temp:Feuchte:
Aussen-T/F 3101 28-02-2012 00:27:01 7 C 69 %
3102 28-02-2012 00:37:02 7 C 69 %
3103 28-02-2012 00:47:01 6.9 C 71 %
3104 28-02-2012 00:57:01 7 C 70 %
3105 28-02-2012 01:07:02 7 C 71 %
3106 28-02-2012 01:17:02 6.9 C 73 %
3107 28-02-2012 01:27:02 6.9 C 74 %
3108 28-02-2012 01:37:01 6.9 C 74 %
3109 28-02-2012 01:47:02 6.9 C 74 %
3110 28-02-2012 01:57:02 6.9 C 74 %
3111 28-02-2012 02:07:01 7 C 72 %
3112 28-02-2012 02:17:01 6.8 C 74 %
3113 28-02-2012 02:27:01 6.7 C 75 %
3114 28-02-2012 02:37:02 6.7 C 75 %
3115 28-02-2012 02:47:01 6.7 C 75 %
3116 28-02-2012 02:57:01 6.7 C 75 %
3117 28-02-2012 03:07:02 6.9 C 75 %
3118 28-02-2012 03:17:01 6.9 C 74 %
3119 28-02-2012 03:27:01 6.9 C 74 %
3120 28-02-2012 03:37:02 6.9 C 73 %
3121 28-02-2012 03:47:01 6.7 C 74 %
3122 28-02-2012 03:57:02 6.8 C 75 %
3123 28-02-2012 04:07:01 6.7 C 75 %
3124 28-02-2012 04:17:02 6.6 C 76 %
3125 28-02-2012 04:27:02 6.6 C 76 %
Sensor: Nr:Datum:Temp:Feuchte:
Aussen-T/F 3126 28-02-2012 04:37:01 6.7 C 77 %
3127 28-02-2012 04:47:02 6.6 C 77 %
3128 28-02-2012 04:57:02 6.6 C 77 %
3129 28-02-2012 05:07:01 6.8 C 77 %
3130 28-02-2012 05:17:01 6.9 C 76 %
3131 28-02-2012 05:27:01 6.8 C 76 %
3132 28-02-2012 05:37:01 6.5 C 78 %
3133 28-02-2012 05:47:01 6.4 C 80 %
3134 28-02-2012 05:57:01 6.5 C 80 %
3135 28-02-2012 06:07:02 6.5 C 80 %
3136 28-02-2012 06:17:01 6.8 C 79 %
3137 28-02-2012 06:27:01 6.7 C 78 %
3138 28-02-2012 06:37:01 6.7 C 78 %
3139 28-02-2012 06:47:01 6.8 C 78 %
3140 28-02-2012 06:57:01 6.8 C 78 %
3141 28-02-2012 07:07:01 6.8 C 77 %
3142 28-02-2012 07:17:02 6.7 C 77 %
3143 28-02-2012 07:27:02 6.6 C 77 %
3144 28-02-2012 07:37:01 6.7 C 77 %
3145 28-02-2012 07:47:01 7 C 75 %
3146 28-02-2012 07:57:01 7.1 C 74 %
3147 28-02-2012 08:07:01 7.2 C 73 %
3148 28-02-2012 08:17:01 7.3 C 73 %
3149 28-02-2012 08:27:01 7.4 C 72 %
3150 28-02-2012 08:37:02 7.4 C 72 %
Sensor: Nr:Datum:Temp:Feuchte:
Aussen-T/F 3151 28-02-2012 08:47:01 7.5 C 72 %
3152 28-02-2012 08:57:01 7.5 C 71 %
3153 28-02-2012 09:07:01 7.8 C 71 %
3154 28-02-2012 09:17:01 8.1 C 68 %
3155 28-02-2012 09:27:01 8.4 C 67 %
3156 28-02-2012 09:37:01 8.4 C 67 %
3157 28-02-2012 09:47:02 8.5 C 67 %
3158 28-02-2012 09:57:02 8.4 C 67 %
3159 28-02-2012 10:07:01 8.5 C 67 %
3160 28-02-2012 10:17:01 8.5 C 67 %
3161 28-02-2012 10:27:01 8.6 C 67 %
3162 28-02-2012 10:37:01 8.8 C 67 %
3163 28-02-2012 10:47:01 9 C 66 %
3164 28-02-2012 10:57:01 9.2 C 66 %
3165 28-02-2012 11:07:02 9.5 C 64 %
3166 28-02-2012 11:17:01 9.6 C 62 %
3167 28-02-2012 11:27:02 9.7 C 63 %
3168 28-02-2012 11:37:01 9.8 C 63 %
3169 28-02-2012 11:47:02 10.4 C 61 %
3170 28-02-2012 11:57:02 9.9 C 61 %
3171 28-02-2012 12:07:01 10.7 C 60 %
3172 28-02-2012 12:17:02 10.8 C 59 %
3173 28-02-2012 12:27:02 10.9 C 60 %
3174 28-02-2012 12:37:01 11 C 57 %
3175 28-02-2012 12:47:01 10.7 C 60 %
Sensor: Nr:Datum:Temp:Feuchte:
Aussen-T/F 3176 28-02-2012 12:57:01 10.3 C 61 %
3177 28-02-2012 13:07:02 10.1 C 63 %
3178 28-02-2012 13:17:01 10.2 C 63 %
3179 28-02-2012 13:27:01 10.3 C 63 %
3180 28-02-2012 13:37:01 10.2 C 63 %
3181 28-02-2012 13:47:02 10.1 C 63 %
3182 28-02-2012 13:57:02 10.2 C 64 %
3183 28-02-2012 14:07:01 10.3 C 63 %
3184 28-02-2012 14:17:02 10.2 C 64 %
3185 28-02-2012 14:27:02 10.3 C 64 %
3186 28-02-2012 14:37:01 10.4 C 64 %
3187 28-02-2012 14:47:01 10.8 C 63 %
3188 28-02-2012 14:57:01 11 C 61 %
3189 28-02-2012 15:07:01 10.7 C 63 %
3190 28-02-2012 15:17:01 10.7 C 63 %
3191 28-02-2012 15:27:01 10.6 C 63 %
3192 28-02-2012 15:37:02 10.6 C 64 %
3193 28-02-2012 15:47:01 10.4 C 64 %
3194 28-02-2012 15:57:01 10.2 C 65 %
3195 28-02-2012 16:07:01 10.2 C 66 %
3196 28-02-2012 16:17:02 10 C 67 %
3197 28-02-2012 16:27:02 9.8 C 69 %
3198 28-02-2012 16:37:01 9.8 C 70 %
3199 28-02-2012 16:47:02 9.6 C 70 %
3200 28-02-2012 16:57:02 9.6 C 71 %
Sensor: Nr:Datum:Temp:Feuchte:
Aussen-T/F 3201 28-02-2012 17:07:01 9.5 C 72 %
3202 28-02-2012 17:17:01 9.4 C 73 %
3203 28-02-2012 17:27:01 9.3 C 74 %
3204 28-02-2012 17:37:02 9.4 C 75 %
3205 28-02-2012 17:47:01 9.2 C 74 %
3206 28-02-2012 17:57:01 9.2 C 74 %
3207 28-02-2012 18:07:01 9.2 C 74 %
3208 28-02-2012 18:17:02 9.2 C 74 %
3209 28-02-2012 18:27:02 9.3 C 74 %
3210 28-02-2012 18:37:01 9.2 C 75 %
3211 28-02-2012 18:47:01 9.4 C 74 %
3212 28-02-2012 18:57:01 9.4 C 74 %
3213 28-02-2012 19:07:02 9.6 C 74 %
3214 28-02-2012 19:17:01 9.5 C 73 %
3215 28-02-2012 19:27:01 9.7 C 73 %
3216 28-02-2012 19:37:02 9.6 C 73 %
3217 28-02-2012 19:47:01 9.5 C 73 %
3218 28-02-2012 19:57:01 9.6 C 74 %
3219 28-02-2012 20:07:01 9.6 C 74 %
3220 28-02-2012 20:17:02 9.3 C 74 %
3221 28-02-2012 20:27:02 9.3 C 76 %
3222 28-02-2012 20:37:01 9.2 C 76 %
3223 28-02-2012 20:47:01 9.3 C 77 %
3224 28-02-2012 20:57:01 9.3 C 77 %
3225 28-02-2012 21:07:02 9.2 C 77 %
Sensor: Nr:Datum:Temp:Feuchte:
Aussen-T/F 3226 28-02-2012 21:17:01 9.2 C 78 %
3227 28-02-2012 21:27:01 9.2 C 79 %
3228 28-02-2012 21:37:01 9.1 C 79 %
3229 28-02-2012 21:47:02 9.3 C 79 %
3230 28-02-2012 21:57:02 9.2 C 79 %
3231 28-02-2012 22:07:01 9.3 C 78 %
3232 28-02-2012 22:17:02 9.2 C 78 %
3233 28-02-2012 22:27:02 9.2 C 77 %
3234 28-02-2012 22:37:01 9.3 C 77 %
3235 28-02-2012 22:47:01 9.3 C 77 %
3236 28-02-2012 22:57:01 9.4 C 76 %
3237 28-02-2012 23:07:02 9.3 C 76 %
3238 28-02-2012 23:17:01 9.3 C 76 %
3239 28-02-2012 23:27:01 9.4 C 76 %
3240 28-02-2012 23:37:01 9.3 C 76 %
3241 28-02-2012 23:47:02 9.3 C 76 %
3242 28-02-2012 23:57:02 9.2 C 76 %
3243 29-02-2012 00:07:01 9 C 77 %
3244 29-02-2012 00:17:02 8.9 C 79 %
3245 29-02-2012 00:27:02 8.8 C 79 %
3246 29-02-2012 00:37:01 8.7 C 81 %
3247 29-02-2012 00:47:01 8.7 C 81 %
3248 29-02-2012 00:57:01 8.7 C 82 %
3249 29-02-2012 01:07:02 8.7 C 82 %
3250 29-02-2012 01:17:01 8.6 C 83 %
Sensor: Nr:Datum:Temp:Feuchte:
Aussen-T/F 3251 29-02-2012 01:27:01 8.4 C 83 %
3252 29-02-2012 01:37:02 8.4 C 84 %
3253 29-02-2012 01:47:01 8.3 C 84 %
3254 29-02-2012 01:57:01 8.3 C 85 %
3255 29-02-2012 02:07:01 8.4 C 86 %
3256 29-02-2012 02:17:01 8.2 C 86 %
3257 29-02-2012 02:27:01 8.4 C 86 %
3258 29-02-2012 02:37:01 8.3 C 87 %
3259 29-02-2012 02:47:02 8.4 C 87 %
3260 29-02-2012 02:57:02 8.2 C 87 %
3261 29-02-2012 03:07:01 8.2 C 87 %
3262 29-02-2012 03:17:02 8.2 C 87 %
3263 29-02-2012 03:27:02 8.2 C 87 %
3264 29-02-2012 03:37:01 8.2 C 88 %
3265 29-02-2012 03:47:01 8.2 C 88 %
3266 29-02-2012 03:57:01 8.2 C 88 %
3267 29-02-2012 04:07:02 8.2 C 88 %
3268 29-02-2012 04:17:01 8.3 C 88 %
3269 29-02-2012 04:27:01 8.3 C 87 %
3270 29-02-2012 04:37:02 8.3 C 87 %
3271 29-02-2012 04:47:01 8.2 C 87 %
3272 29-02-2012 04:57:02 8.3 C 87 %
3273 29-02-2012 05:07:01 8.3 C 87 %
3274 29-02-2012 05:17:02 8.3 C 87 %
3275 29-02-2012 05:27:02 8.2 C 87 %
Sensor: Nr:Datum:Temp:Feuchte:
Aussen-T/F 3276 29-02-2012 05:37:01 8.2 C 87 %
3277 29-02-2012 05:47:07 8.2 C 87 %
3278 29-02-2012 05:57:08 8.2 C 87 %
3279 29-02-2012 06:07:02 8.2 C 87 %
3280 29-02-2012 06:17:01 8.2 C 87 %
3281 29-02-2012 06:27:01 8.2 C 87 %
3282 29-02-2012 06:37:01 8.2 C 87 %
3283 29-02-2012 06:47:01 8.2 C 87 %
3284 29-02-2012 06:57:01 8.2 C 87 %
3285 29-02-2012 07:07:01 8.1 C 88 %
3286 29-02-2012 07:17:01 8.2 C 88 %
3287 29-02-2012 07:27:01 8.2 C 88 %
3288 29-02-2012 07:37:02 8.2 C 88 %
3289 29-02-2012 07:47:01 8.2 C 88 %
3290 29-02-2012 07:57:01 8.3 C 89 %
3291 29-02-2012 08:07:01 8.3 C 89 %
3292 29-02-2012 08:17:02 8.4 C 89 %
3293 29-02-2012 08:27:02 8.4 C 89 %
3294 29-02-2012 08:37:02 8.4 C 89 %
3295 29-02-2012 08:47:01 8.4 C 89 %
3296 29-02-2012 08:57:01 8.5 C 89 %
3297 29-02-2012 09:08:01 8.5 C 89 %
3298 29-02-2012 09:17:02 8.6 C 89 %
3299 29-02-2012 09:27:02 8.6 C 89 %
3300 29-02-2012 09:37:01 8.9 C 89 %
Sensor: Nr:Datum:Temp:Feuchte:
Aussen-T/F 3301 29-02-2012 09:48:01 9 C 88 %
3302 29-02-2012 09:58:01 9.1 C 87 %
3303 29-02-2012 10:07:02 9.1 C 87 %
3304 29-02-2012 10:17:01 9.3 C 87 %
3305 29-02-2012 10:27:01 9.7 C 86 %
3306 29-02-2012 10:38:01 9.6 C 84 %
3307 29-02-2012 10:47:02 9.5 C 84 %
3308 29-02-2012 10:57:02 9.6 C 83 %
3309 29-02-2012 11:07:01 9.9 C 83 %
3310 29-02-2012 11:18:01 10.5 C 80 %
3311 29-02-2012 11:28:01 10.5 C 79 %
3312 29-02-2012 11:37:02 10.8 C 78 %
3313 29-02-2012 11:47:01 10.8 C 77 %
3314 29-02-2012 11:57:01 11 C 76 %
3315 29-02-2012 12:08:01 11.2 C 74 %
3316 29-02-2012 12:17:02 11.5 C 74 %
3317 29-02-2012 12:27:02 12 C 72 %
3318 29-02-2012 12:37:01 12.1 C 71 %
3319 29-02-2012 12:48:01 11.9 C 70 %
3320 29-02-2012 12:58:01 12.8 C 68 %
3321 29-02-2012 13:07:02 12.8 C 67 %
3322 29-02-2012 13:17:01 12.9 C 67 %
3323 29-02-2012 13:27:01 12.8 C 67 %
3324 29-02-2012 13:38:01 12.9 C 67 %
3325 29-02-2012 13:47:02 13 C 66 %
Sensor: Nr:Datum:Temp:Feuchte:
Aussen-T/F 3326 29-02-2012 13:57:02 12.8 C 67 %
3327 29-02-2012 14:07:01 12.7 C 67 %
3328 29-02-2012 14:18:01 12.7 C 68 %
3329 29-02-2012 14:28:01 12.8 C 68 %
3330 29-02-2012 14:37:02 12.8 C 68 %
3331 29-02-2012 14:47:02 13.1 C 66 %
3332 29-02-2012 14:57:02 13.4 C 65 %
3333 29-02-2012 15:08:01 13 C 66 %
3334 29-02-2012 15:18:01 13.1 C 65 %
3335 29-02-2012 15:28:01 13.1 C 66 %
3336 29-02-2012 15:37:02 13.2 C 66 %
3337 29-02-2012 15:48:01 13.2 C 66 %
3338 29-02-2012 15:58:01 13.4 C 65 %
3339 29-02-2012 16:08:01 13.2 C 65 %
3340 29-02-2012 16:17:02 13.2 C 66 %
3341 29-02-2012 16:27:02 13.4 C 66 %
3342 29-02-2012 16:37:02 13.1 C 67 %
3343 29-02-2012 16:48:01 13.1 C 66 %
3344 29-02-2012 16:58:01 12.9 C 68 %
3345 29-02-2012 17:08:01 12.8 C 68 %
3346 29-02-2012 17:17:02 12.7 C 69 %
3347 29-02-2012 17:27:02 12.5 C 70 %
3348 29-02-2012 17:38:01 12 C 70 %
3349 29-02-2012 17:48:01 11.4 C 72 %
3350 29-02-2012 17:58:01 11 C 75 %
Sensor: Nr:Datum:Temp:Feuchte:
Aussen-T/F 3351 29-02-2012 18:08:01 10 C 77 %
3352 29-02-2012 18:18:02 9.4 C 80 %
3353 29-02-2012 18:28:02 8.9 C 82 %
3354 29-02-2012 18:38:01 8.6 C 83 %
3355 29-02-2012 18:48:01 8.6 C 84 %
3356 29-02-2012 18:58:01 8.2 C 85 %
3357 29-02-2012 19:08:02 8.3 C 85 %
3358 29-02-2012 19:18:01 7.9 C 87 %
3359 29-02-2012 19:28:01 7.9 C 87 %
3360 29-02-2012 19:38:01 7.5 C 87 %
3361 29-02-2012 19:48:01 7.8 C 88 %
3362 29-02-2012 19:58:01 8.2 C 88 %
3363 29-02-2012 20:08:02 8.4 C 89 %
3364 29-02-2012 20:18:01 8.5 C 89 %
3365 29-02-2012 20:28:01 8.5 C 89 %
3366 29-02-2012 20:38:01 8.6 C 89 %
3367 29-02-2012 20:48:02 8.7 C 90 %
3368 29-02-2012 20:58:02 8.6 C 90 %
3369 29-02-2012 21:08:01 8.3 C 89 %
3370 29-02-2012 21:18:01 8.1 C 89 %
3371 29-02-2012 21:28:01 7.9 C 90 %
3372 29-02-2012 21:38:02 7.6 C 90 %
3373 29-02-2012 21:48:01 7.7 C 90 %
3374 29-02-2012 21:58:02 7.8 C 90 %
3375 29-02-2012 22:08:01 8 C 90 %
Sensor: Nr:Datum:Temp:Feuchte:
Aussen-T/F 3376 29-02-2012 22:18:01 8.1 C 90 %
3377 29-02-2012 22:28:01 8.3 C 90 %
3378 29-02-2012 22:38:02 8.3 C 90 %
3379 29-02-2012 22:48:01 8.2 C 90 %
3380 29-02-2012 22:58:01 8.2 C 90 %
3381 29-02-2012 23:08:01 8.3 C 90 %
3382 29-02-2012 23:18:02 8.3 C 90 %
3383 29-02-2012 23:28:02 8.3 C 90 %
3384 29-02-2012 23:38:01 8.3 C 90 %
3385 29-02-2012 23:48:01 8.3 C 90 %
3386 29-02-2012 23:58:01 8.4 C 91 %
3387 01-03-2012 00:08:02 8.4 C 90 %
3388 01-03-2012 00:18:01 8.3 C 90 %
3389 01-03-2012 00:28:01 8.3 C 90 %
3390 01-03-2012 00:38:02 8.2 C 90 %
3391 01-03-2012 00:48:01 8.2 C 90 %
3392 01-03-2012 00:58:02 8 C 90 %
3393 01-03-2012 01:08:01 8.1 C 90 %
3394 01-03-2012 01:18:01 7.9 C 91 %
3395 01-03-2012 01:28:01 7.9 C 91 %
3396 01-03-2012 01:38:02 7.9 C 91 %
3397 01-03-2012 01:48:01 7.9 C 91 %
3398 01-03-2012 01:58:01 7.9 C 91 %
3399 01-03-2012 02:08:01 8 C 90 %
3400 01-03-2012 02:18:02 8 C 90 %
Sensor: Nr:Datum:Temp:Feuchte:
Aussen-T/F 3401 01-03-2012 02:28:02 7.9 C 91 %
3402 01-03-2012 02:38:01 7.9 C 91 %
3403 01-03-2012 02:48:01 7.9 C 91 %
3404 01-03-2012 02:58:01 7.9 C 91 %
3405 01-03-2012 03:08:02 8 C 90 %
3406 01-03-2012 03:18:01 8 C 90 %
3407 01-03-2012 03:28:01 8 C 90 %
3408 01-03-2012 03:38:01 7.9 C 91 %
3409 01-03-2012 03:48:01 7.9 C 91 %
3410 01-03-2012 03:58:02 7.9 C 91 %
3411 01-03-2012 04:08:01 7.9 C 91 %
3412 01-03-2012 04:18:02 8 C 90 %
3413 01-03-2012 04:28:02 7.9 C 91 %
3414 01-03-2012 04:38:01 7.9 C 91 %
3415 01-03-2012 04:48:01 8 C 90 %
3416 01-03-2012 04:58:01 7.9 C 91 %
3417 01-03-2012 05:08:02 7.9 C 91 %
3418 01-03-2012 05:18:01 7.8 C 91 %
3419 01-03-2012 05:28:02 7.9 C 92 %
3420 01-03-2012 05:38:01 7.9 C 91 %
3421 01-03-2012 05:48:02 7.9 C 92 %
3422 01-03-2012 05:58:02 7.9 C 92 %
3423 01-03-2012 06:08:01 7.8 C 92 %
3424 01-03-2012 06:18:01 7.8 C 92 %
3425 01-03-2012 06:28:01 7.8 C 92 %
Sensor: Nr:Datum:Temp:Feuchte:
Aussen-T/F 3426 01-03-2012 06:38:02 7.8 C 92 %
3427 01-03-2012 06:48:01 7.7 C 92 %
3428 01-03-2012 06:58:01 7.7 C 92 %
3429 01-03-2012 07:08:01 7.7 C 92 %
3430 01-03-2012 07:18:02 7.6 C 92 %
3431 01-03-2012 07:28:02 7.6 C 92 %
3432 01-03-2012 07:38:01 7.7 C 92 %
3433 01-03-2012 07:48:01 7.8 C 92 %
3434 01-03-2012 07:58:01 7.9 C 92 %
3435 01-03-2012 08:08:02 7.9 C 92 %
3436 01-03-2012 08:18:01 7.9 C 92 %
3437 01-03-2012 08:28:01 7.8 C 91 %
3438 01-03-2012 08:38:01 7.9 C 91 %
3439 01-03-2012 08:48:02 8 C 90 %
3440 01-03-2012 08:58:02 8.3 C 90 %
3441 01-03-2012 09:08:01 8.1 C 89 %
3442 01-03-2012 09:18:01 8.2 C 88 %
3443 01-03-2012 09:28:01 8.4 C 86 %
3444 01-03-2012 09:38:01 8.2 C 85 %
3445 01-03-2012 09:48:01 8.7 C 84 %
3446 01-03-2012 09:58:02 8.6 C 83 %
3447 01-03-2012 10:08:01 8.7 C 82 %
3448 01-03-2012 10:18:02 8.9 C 82 %
3449 01-03-2012 10:28:02 9 C 80 %
3450 01-03-2012 10:38:01 9.1 C 79 %
Sensor: Nr:Datum:Temp:Feuchte:
Aussen-T/F 3451 01-03-2012 10:48:01 9.1 C 78 %
3452 01-03-2012 10:58:02 9.2 C 78 %
3453 01-03-2012 11:08:02 9.2 C 77 %
3454 01-03-2012 11:18:01 9.4 C 77 %
3455 01-03-2012 11:28:01 9.5 C 77 %
3456 01-03-2012 11:38:01 9.6 C 76 %
3457 01-03-2012 11:48:02 9.7 C 76 %
3458 01-03-2012 11:58:02 10 C 74 %
3459 01-03-2012 12:08:01 10.2 C 73 %
3460 01-03-2012 12:18:01 10 C 73 %
3461 01-03-2012 12:28:01 10 C 74 %
3462 01-03-2012 12:38:02 10.2 C 74 %
3463 01-03-2012 12:48:01 10.8 C 73 %
3464 01-03-2012 12:58:02 10.8 C 71 %
3465 01-03-2012 13:08:01 11.1 C 70 %
3466 01-03-2012 13:18:01 11 C 69 %
3467 01-03-2012 13:28:01 11.3 C 69 %
3468 01-03-2012 13:38:02 11.6 C 67 %
3469 01-03-2012 13:48:01 11.9 C 67 %
3470 01-03-2012 13:58:01 11.7 C 68 %
3471 01-03-2012 14:08:02 11.6 C 68 %
3472 01-03-2012 14:18:01 11.3 C 69 %
3473 01-03-2012 14:28:01 11.3 C 69 %
3474 01-03-2012 14:38:01 11.3 C 69 %
3475 01-03-2012 14:48:01 11.5 C 69 %
Sensor: Nr:Datum:Temp:Feuchte:
Aussen-T/F 3476 01-03-2012 14:58:01 11.7 C 68 %
3477 01-03-2012 15:08:01 11.6 C 68 %
3478 01-03-2012 15:18:02 11.4 C 69 %
3479 01-03-2012 15:28:02 11.7 C 69 %
3480 01-03-2012 15:38:01 12 C 67 %
3481 01-03-2012 15:48:01 11.8 C 67 %
3482 01-03-2012 15:58:01 11.8 C 68 %
3483 01-03-2012 16:08:01 11.9 C 68 %
3484 01-03-2012 16:18:01 11.6 C 68 %
3485 01-03-2012 16:28:01 11.4 C 69 %
3486 01-03-2012 16:38:01 11.2 C 70 %
3487 01-03-2012 16:48:01 11.3 C 71 %
3488 01-03-2012 16:58:01 11.3 C 71 %
3489 01-03-2012 17:08:02 11.1 C 72 %
3490 01-03-2012 17:18:02 11 C 72 %
3491 01-03-2012 17:28:02 10.8 C 74 %
3492 01-03-2012 17:38:02 10.7 C 75 %
3493 01-03-2012 17:48:02 10.4 C 76 %
3494 01-03-2012 17:58:02 10.3 C 77 %
3495 01-03-2012 18:08:01 10.2 C 78 %
3496 01-03-2012 18:18:01 10.2 C 78 %
3497 01-03-2012 18:28:01 10.1 C 78 %
3498 01-03-2012 18:38:02 10.1 C 79 %
3499 01-03-2012 18:48:01 10 C 79 %
3500 01-03-2012 18:58:01 10 C 80 %
Sensor: Nr:Datum:Temp:Feuchte:
Aussen-T/F 3501 01-03-2012 19:08:01 10 C 80 %
3502 01-03-2012 19:18:02 9.8 C 81 %
3503 01-03-2012 19:28:02 9.7 C 81 %
3504 01-03-2012 19:38:02 9.8 C 82 %
3505 01-03-2012 19:48:02 9.8 C 82 %
3506 01-03-2012 19:58:02 9.7 C 82 %
3507 01-03-2012 20:08:03 9.7 C 82 %
3508 01-03-2012 20:18:01 9.7 C 83 %
3509 01-03-2012 20:28:01 9.7 C 83 %
3510 01-03-2012 20:38:02 9.6 C 84 %
3511 01-03-2012 20:48:01 9.5 C 84 %
3512 01-03-2012 20:58:01 9.4 C 84 %
3513 01-03-2012 21:08:02 9.4 C 84 %
3514 01-03-2012 21:18:01 9.3 C 84 %
3515 01-03-2012 21:28:01 9.3 C 84 %
3516 01-03-2012 21:38:02 9.4 C 84 %
3517 01-03-2012 21:48:01 9.4 C 85 %
3518 01-03-2012 21:58:01 9.5 C 85 %
3519 01-03-2012 22:08:01 9.4 C 85 %
3520 01-03-2012 22:18:01 9.4 C 85 %
3521 01-03-2012 22:28:01 9.4 C 85 %
3522 01-03-2012 22:38:02 9.3 C 86 %
3523 01-03-2012 22:48:01 9.2 C 86 %
3524 01-03-2012 22:58:01 9.1 C 86 %
3525 01-03-2012 23:08:01 9 C 86 %
Sensor: Nr:Datum:Temp:Feuchte:
Aussen-T/F 3526 01-03-2012 23:18:01 8.9 C 87 %
3527 01-03-2012 23:28:02 8.7 C 88 %
3528 01-03-2012 23:38:01 8.7 C 88 %
3529 01-03-2012 23:48:02 8.7 C 88 %
3530 01-03-2012 23:58:02 8.6 C 88 %
3531 02-03-2012 00:08:01 8.5 C 88 %
3532 02-03-2012 00:18:02 8.5 C 88 %
3533 02-03-2012 00:28:02 8.4 C 89 %
3534 02-03-2012 00:38:01 8.4 C 89 %
3535 02-03-2012 00:48:01 8.3 C 89 %
3536 02-03-2012 00:58:01 8.3 C 89 %
3537 02-03-2012 01:08:02 8.2 C 89 %
3538 02-03-2012 01:18:01 8.2 C 89 %
3539 02-03-2012 01:28:01 8.1 C 89 %
3540 02-03-2012 01:38:02 8.1 C 90 %
3541 02-03-2012 01:48:01 8 C 90 %
3542 02-03-2012 01:58:01 8 C 90 %
3543 02-03-2012 02:08:01 7.9 C 91 %
3544 02-03-2012 02:18:01 8 C 90 %
3545 02-03-2012 02:28:01 8 C 90 %
3546 02-03-2012 02:38:01 7.9 C 91 %
3547 02-03-2012 02:48:02 7.9 C 91 %
3548 02-03-2012 02:58:02 7.9 C 91 %
3549 02-03-2012 03:08:01 7.9 C 91 %
3550 02-03-2012 03:18:02 7.9 C 91 %
Sensor: Nr:Datum:Temp:Feuchte:
Aussen-T/F 3551 02-03-2012 03:28:02 7.8 C 91 %
3552 02-03-2012 03:38:01 7.8 C 91 %
3553 02-03-2012 03:48:01 7.8 C 91 %
3554 02-03-2012 03:58:01 7.7 C 91 %
3555 02-03-2012 04:08:02 7.7 C 91 %
3556 02-03-2012 04:18:01 7.6 C 91 %
3557 02-03-2012 04:28:01 7.7 C 91 %
3558 02-03-2012 04:38:02 7.6 C 91 %
3559 02-03-2012 04:48:01 7.6 C 92 %
3560 02-03-2012 04:58:01 7.6 C 91 %
3561 02-03-2012 05:08:01 7.5 C 92 %
3562 02-03-2012 05:18:01 7.5 C 92 %
3563 02-03-2012 05:28:01 7.5 C 92 %
3564 02-03-2012 05:38:01 7.5 C 92 %
3565 02-03-2012 05:48:02 7.5 C 92 %
3566 02-03-2012 05:58:02 7.5 C 92 %
3567 02-03-2012 06:08:01 7.4 C 92 %
3568 02-03-2012 06:18:02 7.4 C 91 %
3569 02-03-2012 06:28:02 7.3 C 91 %
3570 02-03-2012 06:38:01 7.3 C 91 %
3571 02-03-2012 06:49:01 7.2 C 91 %
3572 02-03-2012 06:58:01 7.2 C 91 %
3573 02-03-2012 07:08:02 7.2 C 91 %
3574 02-03-2012 07:18:02 7.2 C 91 %
3575 02-03-2012 07:28:02 7.1 C 91 %
Sensor: Nr:Datum:Temp:Feuchte:
Aussen-T/F 3576 02-03-2012 07:38:01 7.1 C 91 %
3577 02-03-2012 07:49:01 7.1 C 91 %
3578 02-03-2012 07:59:01 7.2 C 91 %
3579 02-03-2012 08:08:01 7.3 C 91 %
3580 02-03-2012 08:18:01 7.5 C 91 %
3581 02-03-2012 08:28:01 7.5 C 91 %
3582 02-03-2012 08:38:02 7.4 C 91 %
3583 02-03-2012 08:48:01 7.4 C 91 %
3584 02-03-2012 08:58:01 7.4 C 90 %
3585 02-03-2012 09:09:01 7.6 C 90 %
3586 02-03-2012 09:18:01 7.6 C 90 %
3587 02-03-2012 09:28:01 7.7 C 89 %
3588 02-03-2012 09:39:01 8.1 C 88 %
3589 02-03-2012 09:48:02 8.5 C 87 %
3590 02-03-2012 09:58:02 8.8 C 85 %
3591 02-03-2012 10:08:01 8.8 C 84 %
3592 02-03-2012 10:18:02 8.8 C 82 %
3593 02-03-2012 10:28:02 9.1 C 79 %
3594 02-03-2012 10:38:01 9.1 C 78 %
3595 02-03-2012 10:49:01 9 C 78 %
3596 02-03-2012 10:59:01 9 C 78 %
3597 02-03-2012 11:08:02 9.1 C 78 %
3598 02-03-2012 11:19:01 9.2 C 78 %
3599 02-03-2012 11:28:01 9.6 C 77 %
3600 02-03-2012 11:38:02 9.7 C 75 %
Sensor: Nr:Datum:Temp:Feuchte:
Aussen-T/F 3601 02-03-2012 11:48:01 9.8 C 74 %
3602 02-03-2012 11:58:01 9.8 C 74 %
3603 02-03-2012 12:09:01 10 C 72 %
3604 02-03-2012 12:18:02 10.5 C 70 %
3605 02-03-2012 12:28:02 10.5 C 70 %
3606 02-03-2012 12:38:01 10.4 C 70 %
3607 02-03-2012 12:49:01 10.5 C 70 %
3608 02-03-2012 12:59:01 10.8 C 69 %
3609 02-03-2012 13:08:01 10.8 C 69 %
3610 02-03-2012 13:19:01 10.8 C 68 %
3611 02-03-2012 13:29:01 11.2 C 67 %
3612 02-03-2012 13:38:02 11.2 C 66 %
3613 02-03-2012 13:48:01 11.1 C 66 %
3614 02-03-2012 13:58:01 11.8 C 64 %
3615 02-03-2012 14:09:01 12.2 C 62 %
3616 02-03-2012 14:18:02 12.4 C 61 %
3617 02-03-2012 14:28:02 12.3 C 62 %
3618 02-03-2012 14:39:01 12.4 C 61 %
3619 02-03-2012 14:49:01 12.6 C 60 %
3620 02-03-2012 14:59:01 12.4 C 59 %
3621 02-03-2012 15:08:01 12.3 C 61 %
3622 02-03-2012 15:19:01 12.2 C 59 %
3623 02-03-2012 15:28:01 12.6 C 60 %
3624 02-03-2012 15:38:02 12.3 C 60 %
3625 02-03-2012 15:49:01 11.8 C 63 %
Sensor: Nr:Datum:Temp:Feuchte:
Aussen-T/F 3626 02-03-2012 15:59:01 11.4 C 65 %
3627 02-03-2012 16:09:01 11.1 C 66 %
3628 02-03-2012 16:18:02 11 C 67 %
3629 02-03-2012 16:28:02 11 C 67 %
3630 02-03-2012 16:39:01 10.8 C 68 %
3631 02-03-2012 16:48:02 10.7 C 68 %
3632 02-03-2012 16:58:02 10.4 C 68 %
3633 02-03-2012 17:09:01 10.2 C 69 %
3634 02-03-2012 17:19:01 10.1 C 70 %
3635 02-03-2012 17:29:01 9.9 C 72 %
3636 02-03-2012 17:39:01 9.7 C 73 %
3637 02-03-2012 17:49:01 9.5 C 74 %
3638 02-03-2012 17:58:02 9.3 C 75 %
3639 02-03-2012 18:09:01 9.2 C 75 %
3640 02-03-2012 18:19:01 9.1 C 76 %
3641 02-03-2012 18:29:01 9 C 76 %
3642 02-03-2012 18:38:02 8.9 C 78 %
3643 02-03-2012 18:49:01 8.8 C 78 %
3644 02-03-2012 18:59:01 8.7 C 79 %
3645 02-03-2012 19:09:01 8.6 C 79 %
3646 02-03-2012 19:19:02 8.6 C 79 %
3647 02-03-2012 19:29:02 8.5 C 80 %
3648 02-03-2012 19:39:01 8.5 C 80 %
3649 02-03-2012 19:49:01 8.4 C 81 %
3650 02-03-2012 19:59:01 8.3 C 81 %
Sensor: Nr:Datum:Temp:Feuchte:
Aussen-T/F 3651 02-03-2012 20:09:02 8.3 C 81 %
3652 02-03-2012 20:19:01 8.3 C 82 %
3653 02-03-2012 20:29:01 8 C 83 %
3654 02-03-2012 20:39:01 8 C 83 %
3655 02-03-2012 20:49:01 7.9 C 84 %
3656 02-03-2012 20:59:01 7.8 C 85 %
3657 02-03-2012 21:09:01 7.7 C 85 %
3658 02-03-2012 21:18:02 7.6 C 86 %
3659 02-03-2012 21:28:02 7.6 C 86 %
3660 02-03-2012 21:39:01 7.5 C 86 %
3661 02-03-2012 21:49:01 7.5 C 86 %
3662 02-03-2012 21:59:01 7.5 C 86 %
3663 02-03-2012 22:09:01 7.5 C 87 %
3664 02-03-2012 22:19:01 7.6 C 87 %
3665 02-03-2012 22:29:01 7.5 C 86 %
3666 02-03-2012 22:39:02 7.5 C 86 %
3667 02-03-2012 22:49:01 7.5 C 86 %
3668 02-03-2012 22:59:01 7.4 C 86 %
3669 02-03-2012 23:09:01 7.4 C 86 %
3670 02-03-2012 23:19:02 7.3 C 86 %
3671 02-03-2012 23:29:02 7.3 C 86 %
3672 02-03-2012 23:39:01 7.2 C 86 %
3673 02-03-2012 23:49:01 7.3 C 86 %
3674 02-03-2012 23:59:01 7.2 C 86 %
3675 03-03-2012 00:09:02 7.3 C 86 %
Sensor: Nr:Datum:Temp:Feuchte:
Aussen-T/F 3676 03-03-2012 00:19:01 7.2 C 87 %
3677 03-03-2012 00:29:01 7.3 C 87 %
3678 03-03-2012 00:39:01 7.2 C 87 %
3679 03-03-2012 00:49:01 7.3 C 88 %
3680 03-03-2012 00:59:01 7.3 C 88 %
3681 03-03-2012 01:09:02 7.3 C 88 %
3682 03-03-2012 01:19:01 7.2 C 88 %
3683 03-03-2012 01:29:01 7.3 C 88 %
3684 03-03-2012 01:39:02 7.2 C 88 %
3685 03-03-2012 01:49:01 7.3 C 89 %
3686 03-03-2012 01:59:01 7.2 C 89 %
3687 03-03-2012 02:09:01 7.2 C 89 %
3688 03-03-2012 02:19:02 7.2 C 89 %
3689 03-03-2012 02:29:02 7.1 C 89 %
3690 03-03-2012 02:39:01 7.2 C 89 %
3691 03-03-2012 02:49:02 7.2 C 89 %
3692 03-03-2012 02:59:02 7.3 C 88 %
3693 03-03-2012 03:09:01 7.2 C 88 %
3694 03-03-2012 03:19:01 7.1 C 87 %
3695 03-03-2012 03:29:01 7.1 C 87 %
3696 03-03-2012 03:39:02 7.1 C 86 %
3697 03-03-2012 03:49:01 7.1 C 86 %
3698 03-03-2012 03:59:01 7.1 C 86 %
3699 03-03-2012 04:09:02 7 C 86 %
3700 03-03-2012 04:19:01 7 C 86 %
Sensor: Nr:Datum:Temp:Feuchte:
Aussen-T/F 3701 03-03-2012 04:29:01 7.1 C 86 %
3702 03-03-2012 04:39:01 7.1 C 86 %
3703 03-03-2012 04:49:01 7.1 C 85 %
3704 03-03-2012 04:59:02 7.1 C 85 %
3705 03-03-2012 05:09:01 7.1 C 85 %
3706 03-03-2012 05:19:02 7 C 85 %
3707 03-03-2012 05:29:02 7.1 C 85 %
3708 03-03-2012 05:39:01 7.1 C 85 %
3709 03-03-2012 05:49:02 7 C 86 %
3710 03-03-2012 05:59:02 7 C 86 %
3711 03-03-2012 06:09:01 7 C 86 %
3712 03-03-2012 06:19:01 7 C 86 %
3713 03-03-2012 06:29:01 7 C 86 %
3714 03-03-2012 06:39:02 7 C 87 %
3715 03-03-2012 06:49:01 7 C 87 %
3716 03-03-2012 06:59:01 7 C 87 %
3717 03-03-2012 07:09:01 7.1 C 87 %
3718 03-03-2012 07:19:01 7.1 C 87 %
3719 03-03-2012 07:29:02 7 C 87 %
3720 03-03-2012 07:39:01 7.1 C 87 %
3721 03-03-2012 07:49:02 7.1 C 86 %
3722 03-03-2012 07:59:02 7.1 C 86 %
3723 03-03-2012 08:09:01 7.1 C 85 %
3724 03-03-2012 08:19:01 7.1 C 85 %
3725 03-03-2012 08:29:01 7.2 C 85 %
Sensor: Nr:Datum:Temp:Feuchte:
Aussen-T/F 3726 03-03-2012 08:39:02 7.2 C 85 %
3727 03-03-2012 08:49:01 7.3 C 85 %
3728 03-03-2012 08:59:01 7.3 C 84 %
3729 03-03-2012 09:09:02 7.4 C 84 %
3730 03-03-2012 09:19:01 7.5 C 83 %
3731 03-03-2012 09:29:01 7.6 C 83 %
3732 03-03-2012 09:39:01 7.7 C 81 %
3733 03-03-2012 09:49:01 7.7 C 80 %
3734 03-03-2012 09:59:01 7.7 C 79 %
3735 03-03-2012 10:09:01 7.8 C 78 %
3736 03-03-2012 10:19:01 8.1 C 76 %
3737 03-03-2012 10:29:01 8.3 C 74 %
3738 03-03-2012 10:39:02 8.4 C 73 %
3739 03-03-2012 10:49:01 8.2 C 73 %
3740 03-03-2012 10:59:01 8.1 C 74 %
3741 03-03-2012 11:09:01 8.3 C 74 %
3742 03-03-2012 11:19:02 8.3 C 74 %
3743 03-03-2012 11:29:02 8.1 C 74 %
3744 03-03-2012 11:39:01 8.2 C 75 %
3745 03-03-2012 11:49:02 8.1 C 75 %
3746 03-03-2012 11:59:02 8 C 76 %
3747 03-03-2012 12:09:01 8.3 C 76 %
3748 03-03-2012 12:19:02 8.5 C 75 %
3749 03-03-2012 12:29:02 8.8 C 74 %
3750 03-03-2012 12:39:01 8.9 C 74 %
Sensor: Nr:Datum:Temp:Feuchte:
Aussen-T/F 3751 03-03-2012 12:49:01 9 C 71 %
3752 03-03-2012 12:59:01 9.2 C 70 %
3753 03-03-2012 13:09:02 9.2 C 69 %
3754 03-03-2012 13:19:01 9.1 C 68 %
3755 03-03-2012 13:29:01 9.2 C 69 %
3756 03-03-2012 13:39:01 9.2 C 69 %
3757 03-03-2012 13:49:01 8.9 C 71 %
3758 03-03-2012 13:59:01 9 C 70 %
3759 03-03-2012 14:09:01 9 C 70 %
3760 03-03-2012 14:19:02 8.9 C 70 %
3761 03-03-2012 14:29:02 8.7 C 70 %
3762 03-03-2012 14:39:01 8.7 C 71 %
3763 03-03-2012 14:49:01 8.7 C 71 %
3764 03-03-2012 14:59:01 8.7 C 71 %
3765 03-03-2012 15:09:02 8.9 C 71 %
3766 03-03-2012 15:19:01 9 C 69 %
3767 03-03-2012 15:29:01 9.1 C 68 %
3768 03-03-2012 15:39:01 9.2 C 68 %
3769 03-03-2012 15:49:02 9.2 C 67 %
3770 03-03-2012 15:59:02 9.2 C 67 %
3771 03-03-2012 16:09:01 9.2 C 67 %
3772 03-03-2012 16:19:02 9.3 C 67 %
3773 03-03-2012 16:29:02 9.3 C 67 %
3774 03-03-2012 16:39:01 9.3 C 67 %
3775 03-03-2012 16:49:01 9.4 C 67 %
Sensor: Nr:Datum:Temp:Feuchte:
Aussen-T/F 3776 03-03-2012 16:59:01 9.3 C 67 %
3777 03-03-2012 17:09:02 9.3 C 67 %
3778 03-03-2012 17:19:01 9.1 C 68 %
3779 03-03-2012 17:29:01 9 C 69 %
3780 03-03-2012 17:39:01 9 C 69 %
3781 03-03-2012 17:49:01 8.9 C 72 %
3782 03-03-2012 17:59:02 8.7 C 74 %
3783 03-03-2012 18:09:01 8.5 C 75 %
3784 03-03-2012 18:19:03 8.3 C 76 %
3785 03-03-2012 18:29:03 8.2 C 76 %
3786 03-03-2012 18:39:02 8 C 77 %
3787 03-03-2012 18:49:02 7.9 C 79 %
3788 03-03-2012 18:59:02 7.8 C 79 %
3789 03-03-2012 19:09:01 7.8 C 79 %
3790 03-03-2012 19:19:01 7.7 C 80 %
3791 03-03-2012 19:29:01 7.8 C 80 %
3792 03-03-2012 19:39:01 7.8 C 79 %
3793 03-03-2012 19:49:01 7.9 C 79 %
3794 03-03-2012 19:59:02 7.9 C 78 %
3795 03-03-2012 20:09:01 7.9 C 78 %
3796 03-03-2012 20:19:01 7.7 C 79 %
3797 03-03-2012 20:29:01 7.7 C 79 %
3798 03-03-2012 20:39:02 7.5 C 79 %
3799 03-03-2012 20:49:01 7.4 C 79 %
3800 03-03-2012 20:59:01 7.5 C 80 %
Sensor: Nr:Datum:Temp:Feuchte:
Aussen-T/F 3801 03-03-2012 21:09:01 7.5 C 79 %
3802 03-03-2012 21:19:02 7.6 C 79 %
3803 03-03-2012 21:29:02 7.6 C 78 %
3804 03-03-2012 21:39:01 7.7 C 78 %
3805 03-03-2012 21:49:01 8 C 77 %
3806 03-03-2012 21:59:01 7.9 C 77 %
3807 03-03-2012 22:09:01 8.1 C 74 %
3808 03-03-2012 22:19:02 7.9 C 75 %
3809 03-03-2012 22:29:02 7.7 C 77 %
3810 03-03-2012 22:39:01 7.9 C 77 %
3811 03-03-2012 22:49:01 8 C 75 %
3812 03-03-2012 22:59:01 7.9 C 76 %
3813 03-03-2012 23:09:02 7.8 C 77 %
3814 03-03-2012 23:19:01 8.2 C 75 %
3815 03-03-2012 23:29:01 8.1 C 74 %
3816 03-03-2012 23:39:01 8.4 C 73 %
3817 03-03-2012 23:49:02 8.2 C 72 %
3818 03-03-2012 23:59:02 8 C 74 %
3819 04-03-2012 00:09:01 8.3 C 72 %
3820 04-03-2012 00:19:01 8 C 72 %
3821 04-03-2012 00:29:01 7.8 C 75 %
3822 04-03-2012 00:39:01 7.6 C 76 %
3823 04-03-2012 00:49:02 7.4 C 77 %
3824 04-03-2012 00:59:02 7.3 C 78 %
3825 04-03-2012 01:09:01 6.8 C 79 %
Sensor: Nr:Datum:Temp:Feuchte:
Aussen-T/F 3826 04-03-2012 01:20:01 6.7 C 81 %
3827 04-03-2012 01:29:01 6 C 81 %
3828 04-03-2012 01:39:02 5.8 C 83 %
3829 04-03-2012 01:49:01 5.5 C 85 %
3830 04-03-2012 01:59:01 5.3 C 86 %
3831 04-03-2012 02:09:02 5.6 C 86 %
3832 04-03-2012 02:19:01 5.4 C 87 %
3833 04-03-2012 02:29:01 5.5 C 87 %
3834 04-03-2012 02:40:01 5.6 C 88 %
3835 04-03-2012 02:49:01 5.8 C 88 %
3836 04-03-2012 02:59:02 5.8 C 89 %
3837 04-03-2012 03:09:01 5.8 C 89 %
3838 04-03-2012 03:19:02 5.4 C 89 %
3839 04-03-2012 03:29:02 4.8 C 89 %
3840 04-03-2012 03:39:01 4.1 C 89 %
3841 04-03-2012 03:50:01 4 C 89 %
3842 04-03-2012 04:00:02 4.1 C 89 %
3843 04-03-2012 04:10:03 4.4 C 89 %
3844 04-03-2012 04:20:02 4.5 C 90 %
3845 04-03-2012 04:30:01 4.6 C 90 %
3846 04-03-2012 04:40:01 4.7 C 90 %
3847 04-03-2012 04:50:02 4.6 C 90 %
3848 04-03-2012 05:00:01 4.4 C 90 %
3849 04-03-2012 05:10:01 3.9 C 90 %
3850 04-03-2012 05:20:02 4.2 C 90 %
Sensor: Nr:Datum:Temp:Feuchte:
Aussen-T/F 3851 04-03-2012 05:30:02 4.5 C 91 %
3852 04-03-2012 05:40:02 4.7 C 91 %
3853 04-03-2012 05:50:01 4.8 C 91 %
3854 04-03-2012 06:00:02 4.9 C 91 %
3855 04-03-2012 06:10:02 4.8 C 91 %
3856 04-03-2012 06:20:01 4.8 C 91 %
3857 04-03-2012 06:30:02 5 C 91 %
3858 04-03-2012 06:40:02 4.9 C 91 %
3859 04-03-2012 06:50:02 5.1 C 91 %
3860 04-03-2012 07:00:01 5.2 C 91 %
3861 04-03-2012 07:10:01 5.4 C 91 %
3862 04-03-2012 07:20:02 5.5 C 91 %
3863 04-03-2012 07:30:01 5.8 C 91 %
3864 04-03-2012 07:40:01 5.7 C 91 %
3865 04-03-2012 07:50:02 5.7 C 91 %
3866 04-03-2012 08:00:01 5.9 C 91 %
3867 04-03-2012 08:10:01 6.1 C 89 %
3868 04-03-2012 08:20:01 6.7 C 89 %
3869 04-03-2012 08:30:02 7.6 C 88 %
3870 04-03-2012 08:40:02 7.9 C 84 %
3871 04-03-2012 08:50:01 8.3 C 77 %
3872 04-03-2012 09:00:01 8.5 C 73 %
3873 04-03-2012 09:10:01 9.1 C 71 %
3874 04-03-2012 09:20:01 9.3 C 68 %
3875 04-03-2012 09:30:01 9.2 C 68 %
Sensor: Nr:Datum:Temp:Feuchte:
Aussen-T/F 3876 04-03-2012 09:40:01 9.6 C 67 %
3877 04-03-2012 09:50:02 10.4 C 63 %
3878 04-03-2012 10:00:01 10.2 C 63 %
3879 04-03-2012 10:10:01 10.2 C 64 %
3880 04-03-2012 10:20:01 10.1 C 65 %
3881 04-03-2012 10:30:02 10.4 C 65 %
3882 04-03-2012 10:40:02 11 C 62 %
3883 04-03-2012 10:50:01 10.9 C 62 %
3884 04-03-2012 11:00:01 11.4 C 61 %
3885 04-03-2012 11:10:01 11.8 C 59 %
3886 04-03-2012 11:20:02 12.1 C 56 %
3887 04-03-2012 11:30:01 12.2 C 56 %
3888 04-03-2012 11:40:01 11.7 C 57 %
3889 04-03-2012 11:50:01 12.8 C 56 %
3890 04-03-2012 12:00:01 12.7 C 50 %
3891 04-03-2012 12:10:01 12.9 C 50 %
3892 04-03-2012 12:20:01 13.6 C 48 %
3893 04-03-2012 12:30:01 13.5 C 46 %
3894 04-03-2012 12:40:01 13.2 C 47 %
3895 04-03-2012 12:50:01 12.3 C 48 %
3896 04-03-2012 13:00:01 12.5 C 49 %
3897 04-03-2012 13:10:01 12.5 C 49 %
3898 04-03-2012 13:20:01 13.6 C 44 %
3899 04-03-2012 13:30:01 14.2 C 41 %
3900 04-03-2012 13:40:01 14.3 C 41 %
Sensor: Nr:Datum:Temp:Feuchte:
Aussen-T/F 3901 04-03-2012 13:50:01 13.8 C 42 %
3902 04-03-2012 14:00:01 13.5 C 43 %
3903 04-03-2012 14:10:01 13.3 C 42 %
3904 04-03-2012 14:20:01 12.8 C 43 %
3905 04-03-2012 14:30:01 12.8 C 44 %
3906 04-03-2012 14:40:01 13 C 43 %
3907 04-03-2012 14:50:01 13.1 C 43 %
3908 04-03-2012 15:00:01 12.8 C 43 %
3909 04-03-2012 15:10:01 13 C 43 %
3910 04-03-2012 15:20:01 12.7 C 42 %
3911 04-03-2012 15:30:01 12.3 C 45 %
3912 04-03-2012 15:40:01 12 C 45 %
3913 04-03-2012 15:50:01 11.9 C 47 %
3914 04-03-2012 16:00:01 11.7 C 48 %
3915 04-03-2012 16:10:01 11.1 C 50 %
3916 04-03-2012 16:20:01 11 C 53 %
3917 04-03-2012 16:30:01 11 C 53 %
3918 04-03-2012 16:40:01 11 C 53 %
3919 04-03-2012 16:50:01 10.9 C 53 %
3920 04-03-2012 17:00:01 10.9 C 53 %
3921 04-03-2012 17:10:01 10.9 C 53 %
3922 04-03-2012 17:20:01 10.8 C 53 %
3923 04-03-2012 17:30:01 10.7 C 54 %
3924 04-03-2012 17:40:01 10.4 C 54 %
3925 04-03-2012 17:50:01 10.2 C 55 %
Sensor: Nr:Datum:Temp:Feuchte:
Aussen-T/F 3926 04-03-2012 18:00:01 9.7 C 59 %
3927 04-03-2012 18:10:01 9.5 C 62 %
3928 04-03-2012 18:20:01 9.3 C 61 %
3929 04-03-2012 18:30:01 9.3 C 59 %
3930 04-03-2012 18:40:01 8.9 C 64 %
3931 04-03-2012 18:50:01 8.6 C 66 %
3932 04-03-2012 19:00:01 8.5 C 66 %
3933 04-03-2012 19:10:01 8.5 C 66 %
3934 04-03-2012 19:20:01 8.6 C 63 %
3935 04-03-2012 19:30:01 9.1 C 60 %
3936 04-03-2012 19:40:01 9.2 C 58 %
3937 04-03-2012 19:50:01 9.3 C 57 %
3938 04-03-2012 20:00:01 9.3 C 57 %
3939 04-03-2012 20:10:01 9.4 C 56 %
3940 04-03-2012 20:20:00 9.5 C 55 %
3941 04-03-2012 20:30:01 9.3 C 56 %
3942 04-03-2012 20:40:01 9.2 C 57 %
3943 04-03-2012 20:50:01 8.8 C 59 %
3944 04-03-2012 21:00:00 8.8 C 59 %
3945 04-03-2012 21:10:00 8.5 C 61 %
3946 04-03-2012 21:20:01 8.2 C 62 %
3947 04-03-2012 21:30:00 8.4 C 65 %
3948 04-03-2012 21:40:00 8.1 C 63 %
3949 04-03-2012 21:50:01 7.8 C 65 %
3950 04-03-2012 22:00:00 7.8 C 66 %
Sensor: Nr:Datum:Temp:Feuchte:
Aussen-T/F 3951 04-03-2012 22:10:00 7.6 C 67 %
3952 04-03-2012 22:20:00 7.6 C 68 %
3953 04-03-2012 22:30:01 7.8 C 66 %
3954 04-03-2012 22:40:02 7.6 C 68 %
3955 04-03-2012 22:50:00 7.5 C 69 %
3956 04-03-2012 23:00:01 7.5 C 70 %
3957 04-03-2012 23:10:01 7.5 C 69 %
3958 04-03-2012 23:20:00 7.5 C 69 %
3959 04-03-2012 23:30:00 7.3 C 69 %
3960 04-03-2012 23:40:00 7.4 C 69 %
3961 04-03-2012 23:50:01 6.9 C 71 %
3962 05-03-2012 00:00:00 6.5 C 73 %
3963 05-03-2012 00:10:00 6.5 C 74 %
3964 05-03-2012 00:20:00 6.5 C 74 %
3965 05-03-2012 00:30:01 6.6 C 74 %
3966 05-03-2012 00:40:01 6.6 C 74 %
3967 05-03-2012 00:50:00 6.8 C 73 %
3968 05-03-2012 01:00:00 6.7 C 72 %
3969 05-03-2012 01:10:00 6.8 C 72 %
3970 05-03-2012 01:20:01 6.8 C 71 %
3971 05-03-2012 01:30:00 7.6 C 66 %
3972 05-03-2012 01:40:00 7.2 C 66 %
3973 05-03-2012 01:50:01 6.9 C 71 %
3974 05-03-2012 02:00:00 6.6 C 74 %
3975 05-03-2012 02:10:00 6.5 C 76 %
Sensor: Nr:Datum:Temp:Feuchte:
Aussen-T/F 3976 05-03-2012 02:20:01 6.4 C 78 %
3977 05-03-2012 02:30:00 6.2 C 79 %
3978 05-03-2012 02:40:00 6.3 C 81 %
3979 05-03-2012 02:50:01 6.3 C 82 %
3980 05-03-2012 03:00:02 6.2 C 83 %
3981 05-03-2012 03:10:02 6.2 C 83 %
3982 05-03-2012 03:20:01 6 C 84 %
3983 05-03-2012 03:30:02 5.9 C 86 %
3984 05-03-2012 03:40:02 5.9 C 86 %
3985 05-03-2012 03:50:01 5.9 C 87 %
3986 05-03-2012 04:00:01 5.9 C 87 %
3987 05-03-2012 04:10:01 5.8 C 87 %
3988 05-03-2012 04:20:02 5.8 C 88 %
3989 05-03-2012 04:30:01 5.8 C 88 %
3990 05-03-2012 04:40:01 5.8 C 88 %
3991 05-03-2012 04:50:02 5.8 C 88 %
3992 05-03-2012 05:00:01 5.8 C 88 %
3993 05-03-2012 05:10:01 5.9 C 88 %
3994 05-03-2012 05:20:01 5.4 C 84 %
3995 05-03-2012 05:30:01 4.8 C 83 %
3996 05-03-2012 05:40:01 4.5 C 82 %
3997 05-03-2012 05:50:01 4.3 C 82 %
3998 05-03-2012 06:00:02 4.2 C 82 %
3999 05-03-2012 06:10:02 4.1 C 81 %
4000 05-03-2012 06:20:01 4.1 C 79 %
Sensor: Nr:Datum:Temp:Feuchte:
Aussen-T/F 4001 05-03-2012 06:30:02 3.9 C 79 %
4002 05-03-2012 06:40:02 3.9 C 77 %
4003 05-03-2012 06:50:01 3.8 C 74 %
4004 05-03-2012 07:00:01 3.8 C 73 %
4005 05-03-2012 07:10:01 3.7 C 75 %
4006 05-03-2012 07:20:02 3.8 C 74 %
4007 05-03-2012 07:30:01 3.7 C 75 %
4008 05-03-2012 07:40:01 3.6 C 75 %
4009 05-03-2012 07:50:02 3.7 C 74 %
4010 05-03-2012 08:00:01 3.6 C 75 %
4011 05-03-2012 08:10:01 3.7 C 74 %
4012 05-03-2012 08:20:01 4.2 C 70 %
4013 05-03-2012 08:30:02 4.2 C 68 %
4014 05-03-2012 08:40:02 4.2 C 70 %
4015 05-03-2012 08:50:01 4.6 C 68 %
4016 05-03-2012 09:00:02 4.9 C 64 %
4017 05-03-2012 09:10:02 5.2 C 62 %
4018 05-03-2012 09:20:01 5.4 C 62 %
4019 05-03-2012 09:30:01 5.2 C 61 %
4020 05-03-2012 09:40:01 5.3 C 61 %
4021 05-03-2012 09:50:02 5.9 C 59 %
4022 05-03-2012 10:00:02 5.7 C 57 %
4023 05-03-2012 10:10:02 5.6 C 57 %
4024 05-03-2012 10:20:01 6.1 C 56 %
4025 05-03-2012 10:31:01 6 C 55 %
Sensor: Nr:Datum:Temp:Feuchte:
Aussen-T/F 4026 05-03-2012 10:41:01 6 C 54 %
4027 05-03-2012 10:50:01 6.1 C 55 %
4028 05-03-2012 11:00:01 5.7 C 53 %
4029 05-03-2012 11:10:01 5.8 C 54 %
4030 05-03-2012 11:20:02 6 C 50 %
4031 05-03-2012 11:30:01 6.5 C 49 %
4032 05-03-2012 11:40:01 6.5 C 48 %
4033 05-03-2012 11:51:01 7.4 C 46 %
4034 05-03-2012 12:00:01 6.2 C 47 %
4035 05-03-2012 12:10:02 6.1 C 49 %
4036 05-03-2012 12:20:01 6.2 C 49 %
4037 05-03-2012 12:30:02 6.9 C 48 %
4038 05-03-2012 12:40:02 6.7 C 48 %
4039 05-03-2012 12:50:01 7.2 C 46 %
4040 05-03-2012 13:01:01 7.1 C 46 %
4041 05-03-2012 13:11:01 7 C 46 %
4042 05-03-2012 13:20:01 6.6 C 47 %
4043 05-03-2012 13:31:01 6.7 C 46 %
4044 05-03-2012 13:40:01 6.6 C 48 %
4045 05-03-2012 13:50:02 7.1 C 47 %
4046 05-03-2012 14:00:01 6.6 C 48 %
4047 05-03-2012 14:10:01 6.2 C 47 %
4048 05-03-2012 14:21:01 6.4 C 46 %
4049 05-03-2012 14:30:02 6.8 C 47 %
4050 05-03-2012 14:40:02 6.7 C 47 %
Sensor: Nr:Datum:Temp:Feuchte:
Aussen-T/F 4051 05-03-2012 14:50:01 6.5 C 48 %
4052 05-03-2012 15:01:01 6.9 C 46 %
4053 05-03-2012 15:11:01 7.1 C 44 %
4054 05-03-2012 15:20:01 6.7 C 46 %
4055 05-03-2012 15:31:01 6.5 C 47 %
4056 05-03-2012 15:41:01 6.1 C 47 %
4057 05-03-2012 15:51:01 6.7 C 47 %
4058 05-03-2012 16:00:01 6.5 C 46 %
4059 05-03-2012 16:10:02 6.3 C 48 %
4060 05-03-2012 16:21:01 6.2 C 49 %
4061 05-03-2012 16:30:02 6 C 49 %
4062 05-03-2012 16:40:02 6 C 51 %
4063 05-03-2012 16:50:01 6.4 C 50 %
4064 05-03-2012 17:01:01 6.2 C 50 %
4065 05-03-2012 17:11:01 6.3 C 49 %
4066 05-03-2012 17:20:02 5.9 C 52 %
4067 05-03-2012 17:30:01 5.9 C 54 %
4068 05-03-2012 17:40:01 5.6 C 54 %
4069 05-03-2012 17:51:01 5.6 C 55 %
4070 05-03-2012 18:00:02 5.6 C 55 %
4071 05-03-2012 18:10:02 5.3 C 56 %
4072 05-03-2012 18:20:02 5.2 C 56 %
4073 05-03-2012 18:30:01 5.3 C 56 %
4074 05-03-2012 18:40:01 5.1 C 56 %
4075 05-03-2012 18:51:01 5.2 C 57 %
Sensor: Nr:Datum:Temp:Feuchte:
Aussen-T/F 4076 05-03-2012 19:00:02 5.1 C 58 %
4077 05-03-2012 19:10:02 4.8 C 62 %
4078 05-03-2012 19:20:02 4.7 C 63 %
4079 05-03-2012 19:31:01 4.7 C 63 %
4080 05-03-2012 19:41:01 4.7 C 60 %
4081 05-03-2012 19:51:01 4.7 C 62 %
4082 05-03-2012 20:00:02 4.9 C 60 %
4083 05-03-2012 20:10:02 4.9 C 60 %
4084 05-03-2012 20:21:01 4.8 C 60 %
4085 05-03-2012 20:31:01 4.6 C 61 %
4086 05-03-2012 20:41:01 4.6 C 62 %
4087 05-03-2012 20:50:02 4.6 C 63 %
4088 05-03-2012 21:01:01 4.6 C 62 %
4089 05-03-2012 21:11:01 4.8 C 62 %
4090 05-03-2012 21:21:01 4.6 C 62 %
4091 05-03-2012 21:30:02 4.5 C 63 %
4092 05-03-2012 21:40:02 4.5 C 63 %
4093 05-03-2012 21:51:01 4.4 C 65 %
4094 05-03-2012 22:00:02 4.2 C 66 %
4095 05-03-2012 22:10:02 4.1 C 66 %
4096 05-03-2012 22:21:01 4.2 C 66 %
4097 05-03-2012 22:31:01 4.3 C 65 %
4098 05-03-2012 22:41:01 4.1 C 67 %
4099 05-03-2012 22:50:02 4.5 C 64 %
4100 05-03-2012 23:01:01 4.6 C 63 %
Sensor: Nr:Datum:Temp:Feuchte:
Aussen-T/F 4101 05-03-2012 23:11:01 4.5 C 63 %
4102 05-03-2012 23:21:01 4.5 C 64 %
4103 05-03-2012 23:30:02 4.4 C 63 %
4104 05-03-2012 23:40:02 4.4 C 65 %
4105 05-03-2012 23:51:01 4.4 C 64 %
4106 06-03-2012 00:01:01 4.5 C 63 %
4107 06-03-2012 00:11:01 4.4 C 63 %
4108 06-03-2012 00:21:01 4.4 C 64 %
4109 06-03-2012 00:31:01 4.5 C 64 %
4110 06-03-2012 00:41:01 4.4 C 63 %
4111 06-03-2012 00:51:02 4.4 C 64 %
4112 06-03-2012 01:01:01 4 C 65 %
4113 06-03-2012 01:11:01 4.1 C 67 %
4114 06-03-2012 01:21:01 4.2 C 67 %
4115 06-03-2012 01:31:01 4 C 67 %
4116 06-03-2012 01:41:01 4.1 C 67 %
4117 06-03-2012 01:51:01 4.2 C 67 %
4118 06-03-2012 02:01:02 4.3 C 65 %
4119 06-03-2012 02:11:02 4.3 C 66 %
4120 06-03-2012 02:21:01 3.8 C 68 %
4121 06-03-2012 02:31:01 3 C 69 %
4122 06-03-2012 02:41:01 2.8 C 74 %
4123 06-03-2012 02:51:01 2.4 C 76 %
4124 06-03-2012 03:01:01 2.4 C 76 %
4125 06-03-2012 03:11:01 2.5 C 78 %
Sensor: Nr:Datum:Temp:Feuchte:
Aussen-T/F 4126 06-03-2012 03:21:02 2.5 C 79 %
4127 06-03-2012 03:31:01 2.5 C 79 %
4128 06-03-2012 03:41:01 2.3 C 79 %
4129 06-03-2012 03:51:01 2.3 C 79 %
4130 06-03-2012 04:01:01 1.9 C 78 %
4131 06-03-2012 04:11:02 1.7 C 80 %
4132 06-03-2012 04:21:01 1.2 C 81 %
4133 06-03-2012 04:31:02 1.1 C 82 %
4134 06-03-2012 04:41:02 1.9 C 84 %
4135 06-03-2012 04:51:01 1.8 C 82 %
4136 06-03-2012 05:01:01 1.1 C 81 %
4137 06-03-2012 05:11:01 1.2 C 83 %
4138 06-03-2012 05:21:01 1.3 C 84 %
4139 06-03-2012 05:31:01 0.9 C 85 %
4140 06-03-2012 05:41:01 1.1 C 85 %
4141 06-03-2012 05:51:02 1.6 C 86 %
4142 06-03-2012 06:01:02 1.6 C 87 %
4143 06-03-2012 06:11:02 2 C 86 %
4144 06-03-2012 06:21:01 2.1 C 86 %
4145 06-03-2012 06:31:01 2.1 C 86 %
4146 06-03-2012 06:41:01 2.7 C 79 %
4147 06-03-2012 06:51:02 2.4 C 75 %
4148 06-03-2012 07:01:01 1.9 C 77 %
4149 06-03-2012 07:11:01 2.4 C 76 %
4150 06-03-2012 07:21:02 2.4 C 75 %
Sensor: Nr:Datum:Temp:Feuchte:
Aussen-T/F 4151 06-03-2012 07:31:01 2.4 C 73 %
4152 06-03-2012 07:41:01 2.4 C 73 %
4153 06-03-2012 07:51:01 2.4 C 73 %
4154 06-03-2012 08:01:02 2.5 C 73 %
4155 06-03-2012 08:11:02 2 C 75 %
4156 06-03-2012 08:21:01 2.2 C 77 %
4157 06-03-2012 08:31:01 2.8 C 77 %
4158 06-03-2012 08:41:01 3.2 C 75 %
4159 06-03-2012 08:51:02 3.8 C 70 %
4160 06-03-2012 09:01:01 4.2 C 66 %
4161 06-03-2012 09:11:01 4.8 C 63 %
4162 06-03-2012 09:21:02 5.2 C 59 %
4163 06-03-2012 09:31:01 5.2 C 59 %
4164 06-03-2012 09:41:01 4.9 C 60 %
4165 06-03-2012 09:51:01 4.7 C 63 %
4166 06-03-2012 10:01:02 4.7 C 61 %
4167 06-03-2012 10:11:02 4.8 C 62 %
4168 06-03-2012 10:21:01 5.2 C 59 %
4169 06-03-2012 10:31:01 5.7 C 58 %
4170 06-03-2012 10:41:01 5.9 C 57 %
4171 06-03-2012 10:51:02 6.4 C 54 %
4172 06-03-2012 11:01:01 6.8 C 53 %
4173 06-03-2012 11:11:01 7 C 51 %
4174 06-03-2012 11:21:01 7.4 C 48 %
4175 06-03-2012 11:31:01 7.6 C 49 %
Sensor: Nr:Datum:Temp:Feuchte:
Aussen-T/F 4176 06-03-2012 11:41:02 8.7 C 45 %
4177 06-03-2012 11:51:01 8.4 C 45 %
4178 06-03-2012 12:01:02 9.2 C 41 %
4179 06-03-2012 12:11:02 9.3 C 42 %
4180 06-03-2012 12:21:01 8.3 C 44 %
4181 06-03-2012 12:31:02 7.8 C 44 %
4182 06-03-2012 12:41:02 11 C 36 %
4183 06-03-2012 12:51:01 12.8 C 30 %
4184 06-03-2012 13:01:01 13.9 C 25 %
4185 06-03-2012 13:11:01 12.6 C 26 %
4186 06-03-2012 13:21:02 11.2 C 28 %
4187 06-03-2012 13:31:01 11.5 C 30 %
4188 06-03-2012 13:41:01 10.2 C 31 %
4189 06-03-2012 13:51:01 10.2 C 32 %
4190 06-03-2012 14:01:02 10.2 C 31 %
4191 06-03-2012 14:11:02 10.7 C 30 %
4192 06-03-2012 14:21:01 11 C 30 %
4193 06-03-2012 14:31:02 11.2 C 26 %
4194 06-03-2012 14:41:02 11.2 C 26 %
4195 06-03-2012 14:51:01 11.7 C 27 %
4196 06-03-2012 15:01:01 10.3 C 25 %
4197 06-03-2012 15:11:01 9.7 C 32 %
4198 06-03-2012 15:21:02 9.7 C 35 %
4199 06-03-2012 15:31:01 9.8 C 35 %
4200 06-03-2012 15:41:01 10.1 C 33 %
Sensor: Nr:Datum:Temp:Feuchte:
Aussen-T/F 4201 06-03-2012 15:51:01 11.5 C 33 %
4202 06-03-2012 16:01:02 11.5 C 27 %
4203 06-03-2012 16:11:02 14.2 C 20 %
4204 06-03-2012 16:21:01 13.8 C 20 %
4205 06-03-2012 16:31:01 11 C 26 %
4206 06-03-2012 16:41:01 10.6 C 30 %
4207 06-03-2012 16:51:02 11 C 28 %
4208 06-03-2012 17:01:01 10.9 C 30 %
4209 06-03-2012 17:11:01 11.5 C 28 %
4210 06-03-2012 17:21:01 11.2 C 30 %
4211 06-03-2012 17:31:01 10.2 C 32 %
4212 06-03-2012 17:41:01 9.2 C 38 %
4213 06-03-2012 17:51:01 8.2 C 48 %
4214 06-03-2012 18:01:02 7.1 C 52 %
4215 06-03-2012 18:11:02 6.1 C 55 %
4216 06-03-2012 18:21:01 5.3 C 57 %
4217 06-03-2012 18:31:01 5 C 59 %
4218 06-03-2012 18:41:01 4.4 C 61 %
4219 06-03-2012 18:51:02 4.1 C 61 %
4220 06-03-2012 19:01:01 4 C 64 %
4221 06-03-2012 19:11:02 3.8 C 67 %
4222 06-03-2012 19:21:01 3.5 C 68 %
4223 06-03-2012 19:31:01 3.4 C 70 %
4224 06-03-2012 19:41:01 3.7 C 71 %
4225 06-03-2012 19:51:02 3.1 C 71 %
Sensor: Nr:Datum:Temp:Feuchte:
Aussen-T/F 4226 06-03-2012 20:01:01 2.8 C 74 %
4227 06-03-2012 20:11:01 2.2 C 74 %
4228 06-03-2012 20:21:01 1.7 C 77 %
4229 06-03-2012 20:31:02 1.4 C 76 %
4230 06-03-2012 20:41:02 1.2 C 75 %
4231 06-03-2012 20:51:01 1.5 C 78 %
4232 06-03-2012 21:01:01 1.4 C 79 %
4233 06-03-2012 21:11:01 0.6 C 80 %
4234 06-03-2012 21:21:02 0.5 C 81 %
4235 06-03-2012 21:31:02 0.4 C 80 %
4236 06-03-2012 21:41:02 0.3 C 81 %
4237 06-03-2012 21:51:01 0.2 C 81 %
4238 06-03-2012 22:01:02 0.2 C 81 %
4239 06-03-2012 22:11:02 -0.2 C 81 %
4240 06-03-2012 22:21:01 -0.2 C 82 %
4241 06-03-2012 22:31:02 -0.5 C 82 %
4242 06-03-2012 22:41:02 -0.5 C 82 %
4243 06-03-2012 22:51:01 -0.8 C 82 %
4244 06-03-2012 23:01:01 -0.9 C 83 %
4245 06-03-2012 23:11:01 -1 C 83 %
4246 06-03-2012 23:21:02 -1 C 84 %
4247 06-03-2012 23:31:01 -1 C 84 %
4248 06-03-2012 23:41:01 -1.1 C 84 %
4249 06-03-2012 23:51:01 -1.3 C 84 %
4250 07-03-2012 00:01:02 -1.5 C 84 %
Sensor: Nr:Datum:Temp:Feuchte:
Aussen-T/F 4251 07-03-2012 00:11:02 -1.6 C 84 %
4252 07-03-2012 00:21:01 -1.5 C 84 %
4253 07-03-2012 00:31:01 -1.7 C 84 %
4254 07-03-2012 00:41:01 -1.9 C 84 %
4255 07-03-2012 00:51:01 -1.9 C 85 %
4256 07-03-2012 01:01:02 -1.8 C 85 %
4257 07-03-2012 01:11:02 -1.5 C 85 %
4258 07-03-2012 01:21:01 -1.8 C 85 %
4259 07-03-2012 01:31:02 -2.1 C 85 %
4260 07-03-2012 01:41:02 -2.4 C 85 %
4261 07-03-2012 01:51:01 -2.5 C 86 %
4262 07-03-2012 02:01:01 -2.4 C 86 %
4263 07-03-2012 02:11:01 -2.1 C 87 %
4264 07-03-2012 02:21:02 -2.1 C 87 %
4265 07-03-2012 02:31:01 -2.4 C 87 %
4266 07-03-2012 02:41:01 -2.2 C 87 %
4267 07-03-2012 02:51:02 -2.8 C 87 %
4268 07-03-2012 03:01:01 -3 C 87 %
4269 07-03-2012 03:11:01 -2.7 C 87 %
4270 07-03-2012 03:21:01 -2.7 C 87 %
4271 07-03-2012 03:31:02 -2.7 C 87 %
4272 07-03-2012 03:41:02 -2.7 C 87 %
4273 07-03-2012 03:51:01 -2.9 C 88 %
4274 07-03-2012 04:01:02 -2.9 C 88 %
4275 07-03-2012 04:11:02 -3.2 C 88 %
Sensor: Nr:Datum:Temp:Feuchte:
Aussen-T/F 4276 07-03-2012 04:21:01 -2.8 C 88 %
4277 07-03-2012 04:31:01 -2.8 C 88 %
4278 07-03-2012 04:41:01 -3 C 88 %
4279 07-03-2012 04:51:02 -3 C 89 %
4280 07-03-2012 05:01:01 -3 C 89 %
4281 07-03-2012 05:11:01 -3.3 C 88 %
4282 07-03-2012 05:22:01 -3.4 C 88 %
4283 07-03-2012 05:31:02 -3.6 C 89 %
4284 07-03-2012 05:41:02 -3.3 C 89 %
4285 07-03-2012 05:51:01 -3.7 C 88 %
4286 07-03-2012 06:01:02 -3.6 C 89 %
4287 07-03-2012 06:11:02 -3.3 C 89 %
4288 07-03-2012 06:21:01 -3.4 C 89 %
4289 07-03-2012 06:32:01 -3.4 C 89 %
4290 07-03-2012 06:42:01 -3.3 C 89 %
4291 07-03-2012 06:51:02 -3.1 C 89 %
4292 07-03-2012 07:01:01 -3.1 C 89 %
4293 07-03-2012 07:11:01 -2.9 C 90 %
4294 07-03-2012 07:22:01 -2.8 C 89 %
4295 07-03-2012 07:31:02 -2.4 C 90 %
4296 07-03-2012 07:41:02 -2.3 C 90 %
4297 07-03-2012 07:52:01 -2 C 90 %
4298 07-03-2012 08:01:02 -1.8 C 90 %
4299 07-03-2012 08:11:02 -1.6 C 90 %
4300 07-03-2012 08:21:01 -1.2 C 90 %
Sensor: Nr:Datum:Temp:Feuchte:
Aussen-T/F 4301 07-03-2012 08:32:01 -0.9 C 89 %
4302 07-03-2012 08:42:01 -0.8 C 88 %
4303 07-03-2012 08:51:02 -0.5 C 87 %
4304 07-03-2012 09:01:01 -0.4 C 86 %
4305 07-03-2012 09:11:01 -0.2 C 85 %
4306 07-03-2012 09:22:01 0 C 85 %
4307 07-03-2012 09:31:02 0.6 C 82 %
4308 07-03-2012 09:41:02 1 C 79 %
4309 07-03-2012 09:52:01 1.3 C 76 %
4310 07-03-2012 10:02:01 1.7 C 72 %
4311 07-03-2012 10:12:01 2.3 C 71 %
4312 07-03-2012 10:21:01 3 C 69 %
4313 07-03-2012 10:32:01 3.9 C 66 %
4314 07-03-2012 10:42:01 4.5 C 61 %
4315 07-03-2012 10:51:02 5 C 56 %
4316 07-03-2012 11:02:01 4.9 C 55 %
4317 07-03-2012 11:11:02 5.6 C 54 %
4318 07-03-2012 11:22:01 5.9 C 52 %
4319 07-03-2012 11:31:02 5.9 C 52 %
4320 07-03-2012 11:41:02 6.1 C 50 %
4321 07-03-2012 11:52:01 7 C 48 %
4322 07-03-2012 12:01:02 7.1 C 48 %
4323 07-03-2012 12:11:02 7.3 C 48 %
4324 07-03-2012 12:22:01 7.4 C 47 %
4325 07-03-2012 12:32:01 7.4 C 47 %
Sensor: Nr:Datum:Temp:Feuchte:
Aussen-T/F 4326 07-03-2012 12:42:01 7.5 C 47 %
4327 07-03-2012 12:51:02 7.7 C 46 %
4328 07-03-2012 13:02:01 7.4 C 46 %
4329 07-03-2012 13:12:01 7.7 C 46 %
4330 07-03-2012 13:22:01 7.7 C 45 %
4331 07-03-2012 13:31:02 7.5 C 43 %
4332 07-03-2012 13:41:02 7.7 C 43 %
4333 07-03-2012 13:52:01 7.7 C 43 %
4334 07-03-2012 14:02:01 8.1 C 42 %
4335 07-03-2012 14:12:01 8 C 41 %
4336 07-03-2012 14:22:02 8.5 C 41 %
4337 07-03-2012 14:32:01 8 C 42 %
4338 07-03-2012 14:42:01 8 C 44 %
4339 07-03-2012 14:52:01 7.6 C 45 %
4340 07-03-2012 15:02:01 7.7 C 45 %
4341 07-03-2012 15:12:01 7.5 C 45 %
4342 07-03-2012 15:22:01 7.6 C 45 %
4343 07-03-2012 15:31:02 7.5 C 45 %
4344 07-03-2012 15:41:02 7.5 C 45 %
4345 07-03-2012 15:52:01 7.6 C 45 %
4346 07-03-2012 16:02:01 7.5 C 45 %
4347 07-03-2012 16:12:01 7.3 C 45 %
4348 07-03-2012 16:22:01 7.2 C 46 %
4349 07-03-2012 16:32:01 7.1 C 46 %
4350 07-03-2012 16:42:01 7.1 C 46 %
Sensor: Nr:Datum:Temp:Feuchte:
Aussen-T/F 4351 07-03-2012 16:51:02 7.1 C 47 %
4352 07-03-2012 17:02:01 7 C 47 %
4353 07-03-2012 17:12:01 7 C 47 %
4354 07-03-2012 17:22:01 6.9 C 49 %
4355 07-03-2012 17:32:02 6.8 C 50 %
4356 07-03-2012 17:42:02 6.7 C 50 %
4357 07-03-2012 17:52:01 6.8 C 49 %
4358 07-03-2012 18:02:01 6.6 C 50 %
4359 07-03-2012 18:12:01 6.7 C 49 %
4360 07-03-2012 18:22:02 6.7 C 48 %
4361 07-03-2012 18:32:01 6.7 C 48 %
4362 07-03-2012 18:42:01 6.6 C 48 %
4363 07-03-2012 18:52:01 6.6 C 48 %
4364 07-03-2012 19:02:02 6.6 C 48 %
4365 07-03-2012 19:12:02 6.5 C 48 %
4366 07-03-2012 19:22:01 5 C 61 %
4367 07-03-2012 19:32:02 4.6 C 68 %
4368 07-03-2012 19:42:02 4.3 C 72 %
4369 07-03-2012 19:52:01 4 C 75 %
4370 07-03-2012 20:02:01 3.7 C 78 %
4371 07-03-2012 20:12:01 3.7 C 79 %
4372 07-03-2012 20:22:02 3.7 C 80 %
4373 07-03-2012 20:32:01 3.7 C 80 %
4374 07-03-2012 20:42:01 3.5 C 81 %
4375 07-03-2012 20:52:01 3.6 C 81 %
Sensor: Nr:Datum:Temp:Feuchte:
Aussen-T/F 4376 07-03-2012 21:02:02 3.6 C 81 %
4377 07-03-2012 21:12:02 3.6 C 81 %
4378 07-03-2012 21:22:01 3.6 C 81 %
4379 07-03-2012 21:32:01 3.4 C 81 %
4380 07-03-2012 21:42:01 3.4 C 82 %
4381 07-03-2012 21:52:02 3.4 C 81 %
4382 07-03-2012 22:02:02 3.3 C 82 %
4383 07-03-2012 22:12:02 3.4 C 82 %
4384 07-03-2012 22:22:01 3.4 C 81 %
4385 07-03-2012 22:32:01 3.6 C 80 %
4386 07-03-2012 22:42:01 3.4 C 80 %
4387 07-03-2012 22:52:02 3.6 C 79 %
4388 07-03-2012 23:02:01 3.6 C 78 %
4389 07-03-2012 23:12:01 3.6 C 78 %
4390 07-03-2012 23:22:01 3.6 C 78 %
4391 07-03-2012 23:32:02 3.3 C 78 %
4392 07-03-2012 23:42:02 3.4 C 78 %
4393 07-03-2012 23:52:01 3.5 C 77 %
4394 08-03-2012 00:02:02 3.6 C 77 %
4395 08-03-2012 00:12:02 3.5 C 77 %
4396 08-03-2012 00:22:01 3.5 C 77 %
4397 08-03-2012 00:32:02 3.5 C 78 %
4398 08-03-2012 00:42:02 3.2 C 80 %
4399 08-03-2012 00:52:01 3.2 C 81 %
4400 08-03-2012 01:02:01 3.2 C 82 %
Sensor: Nr:Datum:Temp:Feuchte:
Aussen-T/F 4401 08-03-2012 01:12:01 3.3 C 84 %
4402 08-03-2012 01:22:02 3.4 C 84 %
4403 08-03-2012 01:32:01 3.6 C 85 %
4404 08-03-2012 01:42:01 3.5 C 85 %
4405 08-03-2012 01:52:02 3.8 C 86 %
4406 08-03-2012 02:02:02 3.9 C 86 %
4407 08-03-2012 02:12:02 4.1 C 86 %
4408 08-03-2012 02:22:01 4.2 C 86 %
4409 08-03-2012 02:32:02 5 C 86 %
4410 08-03-2012 02:42:03 5.3 C 84 %
4411 08-03-2012 02:52:01 5.4 C 81 %
4412 08-03-2012 03:02:02 5.5 C 78 %
4413 08-03-2012 03:12:02 5.5 C 75 %
4414 08-03-2012 03:22:02 5.4 C 73 %
4415 08-03-2012 03:32:01 5.4 C 72 %
4416 08-03-2012 03:42:01 5.3 C 71 %
4417 08-03-2012 03:52:01 5.2 C 70 %
4418 08-03-2012 04:02:01 5.2 C 69 %
4419 08-03-2012 04:12:01 5.2 C 68 %
4420 08-03-2012 04:22:01 5.2 C 68 %
4421 08-03-2012 04:32:02 5.1 C 70 %
4422 08-03-2012 04:42:02 4.4 C 74 %
4423 08-03-2012 04:52:01 4.5 C 76 %
4424 08-03-2012 05:02:02 4.6 C 77 %
4425 08-03-2012 05:12:02 4.6 C 76 %
Sensor: Nr:Datum:Temp:Feuchte:
Aussen-T/F 4426 08-03-2012 05:22:01 4.7 C 74 %
4427 08-03-2012 05:32:01 4.7 C 73 %
4428 08-03-2012 05:42:01 4.8 C 72 %
4429 08-03-2012 05:52:01 4.7 C 73 %
4430 08-03-2012 06:02:01 4.6 C 73 %
4431 08-03-2012 06:12:01 4.6 C 73 %
4432 08-03-2012 06:22:02 4.5 C 74 %
4433 08-03-2012 06:32:01 4.6 C 74 %
4434 08-03-2012 06:42:01 4.5 C 74 %
4435 08-03-2012 06:52:02 4.5 C 74 %
4436 08-03-2012 07:02:02 4.4 C 75 %
4437 08-03-2012 07:12:02 4.5 C 73 %
4438 08-03-2012 07:22:01 4.7 C 72 %
4439 08-03-2012 07:32:01 4.6 C 72 %
4440 08-03-2012 07:42:01 4.6 C 72 %
4441 08-03-2012 07:52:01 4.6 C 73 %
4442 08-03-2012 08:02:01 4.5 C 73 %
4443 08-03-2012 08:12:01 4.5 C 73 %
4444 08-03-2012 08:22:02 4.5 C 73 %
4445 08-03-2012 08:32:01 4.3 C 74 %
4446 08-03-2012 08:42:01 4.3 C 75 %
4447 08-03-2012 08:52:01 4.3 C 75 %
4448 08-03-2012 09:02:02 4.5 C 75 %
4449 08-03-2012 09:12:02 4.6 C 74 %
4450 08-03-2012 09:22:01 4.9 C 74 %
Sensor: Nr:Datum:Temp:Feuchte:
Aussen-T/F 4451 08-03-2012 09:32:01 4.6 C 75 %
4452 08-03-2012 09:42:01 4.8 C 74 %
4453 08-03-2012 09:52:02 5.1 C 72 %
4454 08-03-2012 10:02:01 5 C 70 %
4455 08-03-2012 10:12:01 5.4 C 70 %
4456 08-03-2012 10:22:02 5.4 C 69 %
4457 08-03-2012 10:32:01 5.3 C 67 %
4458 08-03-2012 10:42:01 5.7 C 68 %
4459 08-03-2012 10:52:01 4.5 C 72 %
4460 08-03-2012 11:02:02 4.4 C 73 %
4461 08-03-2012 11:12:02 4.9 C 76 %
4462 08-03-2012 11:22:01 5.2 C 74 %
4463 08-03-2012 11:32:01 6 C 68 %
4464 08-03-2012 11:42:01 6.7 C 65 %
4465 08-03-2012 11:52:02 6.5 C 63 %
4466 08-03-2012 12:02:01 7 C 61 %
4467 08-03-2012 12:12:01 6.8 C 61 %
4468 08-03-2012 12:22:01 6.4 C 63 %
4469 08-03-2012 12:32:01 8.2 C 59 %
4470 08-03-2012 12:42:01 7.4 C 57 %
4471 08-03-2012 12:52:01 8.4 C 50 %
4472 08-03-2012 13:02:02 6.8 C 54 %
4473 08-03-2012 13:12:02 8.3 C 47 %
4474 08-03-2012 13:22:01 9.4 C 46 %
4475 08-03-2012 13:32:01 8.1 C 46 %
Sensor: Nr:Datum:Temp:Feuchte:
Aussen-T/F 4476 08-03-2012 13:42:01 8.5 C 43 %
4477 08-03-2012 13:52:02 9 C 42 %
4478 08-03-2012 14:02:01 8.4 C 43 %
4479 08-03-2012 14:12:01 8.8 C 38 %
4480 08-03-2012 14:22:02 8.6 C 39 %
4481 08-03-2012 14:32:01 9.3 C 40 %
4482 08-03-2012 14:42:01 10.1 C 39 %
4483 08-03-2012 14:52:01 8.9 C 38 %
4484 08-03-2012 15:02:02 10 C 37 %
4485 08-03-2012 15:12:02 9.7 C 35 %
4486 08-03-2012 15:22:01 8.2 C 40 %
4487 08-03-2012 15:32:01 8.2 C 40 %
4488 08-03-2012 15:42:01 8.1 C 41 %
4489 08-03-2012 15:52:02 7.9 C 41 %
4490 08-03-2012 16:02:01 8 C 43 %
4491 08-03-2012 16:12:01 7.9 C 43 %
4492 08-03-2012 16:22:02 7.9 C 42 %
4493 08-03-2012 16:32:01 7.1 C 47 %
4494 08-03-2012 16:42:01 7 C 46 %
4495 08-03-2012 16:52:01 6.9 C 48 %
4496 08-03-2012 17:02:02 6.7 C 50 %
4497 08-03-2012 17:12:02 6.5 C 50 %
4498 08-03-2012 17:22:01 6.3 C 50 %
4499 08-03-2012 17:32:01 6.1 C 50 %
4500 08-03-2012 17:42:01 5.8 C 54 %
Sensor: Nr:Datum:Temp:Feuchte:
Aussen-T/F 4501 08-03-2012 17:52:02 5.5 C 55 %
4502 08-03-2012 18:02:01 5.6 C 58 %
4503 08-03-2012 18:12:01 5.3 C 59 %
4504 08-03-2012 18:22:01 5.2 C 61 %
4505 08-03-2012 18:32:02 4.7 C 63 %
4506 08-03-2012 18:42:02 4.5 C 66 %
4507 08-03-2012 18:52:01 3.6 C 69 %
4508 08-03-2012 19:02:01 3.3 C 72 %
4509 08-03-2012 19:12:01 2.8 C 76 %
4510 08-03-2012 19:22:02 2.6 C 78 %
4511 08-03-2012 19:32:01 2.5 C 79 %
4512 08-03-2012 19:42:01 3.2 C 80 %
4513 08-03-2012 19:52:01 4.3 C 75 %
4514 08-03-2012 20:02:02 4.2 C 74 %
4515 08-03-2012 20:12:02 3.8 C 76 %
4516 08-03-2012 20:22:01 3.7 C 78 %
4517 08-03-2012 20:32:01 3.4 C 79 %
4518 08-03-2012 20:42:01 3.3 C 81 %
4519 08-03-2012 20:52:01 2.9 C 82 %
4520 08-03-2012 21:02:01 2.5 C 83 %
4521 08-03-2012 21:12:01 2.7 C 84 %
4522 08-03-2012 21:22:01 2.9 C 84 %
4523 08-03-2012 21:32:01 2.6 C 84 %
4524 08-03-2012 21:42:02 2.3 C 84 %
4525 08-03-2012 21:52:01 2.1 C 85 %
Sensor: Nr:Datum:Temp:Feuchte:
Aussen-T/F 4526 08-03-2012 22:02:01 2.2 C 85 %
4527 08-03-2012 22:12:01 2.4 C 87 %
4528 08-03-2012 22:22:01 2.6 C 87 %
4529 08-03-2012 22:32:02 2.6 C 87 %
4530 08-03-2012 22:42:02 2.4 C 87 %
4531 08-03-2012 22:52:01 2.6 C 88 %
4532 08-03-2012 23:02:01 2.4 C 87 %
4533 08-03-2012 23:12:01 2.4 C 87 %
4534 08-03-2012 23:22:01 2.7 C 88 %
4535 08-03-2012 23:32:01 2.9 C 88 %
4536 08-03-2012 23:42:01 3.1 C 87 %
4537 08-03-2012 23:52:02 3.2 C 86 %
4538 09-03-2012 00:02:01 3.1 C 86 %
4539 09-03-2012 00:12:01 3 C 85 %
4540 09-03-2012 00:22:01 2.9 C 85 %
4541 09-03-2012 00:32:01 3.1 C 85 %
4542 09-03-2012 00:42:02 3 C 84 %
4543 09-03-2012 00:52:01 2.3 C 84 %
4544 09-03-2012 01:02:02 1.8 C 84 %
4545 09-03-2012 01:12:02 1.2 C 84 %
4546 09-03-2012 01:22:01 0.7 C 85 %
4547 09-03-2012 01:32:01 1.2 C 86 %
4548 09-03-2012 01:42:01 1 C 87 %
4549 09-03-2012 01:52:01 1.1 C 87 %
4550 09-03-2012 02:02:01 0.5 C 88 %
Sensor: Nr:Datum:Temp:Feuchte:
Aussen-T/F 4551 09-03-2012 02:12:01 0.7 C 89 %
4552 09-03-2012 02:22:02 0.8 C 89 %
4553 09-03-2012 02:32:01 0.5 C 89 %
4554 09-03-2012 02:42:01 0.4 C 89 %
4555 09-03-2012 02:52:01 0.4 C 90 %
4556 09-03-2012 03:02:01 0.4 C 90 %
4557 09-03-2012 03:12:01 -0.2 C 90 %
4558 09-03-2012 03:22:01 -0.9 C 89 %
4559 09-03-2012 03:32:02 -1.2 C 89 %
4560 09-03-2012 03:42:02 -0.9 C 90 %
4561 09-03-2012 03:52:01 -0.7 C 90 %
4562 09-03-2012 04:02:02 -0.4 C 90 %
4563 09-03-2012 04:12:02 -0.6 C 90 %
4564 09-03-2012 04:22:01 -0.6 C 91 %
4565 09-03-2012 04:32:01 -0.2 C 91 %
4566 09-03-2012 04:42:01 -0.1 C 91 %
4567 09-03-2012 04:52:01 -0.3 C 91 %
4568 09-03-2012 05:02:01 -0.4 C 92 %
4569 09-03-2012 05:12:01 -0.4 C 92 %
4570 09-03-2012 05:22:02 -0.4 C 92 %
4571 09-03-2012 05:32:01 -0.3 C 92 %
4572 09-03-2012 05:42:01 -0.3 C 92 %
4573 09-03-2012 05:53:01 -0.4 C 92 %
4574 09-03-2012 06:02:01 -0.5 C 92 %
4575 09-03-2012 06:12:01 -0.5 C 92 %
Sensor: Nr:Datum:Temp:Feuchte:
Aussen-T/F 4576 09-03-2012 06:22:01 -0.6 C 92 %
4577 09-03-2012 06:32:02 -0.5 C 92 %
4578 09-03-2012 06:42:02 -0.6 C 92 %
4579 09-03-2012 06:52:01 -0.5 C 92 %
4580 09-03-2012 07:02:02 -0.5 C 93 %
4581 09-03-2012 07:12:02 -0.5 C 93 %
4582 09-03-2012 07:22:01 -0.6 C 93 %
4583 09-03-2012 07:33:01 -0.4 C 93 %
4584 09-03-2012 07:43:01 -0.5 C 93 %
4585 09-03-2012 07:52:02 -0.5 C 93 %
4586 09-03-2012 08:02:01 -0.5 C 93 %
4587 09-03-2012 08:12:01 -0.2 C 93 %
4588 09-03-2012 08:22:01 -0.2 C 93 %
4589 09-03-2012 08:33:01 0.1 C 93 %
4590 09-03-2012 08:43:01 -0.1 C 93 %
4591 09-03-2012 08:52:02 0 C 93 %
4592 09-03-2012 09:02:01 0.1 C 93 %
4593 09-03-2012 09:12:01 0.5 C 93 %
4594 09-03-2012 09:23:01 0.6 C 93 %
4595 09-03-2012 09:32:01 1.2 C 93 %
4596 09-03-2012 09:42:02 1.2 C 93 %
4597 09-03-2012 09:53:01 1.7 C 92 %
4598 09-03-2012 10:02:02 2 C 91 %
4599 09-03-2012 10:12:02 2 C 89 %
4600 09-03-2012 10:22:01 2.2 C 88 %
Sensor: Nr:Datum:Temp:Feuchte:
Aussen-T/F 4601 09-03-2012 10:32:01 2.3 C 87 %
4602 09-03-2012 10:42:01 2 C 86 %
4603 09-03-2012 10:52:02 2.4 C 86 %
4604 09-03-2012 11:02:01 3 C 84 %
4605 09-03-2012 11:12:01 3.6 C 82 %
4606 09-03-2012 11:23:01 4.6 C 77 %
4607 09-03-2012 11:32:02 4.7 C 74 %
4608 09-03-2012 11:42:02 6.2 C 68 %
4609 09-03-2012 11:52:02 6.4 C 63 %
4610 09-03-2012 12:03:01 7.4 C 61 %
4611 09-03-2012 12:12:01 7.7 C 60 %
4612 09-03-2012 12:23:01 9.5 C 47 %
4613 09-03-2012 12:32:01 9.8 C 44 %
4614 09-03-2012 12:42:02 10.7 C 40 %
4615 09-03-2012 12:53:01 10.8 C 37 %
4616 09-03-2012 13:02:02 11.8 C 35 %
4617 09-03-2012 13:12:02 10.8 C 36 %
4618 09-03-2012 13:23:01 10 C 35 %
4619 09-03-2012 13:33:01 10.3 C 36 %
4620 09-03-2012 13:43:01 10.2 C 36 %
4621 09-03-2012 13:52:02 10.6 C 35 %
4622 09-03-2012 14:03:01 10.6 C 34 %
4623 09-03-2012 14:13:01 11.4 C 31 %
4624 09-03-2012 14:22:02 12.4 C 30 %
4625 09-03-2012 14:33:01 12.1 C 30 %
Sensor: Nr:Datum:Temp:Feuchte:
Aussen-T/F 4626 09-03-2012 14:42:01 12.7 C 27 %
4627 09-03-2012 14:53:01 12.8 C 26 %
4628 09-03-2012 15:02:02 12.4 C 25 %
4629 09-03-2012 15:12:02 12.8 C 22 %
4630 09-03-2012 15:23:01 12.4 C 23 %
4631 09-03-2012 15:33:01 13 C 20 %
4632 09-03-2012 15:43:01 13.2 C 25 %
4633 09-03-2012 15:52:02 14.9 C 23 %
4634 09-03-2012 16:03:01 15.2 C 20 %
4635 09-03-2012 16:13:01 14.8 C 22 %
4636 09-03-2012 16:23:01 13.5 C 25 %
4637 09-03-2012 16:32:02 12.8 C 25 %
4638 09-03-2012 16:42:02 12 C 31 %
4639 09-03-2012 16:53:01 11.7 C 32 %
4640 09-03-2012 17:03:01 10.7 C 35 %
4641 09-03-2012 17:13:01 10.2 C 40 %
4642 09-03-2012 17:22:02 9.9 C 43 %
4643 09-03-2012 17:33:01 10 C 42 %
4644 09-03-2012 17:43:01 9.7 C 45 %
4645 09-03-2012 17:53:01 9.6 C 41 %
4646 09-03-2012 18:03:02 8.4 C 47 %
4647 09-03-2012 18:13:02 7.3 C 52 %
4648 09-03-2012 18:23:01 6.6 C 55 %
4649 09-03-2012 18:32:02 6.2 C 56 %
4650 09-03-2012 18:42:02 5.9 C 57 %
Sensor: Nr:Datum:Temp:Feuchte:
Aussen-T/F 4651 09-03-2012 18:53:01 6.2 C 57 %
4652 09-03-2012 19:03:01 6.5 C 56 %
4653 09-03-2012 19:13:01 6.7 C 56 %
4654 09-03-2012 19:23:01 6.7 C 56 %
4655 09-03-2012 19:33:01 6.8 C 56 %
4656 09-03-2012 19:43:02 6.8 C 56 %
4657 09-03-2012 19:53:01 6.7 C 56 %
4658 09-03-2012 20:03:01 6.5 C 57 %
4659 09-03-2012 20:13:01 6.6 C 57 %
4660 09-03-2012 20:23:02 6.5 C 59 %
4661 09-03-2012 20:33:01 6.5 C 59 %
4662 09-03-2012 20:43:02 7.3 C 53 %
4663 09-03-2012 20:53:01 7.4 C 52 %
4664 09-03-2012 21:03:02 6.8 C 58 %
4665 09-03-2012 21:12:02 6.6 C 60 %
4666 09-03-2012 21:23:01 6.7 C 57 %
4667 09-03-2012 21:33:01 6.5 C 59 %
4668 09-03-2012 21:43:01 6.4 C 60 %
4669 09-03-2012 21:53:02 6.8 C 56 %
4670 09-03-2012 22:03:02 6.7 C 55 %
4671 09-03-2012 22:13:02 5.7 C 61 %
4672 09-03-2012 22:23:01 5.6 C 63 %
4673 09-03-2012 22:33:01 5.6 C 64 %
4674 09-03-2012 22:43:01 5.7 C 63 %
4675 09-03-2012 22:53:02 5.8 C 62 %
Sensor: Nr:Datum:Temp:Feuchte:
Aussen-T/F 4676 09-03-2012 23:03:01 5.6 C 63 %
4677 09-03-2012 23:13:01 5.6 C 64 %
4678 09-03-2012 23:23:01 5.6 C 62 %
4679 09-03-2012 23:33:01 6 C 62 %
468